U220 / G-EZUA 7700 Squawk Report (9th of September, 2021)

Aircraft A320 Reg No. G-EZUA Age N/A
Model A320 Jet engines 2 First flight N/A
Registered 09-02-11 Rollout N/A Delivered N/A
Construction No. 4588 Line No. N/A Series 214
ADSHEX 40643C Airline name easyJet Owner N/A
Airfield based Luton~Beds~G First tracked N/A

Flight history for G-EZUA

Route Flight No Date Playback
Schiphol (AMS) - Luton (LTN) U22154 2021-10-22 09:14:00
Luton (LTN) - Schiphol (AMS) U22153 2021-10-22 07:37:00
Faro (FAO) - Luton (LTN) U22022 2021-10-22 06:35:00
Luton (LTN) - Faro (FAO) U22021 2021-10-21 19:09:00
Jersey (JER) - Luton (LTN) U22312 2021-10-20 17:12:00
Luton (LTN) - Jersey (JER) U22311 2021-10-20 16:21:00
Inverness (INV) - Luton (LTN) U2156 2021-10-18 21:17:00
Luton (LTN) - Inverness (INV) U2155 2021-10-18 20:07:00
Geneve Cointrin (GVA) - Luton (LTN) U22062 2021-10-18 16:38:00
Luton (LTN) - Geneve Cointrin (GVA) U22061 2021-10-18 14:59:00
Son Sant Joan (PMI) - Luton (LTN) U22272 2021-10-18 12:39:00
Luton (LTN) - Son Sant Joan (PMI) U22271 2021-10-18 07:10:00
Lisbon (LIS) - Luton (LTN) U22370 2021-10-17 23:07:00
Luton (LTN) - Lisbon (LIS) U22369 2021-10-17 20:34:00
Dyce (ABZ) - Luton (LTN) U2146 2021-10-17 17:35:00
Luton (LTN) - Dyce (ABZ) U2145 2021-10-17 14:25:00
Son Sant Joan (PMI) - Luton (LTN) U22272 2021-10-17 13:10:00
Manchester (MAN) - Son Sant Joan (PMI) U21911 2021-10-17 08:33:00
Nikos Kazantzakis (HER) - Manchester (MAN) U21940 2021-10-17 05:00:00
Manchester (MAN) - Nikos Kazantzakis (HER) U21939 2021-10-16 17:42:00
Time Lat Lon Altitude Heading Speed Vertical Rate
2021-09-09 21:26:19 GMT 51.878151 -0.379429 0 303 16 0
2021-09-09 21:25:53 GMT 51.877258 -0.376449 0 295 18 0
2021-09-09 21:25:43 GMT 51.876942 -0.375385 0 306 15 0
2021-09-09 21:25:34 GMT 51.876476 -0.374699 0 340 15 0
2021-09-09 21:25:23 GMT 51.875778 -0.374546 0 8 15 0
2021-09-09 21:25:13 GMT 51.875206 -0.374851 0 39 12 0
2021-09-09 21:25:03 GMT 51.874763 -0.375538 0 47 13 0
2021-09-09 21:24:52 GMT 51.874340 -0.376245 0 45 13 0
2021-09-09 21:24:42 GMT 51.873844 -0.376968 0 5 15 0
2021-09-09 21:24:33 GMT 51.873299 -0.376579 0 275 15 0
2021-09-09 21:24:20 GMT 51.873573 -0.374630 0 253 38 0
2021-09-09 21:24:12 GMT 51.874100 -0.371624 0 253 74 0
2021-09-09 21:23:59 GMT 51.875610 -0.362772 625 255 114 -64
2021-09-09 21:23:51 GMT 51.876930 -0.355301 675 255 127 -512
2021-09-09 21:23:46 GMT 51.877762 -0.350375 750 255 126 -576
2021-09-09 21:23:42 GMT 51.878372 -0.346756 775 255 125 -640
2021-09-09 21:23:38 GMT 51.878979 -0.343170 825 255 125 -640
2021-09-09 21:23:36 GMT 51.879349 -0.341034 850 255 125 -704
2021-09-09 21:23:33 GMT 51.879959 -0.337458 900 254 125 -768
2021-09-09 21:23:32 GMT 51.879959 -0.337458 900 254 125 -768
2021-09-09 21:23:30 GMT 51.880188 -0.336196 900 254 125 -768
2021-09-09 21:23:29 GMT 51.880646 -0.333747 975 254 125 -704
2021-09-09 21:23:27 GMT 51.880646 -0.333747 975 254 125 -704
2021-09-09 21:23:25 GMT 51.881104 -0.331074 975 254 126 -640
2021-09-09 21:23:23 GMT 51.881397 -0.329361 1,000 254 125 -704
2021-09-09 21:23:20 GMT 51.881744 -0.327511 1,025 254 125 -640
2021-09-09 21:23:18 GMT 51.882050 -0.325623 1,050 254 125 -576
2021-09-09 21:23:17 GMT 51.882248 -0.324691 1,050 254 125 -512
2021-09-09 21:23:14 GMT 51.882793 -0.321655 1,100 255 125 -576
2021-09-09 21:23:12 GMT 51.883026 -0.320162 1,100 255 125 -576
2021-09-09 21:23:11 GMT 51.883163 -0.319346 1,125 255 125 -640
2021-09-09 21:23:10 GMT 51.883308 -0.318451 1,125 255 125 -640
2021-09-09 21:23:09 GMT 51.883621 -0.316599 1,150 255 125 -640
2021-09-09 21:23:07 GMT 51.883774 -0.315781 1,150 255 125 -640
2021-09-09 21:23:05 GMT 51.884098 -0.314026 1,175 255 125 -576
2021-09-09 21:23:03 GMT 51.884472 -0.311737 1,200 256 125 -576
2021-09-09 21:23:02 GMT 51.884628 -0.310735 1,200 255 125 -576
2021-09-09 21:22:59 GMT 51.885086 -0.307914 1,225 255 125 -576
2021-09-09 21:22:57 GMT 51.885357 -0.306549 1,250 255 126 -768
2021-09-09 21:22:56 GMT 51.885540 -0.305328 1,275 255 126 -768
2021-09-09 21:22:55 GMT 51.885681 -0.304499 1,275 255 126 -768
2021-09-09 21:22:52 GMT 51.886093 -0.302124 1,300 255 126 -768
2021-09-09 21:22:51 GMT 51.886238 -0.301056 1,325 255 126 -768
2021-09-09 21:22:50 GMT 51.886505 -0.299749 1,325 255 126 -704
2021-09-09 21:22:48 GMT 51.886734 -0.298338 1,350 255 126 -704
2021-09-09 21:22:46 GMT 51.887032 -0.296555 1,375 255 126 -704
2021-09-09 21:22:45 GMT 51.887310 -0.295105 1,400 255 126 -704
2021-09-09 21:22:43 GMT 51.887833 -0.292028 1,425 255 126 -704
2021-09-09 21:22:41 GMT 51.887833 -0.292028 1,450 255 126 -704
2021-09-09 21:22:39 GMT 51.888153 -0.290173 1,450 255 126 -640
2021-09-09 21:22:37 GMT 51.888611 -0.287500 1,500 255 126 -640
2021-09-09 21:22:35 GMT 51.888756 -0.286636 1,500 255 126 -640
2021-09-09 21:22:34 GMT 51.888939 -0.285645 1,525 255 126 -640
2021-09-09 21:22:32 GMT 51.889267 -0.283813 1,525 255 126 -640
2021-09-09 21:22:31 GMT 51.889404 -0.282898 1,550 255 126 -640
2021-09-09 21:22:30 GMT 51.889572 -0.281859 1,550 255 126 -640
2021-09-09 21:22:28 GMT 51.890057 -0.279160 1,575 255 126 -640
2021-09-09 21:22:27 GMT 51.890213 -0.278147 1,600 255 126 -640
2021-09-09 21:22:24 GMT 51.890717 -0.275326 1,625 255 126 -640
2021-09-09 21:22:22 GMT 51.890854 -0.274436 1,650 255 126 -704
2021-09-09 21:22:21 GMT 51.890991 -0.273619 1,650 255 126 -640
2021-09-09 21:22:20 GMT 51.891453 -0.270920 1,700 255 126 -640
2021-09-09 21:22:17 GMT 51.891678 -0.269610 1,700 255 126 -640
2021-09-09 21:22:16 GMT 51.891872 -0.268631 1,725 255 126 -704
2021-09-09 21:22:14 GMT 51.892105 -0.267181 1,750 255 126 -640
2021-09-09 21:22:12 GMT 51.892429 -0.265274 1,750 255 126 -640
2021-09-09 21:22:11 GMT 51.892899 -0.262680 1,800 255 126 -704
2021-09-09 21:22:08 GMT 51.893036 -0.261765 1,800 255 126 -704
2021-09-09 21:22:07 GMT 51.893417 -0.259515 1,825 255 126 -704
2021-09-09 21:22:05 GMT 51.893555 -0.258713 1,850 255 126 -704
2021-09-09 21:22:03 GMT 51.893829 -0.257263 1,875 255 126 -704
2021-09-09 21:22:02 GMT 51.894062 -0.255746 1,875 255 126 -704
2021-09-09 21:22:00 GMT 51.894295 -0.254490 1,900 255 126 -640
2021-09-09 21:21:59 GMT 51.894527 -0.253078 1,900 255 126 -640
2021-09-09 21:21:57 GMT 51.894791 -0.251389 1,925 255 126 -640
2021-09-09 21:21:55 GMT 51.895111 -0.249710 1,950 255 126 -640
2021-09-09 21:21:54 GMT 51.895317 -0.248369 1,975 255 126 -640
2021-09-09 21:21:53 GMT 51.895458 -0.247428 2,000 255 126 0
2021-09-09 21:21:51 GMT 51.895924 -0.244603 2,000 255 126 -576
2021-09-09 21:21:50 GMT 51.895924 -0.244603 2,025 255 125 -576
2021-09-09 21:21:49 GMT 51.896248 -0.242798 2,025 255 125 -576
2021-09-09 21:21:46 GMT 51.896481 -0.241385 2,050 255 125 -576
2021-09-09 21:21:44 GMT 51.896805 -0.239487 2,075 255 125 -576
2021-09-09 21:21:42 GMT 51.897320 -0.236598 2,100 255 125 -640
2021-09-09 21:21:39 GMT 51.897675 -0.234604 2,125 255 125 -640
2021-09-09 21:21:37 GMT 51.897995 -0.232849 2,150 255 125 -640
2021-09-09 21:21:35 GMT 51.898296 -0.231027 2,150 255 125 -576
2021-09-09 21:21:34 GMT 51.898544 -0.229568 2,175 255 125 -576
2021-09-09 21:21:32 GMT 51.898716 -0.228594 2,200 255 125 -576
2021-09-09 21:21:30 GMT 51.898956 -0.227127 2,200 254 126 -640
2021-09-09 21:21:29 GMT 51.899136 -0.226161 2,225 254 126 -640
2021-09-09 21:21:28 GMT 51.899460 -0.224357 2,250 255 127 -704
2021-09-09 21:21:26 GMT 51.899601 -0.223415 2,250 255 127 -768
2021-09-09 21:21:25 GMT 51.899780 -0.222549 2,275 255 127 -768
2021-09-09 21:21:24 GMT 51.900101 -0.220718 2,300 255 127 -768
2021-09-09 21:21:22 GMT 51.900299 -0.219491 2,300 255 127 -768
2021-09-09 21:21:20 GMT 51.900742 -0.216980 2,350 255 127 -704
2021-09-09 21:21:19 GMT 51.900742 -0.216980 2,350 255 127 -640
2021-09-09 21:21:18 GMT 51.900879 -0.216141 2,375 255 127 -640
2021-09-09 21:21:16 GMT 51.901245 -0.213928 2,375 255 127 -640
2021-09-09 21:21:14 GMT 51.901604 -0.212036 2,400 255 129 -512
2021-09-09 21:21:13 GMT 51.901741 -0.211094 2,400 255 129 -512
2021-09-09 21:21:11 GMT 51.902069 -0.209198 2,425 255 130 -704
2021-09-09 21:21:09 GMT 51.902348 -0.207720 2,450 255 130 -768
2021-09-09 21:21:08 GMT 51.902580 -0.206308 2,475 255 131 -768
2021-09-09 21:21:06 GMT 51.902859 -0.204503 2,500 255 132 -768
2021-09-09 21:21:05 GMT 51.903046 -0.203482 2,500 255 132 -768
2021-09-09 21:21:04 GMT 51.903370 -0.201678 2,525 255 134 -704
2021-09-09 21:21:02 GMT 51.903534 -0.200653 2,550 255 134 -640
2021-09-09 21:21:01 GMT 51.903671 -0.199814 2,550 255 136 -640
2021-09-09 21:20:59 GMT 51.904022 -0.197911 2,575 255 136 -640
2021-09-09 21:20:58 GMT 51.904163 -0.196891 2,600 255 138 -640
2021-09-09 21:20:57 GMT 51.904312 -0.195923 2,600 255 139 -704
2021-09-09 21:20:55 GMT 51.904678 -0.193863 2,625 255 139 -704
2021-09-09 21:20:54 GMT 51.904861 -0.192810 2,625 255 141 -704
2021-09-09 21:20:53 GMT 51.905231 -0.190691 2,650 255 142 -704
2021-09-09 21:20:51 GMT 51.905418 -0.189593 2,675 255 143 -704
2021-09-09 21:20:49 GMT 51.905914 -0.186615 2,700 255 146 -704
2021-09-09 21:20:46 GMT 51.906677 -0.182216 2,725 255 149 -832
2021-09-09 21:20:44 GMT 51.906677 -0.182216 2,750 255 150 -896
2021-09-09 21:20:42 GMT 51.907059 -0.179977 2,775 255 151 -960
2021-09-09 21:20:41 GMT 51.907242 -0.178909 2,775 255 152 -896
2021-09-09 21:20:39 GMT 51.907562 -0.177037 2,800 255 152 -896
2021-09-09 21:20:38 GMT 51.907700 -0.176163 2,825 255 152 -832
2021-09-09 21:20:37 GMT 51.907932 -0.174997 2,850 255 153 -832
2021-09-09 21:20:35 GMT 51.908340 -0.172577 2,875 255 153 -896
2021-09-09 21:20:34 GMT 51.908478 -0.171585 2,900 255 153 -896
2021-09-09 21:20:32 GMT 51.908863 -0.169425 2,900 255 153 -896
2021-09-09 21:20:31 GMT 51.909096 -0.168012 2,925 255 154 -896
2021-09-09 21:20:30 GMT 51.909302 -0.166931 2,950 255 154 -896
2021-09-09 21:20:28 GMT 51.909714 -0.164490 2,975 255 154 -832
2021-09-09 21:20:27 GMT 51.909889 -0.163461 3,000 255 154 -832
2021-09-09 21:20:24 GMT 51.910492 -0.160065 3,025 255 154 -960
2021-09-09 21:20:22 GMT 51.910812 -0.158157 3,050 255 154 -832
2021-09-09 21:20:21 GMT 51.911087 -0.156708 3,075 255 154 -832
2021-09-09 21:20:20 GMT 51.911285 -0.155535 3,100 255 154 -768
2021-09-09 21:20:19 GMT 51.911797 -0.152553 3,125 255 154 -768
2021-09-09 21:20:17 GMT 51.911797 -0.152553 3,125 255 154 -768
2021-09-09 21:20:16 GMT 51.911983 -0.151376 3,150 255 154 -832
2021-09-09 21:20:15 GMT 51.912369 -0.149155 3,175 255 154 -768
2021-09-09 21:20:13 GMT 51.912540 -0.148158 3,175 255 154 -896
2021-09-09 21:20:11 GMT 51.912960 -0.145961 3,200 255 154 -832
2021-09-09 21:20:09 GMT 51.913288 -0.143842 3,225 255 154 -704
2021-09-09 21:20:06 GMT 51.913937 -0.140311 3,275 255 154 -704
2021-09-09 21:20:04 GMT 51.914124 -0.139134 3,300 255 154 -704
2021-09-09 21:20:03 GMT 51.914310 -0.137957 3,300 255 154 -704
2021-09-09 21:20:02 GMT 51.914684 -0.135838 3,325 255 154 -704
2021-09-09 21:20:00 GMT 51.914932 -0.134354 3,325 255 155 -640
2021-09-09 21:19:59 GMT 51.915115 -0.133286 3,375 255 155 -704
2021-09-09 21:19:57 GMT 51.915615 -0.130502 3,375 255 155 -576
2021-09-09 21:19:55 GMT 51.916031 -0.128174 3,375 255 154 -384
2021-09-09 21:19:53 GMT 51.916313 -0.126343 3,375 255 154 -320
2021-09-09 21:19:51 GMT 51.916763 -0.123596 3,400 255 154 -384
2021-09-09 21:19:50 GMT 51.916965 -0.122576 3,400 255 154 -320
2021-09-09 21:19:47 GMT 51.917496 -0.119400 3,425 255 154 -256
2021-09-09 21:19:45 GMT 51.917862 -0.117340 3,425 255 154 -256
2021-09-09 21:19:44 GMT 51.918034 -0.116220 3,450 255 155 -384
2021-09-09 21:19:42 GMT 51.918453 -0.113865 3,450 255 155 -384
2021-09-09 21:19:41 GMT 51.918640 -0.112767 3,450 255 155 -384
2021-09-09 21:19:39 GMT 51.919006 -0.110550 3,475 255 155 -384
2021-09-09 21:19:36 GMT 51.919601 -0.106964 3,475 256 155 -256
2021-09-09 21:19:35 GMT 51.919785 -0.105896 3,475 256 155 -256
2021-09-09 21:19:33 GMT 51.920177 -0.103428 3,500 255 154 -256
2021-09-09 21:19:31 GMT 51.920456 -0.101702 3,525 255 155 -384
2021-09-09 21:19:29 GMT 51.920929 -0.098801 3,525 255 155 -384
2021-09-09 21:19:26 GMT 51.921528 -0.095424 3,525 255 154 -448
2021-09-09 21:19:25 GMT 51.921944 -0.092913 3,550 255 154 -256
2021-09-09 21:19:22 GMT 51.922504 -0.089460 3,550 255 154 -256
2021-09-09 21:19:20 GMT 51.922504 -0.089460 3,575 256 154 -256
2021-09-09 21:19:18 GMT 51.922874 -0.087263 3,575 256 154 -256
2021-09-09 21:19:17 GMT 51.923061 -0.086007 3,575 256 154 -256
2021-09-09 21:19:16 GMT 51.923248 -0.084909 3,575 256 154 -320
2021-09-09 21:19:14 GMT 51.923676 -0.082321 3,600 255 154 -320
2021-09-09 21:19:13 GMT 51.923859 -0.081177 3,600 255 154 -256
2021-09-09 21:19:11 GMT 51.924225 -0.078788 3,600 255 153 -320
2021-09-09 21:19:10 GMT 51.924408 -0.077744 3,625 256 153 -256
2021-09-09 21:19:08 GMT 51.924774 -0.075531 3,625 255 153 -256
2021-09-09 21:19:06 GMT 51.925140 -0.073471 3,625 255 153 -256
2021-09-09 21:19:04 GMT 51.925415 -0.071793 3,650 255 153 -256
2021-09-09 21:19:03 GMT 51.925690 -0.070038 3,650 255 153 -320
2021-09-09 21:19:02 GMT 51.925873 -0.068893 3,650 255 153 -320
2021-09-09 21:19:01 GMT 51.926086 -0.067723 3,650 255 153 -256
2021-09-09 21:19:00 GMT 51.926239 -0.066681 3,650 255 153 -256
2021-09-09 21:18:59 GMT 51.926460 -0.065526 3,675 255 153 -320
2021-09-09 21:18:56 GMT 51.927113 -0.061602 3,675 255 154 -256
2021-09-09 21:18:54 GMT 51.927254 -0.060660 3,700 255 154 -256
2021-09-09 21:18:53 GMT 51.927486 -0.059483 3,700 255 154 -320
2021-09-09 21:18:52 GMT 51.927841 -0.057373 3,700 255 154 -320
2021-09-09 21:18:50 GMT 51.928043 -0.056266 3,700 255 154 -320
2021-09-09 21:18:49 GMT 51.928230 -0.055167 3,725 254 155 -256
2021-09-09 21:18:48 GMT 51.928371 -0.054147 3,725 254 155 -256
2021-09-09 21:18:46 GMT 51.928802 -0.051804 3,725 254 155 -256
2021-09-09 21:18:45 GMT 51.929020 -0.050616 3,725 254 154 -256
2021-09-09 21:18:44 GMT 51.929443 -0.048370 3,725 253 154 -256
2021-09-09 21:18:42 GMT 51.929672 -0.047163 3,750 253 154 -256
2021-09-09 21:18:40 GMT 51.930092 -0.044965 3,750 253 155 -256
2021-09-09 21:18:39 GMT 51.930313 -0.044022 3,750 253 155 -320
2021-09-09 21:18:38 GMT 51.930511 -0.043004 3,750 253 155 -320
2021-09-09 21:18:37 GMT 51.931000 -0.040588 3,775 252 155 -320
2021-09-09 21:18:35 GMT 51.931210 -0.039394 3,775 252 155 -256
2021-09-09 21:18:34 GMT 51.931458 -0.038300 3,775 252 156 -256
2021-09-09 21:18:32 GMT 51.931908 -0.036098 3,800 252 156 -320
2021-09-09 21:18:31 GMT 51.932186 -0.034921 3,800 251 156 -256
2021-09-09 21:18:30 GMT 51.932419 -0.033822 3,800 251 156 -256
2021-09-09 21:18:28 GMT 51.932877 -0.031509 3,800 251 157 -320
2021-09-09 21:18:27 GMT 51.933163 -0.030369 3,800 250 156 -256
2021-09-09 21:18:26 GMT 51.933632 -0.028251 3,825 250 156 -256
2021-09-09 21:18:23 GMT 51.934093 -0.026132 3,825 249 158 -256
2021-09-09 21:18:22 GMT 51.934326 -0.025190 3,825 249 158 -256
2021-09-09 21:18:21 GMT 51.934616 -0.024109 3,850 249 158 -320
2021-09-09 21:18:19 GMT 51.935303 -0.021286 3,850 247 157 -320
2021-09-09 21:18:17 GMT 51.935909 -0.018912 3,875 247 158 -320
2021-09-09 21:18:16 GMT 51.936172 -0.017929 3,875 247 158 -320
2021-09-09 21:18:14 GMT 51.936676 -0.016174 3,875 246 157 -320
2021-09-09 21:18:13 GMT 51.936935 -0.015145 3,900 241 158 -384
2021-09-09 21:18:11 GMT 51.937729 -0.012399 3,900 241 158 -384
2021-09-09 21:18:08 GMT 51.938797 -0.009103 3,900 241 158 -384
2021-09-09 21:18:06 GMT 51.939331 -0.007553 3,925 241 158 -384
2021-09-09 21:18:05 GMT 51.939651 -0.006638 3,925 240 158 -384
2021-09-09 21:18:04 GMT 51.939960 -0.005729 3,925 239 158 -384
2021-09-09 21:18:03 GMT 51.940800 -0.003688 3,950 237 158 -384
2021-09-09 21:18:00 GMT 51.941544 -0.001805 3,950 236 157 -384
2021-09-09 21:17:59 GMT 51.942429 0.000235 3,975 233 157 -384
2021-09-09 21:17:57 GMT 51.942947 0.001297 3,975 233 158 -384
2021-09-09 21:17:56 GMT 51.943359 0.002197 4,000 232 157 -384
2021-09-09 21:17:54 GMT 51.944290 0.004002 4,000 229 158 -448
2021-09-09 21:17:53 GMT 51.944778 0.004883 4,000 228 157 -448
2021-09-09 21:17:52 GMT 51.945190 0.005646 4,025 227 157 -448
2021-09-09 21:17:51 GMT 51.946243 0.007324 4,025 224 157 -448
2021-09-09 21:17:49 GMT 51.946712 0.008083 4,025 222 157 -448
2021-09-09 21:17:48 GMT 51.947250 0.008774 4,050 220 156 -512
2021-09-09 21:17:47 GMT 51.947826 0.009574 4,050 218 157 -576
2021-09-09 21:17:45 GMT 51.949131 0.011143 4,075 216 156 -576
2021-09-09 21:17:44 GMT 51.949692 0.011693 4,100 211 156 -576
2021-09-09 21:17:43 GMT 51.950947 0.012791 4,100 206 157 -576
2021-09-09 21:17:41 GMT 51.951508 0.013262 4,125 204 156 -512
2021-09-09 21:17:40 GMT 51.952148 0.013733 4,125 201 157 -512
2021-09-09 21:17:38 GMT 51.953751 0.014648 4,150 194 158 -576
2021-09-09 21:17:37 GMT 51.954437 0.014954 4,150 191 158 -576
2021-09-09 21:17:36 GMT 51.955948 0.015411 4,150 191 158 -576
2021-09-09 21:17:34 GMT 51.956718 0.015538 4,175 184 160 -640
2021-09-09 21:17:33 GMT 51.957466 0.015616 4,200 182 161 -640
2021-09-09 21:17:32 GMT 51.958115 0.015538 4,200 178 161 -640
2021-09-09 21:17:31 GMT 51.960163 0.015302 4,250 172 163 -704
2021-09-09 21:17:29 GMT 51.960163 0.015302 4,250 170 163 -704
2021-09-09 21:17:27 GMT 51.961670 0.014801 4,250 165 165 -768
2021-09-09 21:17:25 GMT 51.963226 0.014114 4,275 162 165 -640
2021-09-09 21:17:24 GMT 51.964771 0.013341 4,300 162 166 -640
2021-09-09 21:17:22 GMT 51.965565 0.012870 4,325 162 166 -640
2021-09-09 21:17:21 GMT 51.966309 0.012556 4,325 162 166 -640
2021-09-09 21:17:19 GMT 51.967804 0.011749 4,350 162 165 -576
2021-09-09 21:17:18 GMT 51.968498 0.011379 4,350 162 164 -576
2021-09-09 21:17:16 GMT 51.970413 0.010376 4,400 162 164 -576
2021-09-09 21:17:14 GMT 51.972107 0.009537 4,400 162 164 -576
2021-09-09 21:17:12 GMT 51.972733 0.009181 4,425 162 164 -576
2021-09-09 21:17:11 GMT 51.973526 0.008789 4,425 162 164 -576
2021-09-09 21:17:09 GMT 51.974945 0.008087 4,450 162 164 -576
2021-09-09 21:17:08 GMT 51.975666 0.007690 4,450 162 164 -576
2021-09-09 21:17:07 GMT 51.976318 0.007377 4,475 162 164 -576
2021-09-09 21:17:05 GMT 51.977715 0.006670 4,500 162 164 -576
2021-09-09 21:17:04 GMT 51.978561 0.006256 4,500 162 164 -576
2021-09-09 21:17:03 GMT 51.979248 0.005875 4,500 162 164 -576
2021-09-09 21:17:01 GMT 51.980621 0.005188 4,525 162 164 -576
2021-09-09 21:17:00 GMT 51.981487 0.004708 4,525 162 164 -576
2021-09-09 21:16:59 GMT 51.982086 0.004425 4,550 162 164 -576
2021-09-09 21:16:58 GMT 51.983185 0.003891 4,550 162 164 -576
2021-09-09 21:16:55 GMT 51.985023 0.002904 4,575 162 164 -576
2021-09-09 21:16:54 GMT 51.985722 0.002511 4,600 162 164 -576
2021-09-09 21:16:53 GMT 51.986526 0.002136 4,600 162 164 -576
2021-09-09 21:16:52 GMT 51.987213 0.001831 4,600 162 164 -576
2021-09-09 21:16:51 GMT 51.988678 0.001068 4,625 162 164 -576
2021-09-09 21:16:49 GMT 51.989319 0.000687 4,650 162 164 -576
2021-09-09 21:16:48 GMT 51.990891 -0.000078 4,650 162 164 -576
2021-09-09 21:16:46 GMT 51.991882 -0.000534 4,675 162 164 -576
2021-09-09 21:16:45 GMT 51.993355 -0.001334 4,700 162 164 -576
2021-09-09 21:16:43 GMT 51.994034 -0.001678 4,700 162 164 -576
2021-09-09 21:16:42 GMT 51.994766 -0.002060 4,725 162 164 -576
2021-09-09 21:16:41 GMT 51.996197 -0.002747 4,725 162 164 -576
2021-09-09 21:16:39 GMT 51.996895 -0.003139 4,750 162 164 -576
2021-09-09 21:16:38 GMT 51.997650 -0.003510 4,750 162 164 -576
2021-09-09 21:16:36 GMT 51.999161 -0.004272 4,775 162 164 -576
2021-09-09 21:16:35 GMT 51.999874 -0.004630 4,775 162 164 -576
2021-09-09 21:16:34 GMT 52.001736 -0.005572 4,800 162 164 -576
2021-09-09 21:16:32 GMT 52.001736 -0.005572 4,825 162 164 -640
2021-09-09 21:16:31 GMT 52.002365 -0.005875 4,825 162 165 -640
2021-09-09 21:16:29 GMT 52.003967 -0.006714 4,825 162 165 -704
2021-09-09 21:16:28 GMT 52.004578 -0.007063 4,850 162 166 -704
2021-09-09 21:16:27 GMT 52.006165 -0.007858 4,850 162 166 -704
2021-09-09 21:16:25 GMT 52.006859 -0.008161 4,875 162 167 -768
2021-09-09 21:16:24 GMT 52.007603 -0.008554 4,900 162 167 -896
2021-09-09 21:16:23 GMT 52.009930 -0.009731 4,925 162 168 -1088
2021-09-09 21:16:21 GMT 52.009930 -0.009731 4,950 162 168 -1088
2021-09-09 21:16:20 GMT 52.010674 -0.010045 4,975 162 168 -1088
2021-09-09 21:16:18 GMT 52.011837 -0.010672 5,000 162 168 -1024
2021-09-09 21:16:17 GMT 52.012909 -0.011222 5,025 162 169 -1024
2021-09-09 21:16:16 GMT 52.014305 -0.011928 5,050 162 169 -1024
2021-09-09 21:16:14 GMT 52.015003 -0.012242 5,050 162 169 -960
2021-09-09 21:16:13 GMT 52.015686 -0.012665 5,075 162 170 -960
2021-09-09 21:16:12 GMT 52.016495 -0.013027 5,100 162 170 -960
2021-09-09 21:16:10 GMT 52.018021 -0.013809 5,125 161 170 -832
2021-09-09 21:16:09 GMT 52.018867 -0.014282 5,150 161 169 -704
2021-09-09 21:16:07 GMT 52.020309 -0.015067 5,150 161 170 -576
2021-09-09 21:16:05 GMT 52.021847 -0.015930 5,175 160 170 -256
2021-09-09 21:16:04 GMT 52.022545 -0.016323 5,175 159 171 -192
2021-09-09 21:16:03 GMT 52.024174 -0.017264 5,175 158 171 -128
2021-09-09 21:16:01 GMT 52.024933 -0.017776 5,175 158 171 -128
2021-09-09 21:16:00 GMT 52.026829 -0.018991 5,175 157 172 -64
2021-09-09 21:15:58 GMT 52.026829 -0.018991 5,175 156 172 0
2021-09-09 21:15:57 GMT 52.027527 -0.019540 5,175 155 173 64
2021-09-09 21:15:54 GMT 52.029968 -0.021439 5,175 149 179 256
2021-09-09 21:15:52 GMT 52.032787 -0.024405 5,150 136 191 192
2021-09-09 21:15:50 GMT 52.032787 -0.024405 5,150 136 191 192
2021-09-09 21:15:49 GMT 52.033585 -0.025482 5,125 136 191 192
2021-09-09 21:15:47 GMT 52.034546 -0.026932 5,125 134 192 64
2021-09-09 21:15:46 GMT 52.035114 -0.027937 5,150 131 194 0
2021-09-09 21:15:44 GMT 52.036465 -0.030526 5,150 122 198 0
2021-09-09 21:15:43 GMT 52.036972 -0.031662 5,150 122 198 0
2021-09-09 21:15:42 GMT 52.037521 -0.033035 5,150 122 198 0
2021-09-09 21:15:39 GMT 52.038837 -0.036883 5,150 115 200 0
2021-09-09 21:15:38 GMT 52.039627 -0.039902 5,150 108 202 64
2021-09-09 21:15:36 GMT 52.039909 -0.041199 5,150 106 203 64
2021-09-09 21:15:35 GMT 52.040188 -0.042690 5,150 106 203 64
2021-09-09 21:15:34 GMT 52.040653 -0.045515 5,150 101 204 64
2021-09-09 21:15:31 GMT 52.041027 -0.049752 5,150 95 206 -64
2021-09-09 21:15:29 GMT 52.041119 -0.051322 5,150 93 207 -64
2021-09-09 21:15:27 GMT 52.041210 -0.054382 5,150 91 208 -64
2021-09-09 21:15:26 GMT 52.041210 -0.055952 5,150 89 208 0
2021-09-09 21:15:25 GMT 52.041210 -0.057521 5,150 89 208 0
2021-09-09 21:15:23 GMT 52.041210 -0.060660 5,150 88 208 0
2021-09-09 21:15:21 GMT 52.041164 -0.064035 5,150 88 207 0
2021-09-09 21:15:19 GMT 52.041164 -0.066389 5,150 88 207 0
2021-09-09 21:15:18 GMT 52.041119 -0.067958 5,150 88 207 0
2021-09-09 21:15:16 GMT 52.041073 -0.071333 5,150 88 207 0
2021-09-09 21:15:15 GMT 52.041073 -0.072902 5,150 88 207 0
2021-09-09 21:15:14 GMT 52.041046 -0.077820 5,150 88 207 0
2021-09-09 21:15:12 GMT 52.041046 -0.077820 5,150 89 207 0
2021-09-09 21:15:11 GMT 52.041000 -0.079498 5,150 89 207 0
2021-09-09 21:15:10 GMT 52.041000 -0.080872 5,150 89 207 0
2021-09-09 21:15:09 GMT 52.040977 -0.084281 5,150 89 208 -64
2021-09-09 21:15:07 GMT 52.040955 -0.085907 5,150 89 208 -64
2021-09-09 21:15:06 GMT 52.040909 -0.088501 5,150 89 208 -64
2021-09-09 21:15:04 GMT 52.040909 -0.090103 5,150 89 208 0
2021-09-09 21:15:02 GMT 52.040909 -0.093231 5,150 89 208 0
2021-09-09 21:15:01 GMT 52.040863 -0.094757 5,150 89 208 -64
2021-09-09 21:15:00 GMT 52.040886 -0.096209 5,150 89 208 -64
2021-09-09 21:14:58 GMT 52.040817 -0.101471 5,150 89 209 0
2021-09-09 21:14:55 GMT 52.040794 -0.103271 5,150 89 209 0
2021-09-09 21:14:54 GMT 52.040794 -0.105783 5,150 89 210 0
2021-09-09 21:14:53 GMT 52.040771 -0.107269 5,150 89 210 0
2021-09-09 21:14:51 GMT 52.040771 -0.112457 5,150 89 211 0
2021-09-09 21:14:49 GMT 52.040726 -0.114212 5,150 89 211 0
2021-09-09 21:14:47 GMT 52.040699 -0.117475 5,150 89 212 0
2021-09-09 21:14:46 GMT 52.040699 -0.119045 5,150 89 212 0
2021-09-09 21:14:44 GMT 52.040680 -0.123138 5,150 89 213 0
2021-09-09 21:14:42 GMT 52.040653 -0.124773 5,150 89 214 0
2021-09-09 21:14:41 GMT 52.040653 -0.126186 5,150 89 215 0
2021-09-09 21:14:39 GMT 52.040653 -0.129639 5,150 89 216 0
2021-09-09 21:14:38 GMT 52.040607 -0.131051 5,150 89 216 0
2021-09-09 21:14:36 GMT 52.040588 -0.134201 5,150 88 218 0
2021-09-09 21:14:35 GMT 52.040588 -0.135880 5,150 88 218 0
2021-09-09 21:14:34 GMT 52.040562 -0.137408 5,150 88 219 64
2021-09-09 21:14:32 GMT 52.040466 -0.141410 5,150 88 221 0
2021-09-09 21:14:31 GMT 52.040451 -0.143127 5,150 87 222 0
2021-09-09 21:14:30 GMT 52.040421 -0.143999 5,150 87 224 0
2021-09-09 21:14:28 GMT 52.040329 -0.147531 5,150 86 226 0
2021-09-09 21:14:27 GMT 52.040268 -0.149307 5,150 86 226 0
2021-09-09 21:14:26 GMT 52.040001 -0.155378 5,150 85 228 0
2021-09-09 21:14:24 GMT 52.040001 -0.155378 5,150 84 231 0
2021-09-09 21:14:23 GMT 52.039902 -0.156860 5,150 83 231 0
2021-09-09 21:14:22 GMT 52.039810 -0.158386 5,150 83 232 -64
2021-09-09 21:14:19 GMT 52.039444 -0.162990 5,150 81 234 -64
2021-09-09 21:14:18 GMT 52.039261 -0.164948 5,150 80 235 -64
2021-09-09 21:14:16 GMT 52.039024 -0.167463 5,150 80 235 0
2021-09-09 21:14:15 GMT 52.038837 -0.169268 5,150 80 235 0
2021-09-09 21:14:14 GMT 52.038651 -0.171151 5,150 79 235 0
2021-09-09 21:14:12 GMT 52.038280 -0.174604 5,150 79 234 0
2021-09-09 21:14:11 GMT 52.038094 -0.176331 5,150 79 234 64
2021-09-09 21:14:10 GMT 52.037861 -0.178214 5,150 79 234 64
2021-09-09 21:14:08 GMT 52.037521 -0.181427 5,150 79 235 0
2021-09-09 21:14:07 GMT 52.037350 -0.183079 5,150 80 236 0
2021-09-09 21:14:05 GMT 52.036976 -0.186454 5,150 80 236 0
2021-09-09 21:14:04 GMT 52.036835 -0.188065 5,150 80 236 0
2021-09-09 21:14:03 GMT 52.036606 -0.189907 5,150 80 236 0
2021-09-09 21:14:02 GMT 52.035999 -0.195557 5,150 80 237 0
2021-09-09 21:14:00 GMT 52.035999 -0.195557 5,150 80 237 0
2021-09-09 21:13:59 GMT 52.035812 -0.197283 5,150 80 237 0
2021-09-09 21:13:58 GMT 52.035439 -0.200814 5,150 80 237 0
2021-09-09 21:13:56 GMT 52.035252 -0.202541 5,150 80 237 0
2021-09-09 21:13:55 GMT 52.035069 -0.204110 5,150 80 238 0
2021-09-09 21:13:54 GMT 52.034649 -0.207955 5,150 79 238 0
2021-09-09 21:13:52 GMT 52.034454 -0.209808 5,150 79 239 0
2021-09-09 21:13:51 GMT 52.034271 -0.211639 5,125 79 239 0
2021-09-09 21:13:49 GMT 52.033859 -0.215302 5,125 79 240 0
2021-09-09 21:13:48 GMT 52.033676 -0.216904 5,150 79 240 -64
2021-09-09 21:13:47 GMT 52.033310 -0.220261 5,150 79 240 -64
2021-09-09 21:13:45 GMT 52.033127 -0.222092 5,150 79 240 -64
2021-09-09 21:13:44 GMT 52.032944 -0.223694 5,150 79 241 -64
2021-09-09 21:13:43 GMT 52.032532 -0.227432 5,150 79 241 0
2021-09-09 21:13:41 GMT 52.032322 -0.229300 5,150 79 241 0
2021-09-09 21:13:40 GMT 52.032120 -0.231323 5,150 79 241 0
2021-09-09 21:13:38 GMT 52.031708 -0.234680 5,150 79 241 0
2021-09-09 21:13:37 GMT 52.031528 -0.236598 5,150 80 242 0
2021-09-09 21:13:36 GMT 52.031342 -0.238266 5,150 80 242 64
2021-09-09 21:13:34 GMT 52.030975 -0.241547 5,150 80 243 64
2021-09-09 21:13:33 GMT 52.030792 -0.243454 5,150 80 243 64
2021-09-09 21:13:32 GMT 52.030411 -0.246800 5,150 80 244 128
2021-09-09 21:13:29 GMT 52.029991 -0.250802 5,125 80 246 128
2021-09-09 21:13:28 GMT 52.029785 -0.252686 5,125 80 246 128
2021-09-09 21:13:27 GMT 52.029575 -0.254412 5,125 80 248 128
2021-09-09 21:13:25 GMT 52.029236 -0.258026 5,125 80 249 128
2021-09-09 21:13:24 GMT 52.029015 -0.259748 5,125 80 250 64
2021-09-09 21:13:23 GMT 52.028877 -0.261396 5,125 80 251 64
2021-09-09 21:13:21 GMT 52.028412 -0.265712 5,125 80 253 -64
2021-09-09 21:13:20 GMT 52.028229 -0.267639 5,125 80 254 -128
2021-09-09 21:13:19 GMT 52.027817 -0.271606 5,125 80 256 -128
2021-09-09 21:13:17 GMT 52.027588 -0.273514 5,125 80 256 -128
2021-09-09 21:13:16 GMT 52.027405 -0.275421 5,125 80 257 -128
2021-09-09 21:13:15 GMT 52.027039 -0.279236 5,150 80 258 -192
2021-09-09 21:13:12 GMT 52.026489 -0.284195 5,150 80 259 -192
2021-09-09 21:13:09 GMT 52.026077 -0.288239 5,175 80 259 -256
2021-09-09 21:13:06 GMT 52.025433 -0.294434 5,175 80 257 -192
2021-09-09 21:13:05 GMT 52.025013 -0.298436 5,200 80 257 -256
2021-09-09 21:13:02 GMT 52.024593 -0.302202 5,225 80 256 -576
2021-09-09 21:13:00 GMT 52.024200 -0.306168 5,225 80 256 -832
2021-09-09 21:12:58 GMT 52.023754 -0.310207 5,250 80 256 -832
2021-09-09 21:12:56 GMT 52.023430 -0.313424 5,275 80 256 -960
2021-09-09 21:12:55 GMT 52.023243 -0.315151 5,325 80 257 -1024
2021-09-09 21:12:53 GMT 52.022736 -0.319977 5,325 80 257 -1280
2021-09-09 21:12:51 GMT 52.022079 -0.326372 5,450 80 257 -1280
2021-09-09 21:12:49 GMT 52.022079 -0.326372 5,450 80 258 -1280
2021-09-09 21:12:47 GMT 52.021591 -0.331268 5,450 80 258 -1280
2021-09-09 21:12:46 GMT 52.021336 -0.333435 5,475 80 258 -1280
2021-09-09 21:12:45 GMT 52.021133 -0.335236 5,500 80 258 -1280
2021-09-09 21:12:44 GMT 52.020962 -0.337045 5,550 80 258 -1280
2021-09-09 21:12:42 GMT 52.020683 -0.339713 5,550 80 259 -1280
2021-09-09 21:12:40 GMT 52.020309 -0.343628 5,600 80 259 -1344
2021-09-09 21:12:38 GMT 52.019890 -0.347560 5,650 80 259 -1408
2021-09-09 21:12:37 GMT 52.019707 -0.349522 5,650 80 259 -1408
2021-09-09 21:12:35 GMT 52.019333 -0.353367 5,725 80 259 -1472
2021-09-09 21:12:34 GMT 52.019119 -0.355377 5,725 80 259 -1472
2021-09-09 21:12:33 GMT 52.018913 -0.357213 5,750 80 259 -1472
2021-09-09 21:12:31 GMT 52.018524 -0.361099 5,800 80 259 -1472
2021-09-09 21:12:30 GMT 52.018341 -0.363007 5,875 80 259 -1472
2021-09-09 21:12:28 GMT 52.017609 -0.370483 5,900 80 259 -1408
2021-09-09 21:12:26 GMT 52.017609 -0.370483 5,925 80 259 -1344
2021-09-09 21:12:24 GMT 52.016922 -0.377045 6,000 80 259 -1152
2021-09-09 21:12:22 GMT 52.016727 -0.379028 6,000 80 259 -1088
2021-09-09 21:12:20 GMT 52.016258 -0.384051 6,050 80 260 -768
2021-09-09 21:12:18 GMT 52.016052 -0.386047 6,075 80 260 -704
2021-09-09 21:12:16 GMT 52.015640 -0.390320 6,075 80 261 -576
2021-09-09 21:12:15 GMT 52.015457 -0.391846 6,100 80 261 -512
2021-09-09 21:12:14 GMT 52.015190 -0.394488 6,100 80 262 -448
2021-09-09 21:12:13 GMT 52.014866 -0.397784 6,125 81 263 -384
2021-09-09 21:12:11 GMT 52.014629 -0.400530 6,125 81 264 -320
2021-09-09 21:12:10 GMT 52.014496 -0.401535 6,125 81 264 -256
2021-09-09 21:12:08 GMT 52.014118 -0.405552 6,150 81 265 -128
2021-09-09 21:12:07 GMT 52.013931 -0.407514 6,150 81 265 -128
2021-09-09 21:12:06 GMT 52.013744 -0.409712 6,150 81 265 0
2021-09-09 21:12:05 GMT 52.013580 -0.411530 6,150 82 266 0
2021-09-09 21:12:04 GMT 52.013187 -0.415597 6,150 82 267 0
2021-09-09 21:12:02 GMT 52.013000 -0.417794 6,150 82 268 0
2021-09-09 21:12:00 GMT 52.012711 -0.421448 6,150 83 267 0
2021-09-09 21:11:59 GMT 52.012585 -0.423366 6,150 84 269 64
2021-09-09 21:11:58 GMT 52.012299 -0.428085 6,150 85 269 64
2021-09-09 21:11:56 GMT 52.012161 -0.430069 6,150 85 269 64
2021-09-09 21:11:54 GMT 52.012024 -0.437622 6,150 90 272 -64
2021-09-09 21:11:52 GMT 52.012024 -0.437622 6,150 92 272 -128
2021-09-09 21:11:51 GMT 52.012024 -0.439689 6,150 94 272 -192
2021-09-09 21:11:50 GMT 52.012211 -0.443769 6,175 97 273 -320
2021-09-09 21:11:48 GMT 52.012348 -0.445810 6,175 97 273 -320
2021-09-09 21:11:47 GMT 52.012619 -0.448761 6,175 99 274 -384
2021-09-09 21:11:46 GMT 52.012756 -0.449753 6,200 103 274 -384
2021-09-09 21:11:43 GMT 52.013718 -0.456161 6,225 110 275 -640
2021-09-09 21:11:41 GMT 52.014538 -0.460249 6,225 110 275 -640
2021-09-09 21:11:40 GMT 52.014957 -0.461897 6,250 112 276 -768
2021-09-09 21:11:39 GMT 52.015411 -0.463562 6,250 116 275 -896
2021-09-09 21:11:38 GMT 52.015934 -0.465506 6,275 116 275 -960
2021-09-09 21:11:35 GMT 52.018478 -0.472870 6,325 124 275 -896
2021-09-09 21:11:34 GMT 52.019165 -0.474548 6,350 125 275 -896
2021-09-09 21:11:32 GMT 52.019985 -0.476571 6,350 129 277 -704
2021-09-09 21:11:31 GMT 52.021500 -0.479736 6,375 129 277 -704
2021-09-09 21:11:28 GMT 52.023754 -0.484419 6,425 129 277 -704
2021-09-09 21:11:27 GMT 52.024521 -0.485916 6,425 129 279 -768
2021-09-09 21:11:25 GMT 52.026169 -0.489120 6,450 129 280 -768
2021-09-09 21:11:23 GMT 52.027817 -0.492401 6,475 129 281 -832
2021-09-09 21:11:20 GMT 52.030411 -0.497524 6,525 129 283 -1024
2021-09-09 21:11:19 GMT 52.032440 -0.501556 6,550 129 283 -1152
2021-09-09 21:11:16 GMT 52.033253 -0.503174 6,600 129 284 -1280
2021-09-09 21:11:15 GMT 52.033951 -0.504532 6,625 129 284 -1536
2021-09-09 21:11:13 GMT 52.035160 -0.506941 6,650 129 284 -1536
2021-09-09 21:11:12 GMT 52.035999 -0.508589 6,700 129 284 -1792
2021-09-09 21:11:11 GMT 52.036789 -0.510101 6,750 129 284 -1792
2021-09-09 21:11:10 GMT 52.039349 -0.515180 6,800 129 284 -1856
2021-09-09 21:11:08 GMT 52.039349 -0.515180 6,800 129 284 -1920
2021-09-09 21:11:06 GMT 52.041027 -0.518476 6,850 129 284 -1920
2021-09-09 21:11:05 GMT 52.041870 -0.520172 6,900 129 284 -1984
2021-09-09 21:11:04 GMT 52.042786 -0.522003 6,950 129 284 -2048
2021-09-09 21:11:03 GMT 52.044518 -0.525382 7,000 129 284 -2048
2021-09-09 21:11:01 GMT 52.045395 -0.527115 7,050 129 284 -2048
2021-09-09 21:11:00 GMT 52.046242 -0.528835 7,075 129 284 -2048
2021-09-09 21:10:58 GMT 52.048050 -0.532379 7,150 129 282 -1984
2021-09-09 21:10:56 GMT 52.048965 -0.534210 7,200 129 282 -1984
2021-09-09 21:10:55 GMT 52.049789 -0.535812 7,225 129 282 -1984
2021-09-09 21:10:54 GMT 52.051083 -0.538409 7,275 129 282 -1856
2021-09-09 21:10:52 GMT 52.052261 -0.540771 7,325 129 282 -1856
2021-09-09 21:10:51 GMT 52.053642 -0.543431 7,375 129 282 -1856
2021-09-09 21:10:50 GMT 52.054504 -0.545197 7,400 129 282 -1856
2021-09-09 21:10:49 GMT 52.055420 -0.546951 7,425 129 282 -1792
2021-09-09 21:10:47 GMT 52.057087 -0.550337 7,500 129 282 -1792
2021-09-09 21:10:46 GMT 52.058018 -0.552141 7,525 129 282 -1792
2021-09-09 21:10:45 GMT 52.058716 -0.553513 7,550 129 282 -1728
2021-09-09 21:10:29 GMT 52.073318 -0.582504 7,925 129 285 -896
2021-09-09 21:10:27 GMT 52.073318 -0.582504 7,925 129 285 -704
2021-09-09 21:10:26 GMT 52.074078 -0.584080 7,950 129 285 -704
2021-09-09 21:10:24 GMT 52.075699 -0.587311 7,975 129 285 -576
2021-09-09 21:10:23 GMT 52.076591 -0.589024 7,975 129 285 -384
2021-09-09 21:10:21 GMT 52.078266 -0.592399 8,000 129 285 -256
2021-09-09 21:10:18 GMT 52.080734 -0.597305 8,000 129 286 -64
2021-09-09 21:10:16 GMT 52.082748 -0.601273 8,000 129 286 0
2021-09-09 21:10:14 GMT 52.084366 -0.604483 8,000 129 286 0
2021-09-09 21:10:13 GMT 52.085297 -0.606367 8,000 129 286 0
2021-09-09 21:10:11 GMT 52.086601 -0.609035 8,000 129 286 0
2021-09-09 21:10:10 GMT 52.087440 -0.610683 8,000 129 287 0
2021-09-09 21:10:08 GMT 52.089249 -0.614243 8,000 129 287 0
2021-09-09 21:10:06 GMT 52.091118 -0.618059 8,000 129 287 0
2021-09-09 21:10:03 GMT 52.093723 -0.623239 8,000 129 287 0
2021-09-09 21:10:02 GMT 52.094604 -0.625000 8,000 129 287 0
2021-09-09 21:10:00 GMT 52.096329 -0.628418 8,000 129 287 0
2021-09-09 21:09:58 GMT 52.098038 -0.631790 8,000 129 287 0
2021-09-09 21:09:57 GMT 52.098862 -0.633469 8,000 129 286 0
2021-09-09 21:09:55 GMT 52.100567 -0.636893 8,000 129 286 0
2021-09-09 21:09:54 GMT 52.101471 -0.638657 8,000 129 287 0
2021-09-09 21:09:53 GMT 52.102242 -0.640268 8,000 129 287 0
2021-09-09 21:09:52 GMT 52.103870 -0.643406 8,000 129 287 0
2021-09-09 21:09:50 GMT 52.104710 -0.645054 8,000 129 287 0
2021-09-09 21:09:48 GMT 52.105782 -0.647252 8,000 129 287 0
2021-09-09 21:09:47 GMT 52.106689 -0.649033 8,000 129 287 0
2021-09-09 21:09:46 GMT 52.107643 -0.650940 8,000 129 287 0
2021-09-09 21:09:45 GMT 52.109318 -0.654236 8,000 129 287 0
2021-09-09 21:09:43 GMT 52.110214 -0.655975 8,000 129 287 0
2021-09-09 21:09:42 GMT 52.111042 -0.657610 8,000 129 287 0
2021-09-09 21:09:41 GMT 52.112823 -0.661163 8,000 129 288 0
2021-09-09 21:09:39 GMT 52.113647 -0.662789 8,000 129 288 0
2021-09-09 21:09:38 GMT 52.114391 -0.664280 8,000 129 288 0
2021-09-09 21:09:36 GMT 52.116253 -0.667969 8,000 129 288 0
2021-09-09 21:09:35 GMT 52.117172 -0.669708 8,000 129 288 0
2021-09-09 21:09:34 GMT 52.117996 -0.671387 8,000 129 288 0
2021-09-09 21:09:33 GMT 52.119690 -0.674744 8,000 129 288 0
2021-09-09 21:09:31 GMT 52.120468 -0.676193 8,000 129 288 0
2021-09-09 21:09:30 GMT 52.121281 -0.677778 8,000 129 288 0
2021-09-09 21:09:28 GMT 52.122959 -0.681152 8,000 129 288 0
2021-09-09 21:09:27 GMT 52.123764 -0.682755 8,000 129 288 0
2021-09-09 21:09:26 GMT 52.125458 -0.686111 8,000 129 289 0
2021-09-09 21:09:24 GMT 52.126465 -0.688095 8,000 129 289 0
2021-09-09 21:09:23 GMT 52.127289 -0.689706 8,000 129 288 0
2021-09-09 21:09:22 GMT 52.129028 -0.693130 8,000 129 288 0
2021-09-09 21:09:20 GMT 52.129848 -0.694650 8,000 129 288 0
2021-09-09 21:09:19 GMT 52.130592 -0.696219 8,000 129 288 0
2021-09-09 21:09:18 GMT 52.132233 -0.699463 8,000 129 288 0
2021-09-09 21:09:16 GMT 52.133060 -0.701006 8,000 129 288 0
2021-09-09 21:09:15 GMT 52.133926 -0.702744 8,000 129 288 0
2021-09-09 21:09:13 GMT 52.135666 -0.706100 8,000 129 288 0
2021-09-09 21:09:12 GMT 52.136642 -0.708069 8,000 129 289 0
2021-09-09 21:09:10 GMT 52.138687 -0.712128 8,000 129 289 0
2021-09-09 21:09:08 GMT 52.140747 -0.716171 8,000 129 289 0
2021-09-09 21:09:06 GMT 52.141998 -0.718584 8,000 129 289 0
2021-09-09 21:09:05 GMT 52.142715 -0.719986 8,000 129 289 0
2021-09-09 21:09:04 GMT 52.144371 -0.723214 8,000 129 289 0
2021-09-09 21:09:01 GMT 52.146103 -0.726700 8,000 129 289 0
2021-09-09 21:08:59 GMT 52.147842 -0.729980 8,000 129 288 0
2021-09-09 21:08:57 GMT 52.150543 -0.735397 8,000 129 288 0
2021-09-09 21:08:54 GMT 52.152237 -0.738678 8,000 129 288 0
2021-09-09 21:08:53 GMT 52.153126 -0.740479 8,000 129 288 0
2021-09-09 21:08:52 GMT 52.155899 -0.745850 8,000 129 288 -64
2021-09-09 21:08:50 GMT 52.155899 -0.745850 8,000 129 288 -64
2021-09-09 21:08:48 GMT 52.157684 -0.749359 8,000 129 287 -128
2021-09-09 21:08:47 GMT 52.158508 -0.751038 8,000 129 288 -128
2021-09-09 21:08:46 GMT 52.159409 -0.752799 8,000 129 288 -128
2021-09-09 21:08:45 GMT 52.161133 -0.756095 8,025 129 288 -192
2021-09-09 21:08:43 GMT 52.162064 -0.757978 8,025 129 288 -256
2021-09-09 21:08:41 GMT 52.163410 -0.760646 8,025 129 288 -320
2021-09-09 21:08:38 GMT 52.165600 -0.764962 8,050 129 288 -384
2021-09-09 21:08:37 GMT 52.166809 -0.767238 8,050 129 288 -448
2021-09-09 21:08:35 GMT 52.168579 -0.770769 8,075 129 288 -576
2021-09-09 21:08:33 GMT 52.170593 -0.774689 8,100 129 288 -576
2021-09-09 21:08:31 GMT 52.171967 -0.777359 8,100 129 288 -576
2021-09-09 21:08:30 GMT 52.172863 -0.779088 8,125 129 288 -576
2021-09-09 21:08:28 GMT 52.174446 -0.782305 8,125 129 288 -576
2021-09-09 21:08:26 GMT 52.175766 -0.784836 8,150 129 288 -576
2021-09-09 21:08:25 GMT 52.178238 -0.789642 8,175 129 288 -576
2021-09-09 21:08:22 GMT 52.179611 -0.792313 8,200 129 288 -640
2021-09-09 21:08:20 GMT 52.181335 -0.795724 8,225 129 288 -576
2021-09-09 21:08:17 GMT 52.183475 -0.799883 8,250 129 287 -576
2021-09-09 21:08:16 GMT 52.184219 -0.801453 8,250 129 287 -576
2021-09-09 21:08:15 GMT 52.186798 -0.806503 8,275 129 287 -640
2021-09-09 21:08:13 GMT 52.187576 -0.808029 8,300 129 288 -640
2021-09-09 21:08:12 GMT 52.189297 -0.811419 8,325 129 288 -640
2021-09-09 21:08:10 GMT 52.190140 -0.812988 8,325 129 288 -640
2021-09-09 21:08:09 GMT 52.191017 -0.814715 8,325 129 288 -640
2021-09-09 21:08:08 GMT 52.191761 -0.816284 8,350 129 288 -640
2021-09-09 21:08:06 GMT 52.193527 -0.819702 8,375 129 288 -576
2021-09-09 21:08:04 GMT 52.195312 -0.823135 8,375 129 288 -576
2021-09-09 21:08:03 GMT 52.196136 -0.824814 8,400 129 288 -576
2021-09-09 21:08:02 GMT 52.196606 -0.825780 8,400 129 288 -576
2021-09-09 21:08:01 GMT 52.197487 -0.827427 8,400 129 288 -576
2021-09-09 21:07:57 GMT 52.200348 -0.832977 8,450 129 288 -512
2021-09-09 21:07:56 GMT 52.201447 -0.835190 8,450 129 288 -512
2021-09-09 21:07:54 GMT 52.202934 -0.838021 8,475 129 288 -512
2021-09-09 21:07:52 GMT 52.204750 -0.841553 8,500 129 288 -512
2021-09-09 21:07:50 GMT 52.205658 -0.843277 8,500 129 288 -512
2021-09-09 21:07:49 GMT 52.207497 -0.846889 8,525 129 288 -512
2021-09-09 21:07:47 GMT 52.208221 -0.848312 8,525 129 288 -512
2021-09-09 21:07:46 GMT 52.209126 -0.850028 8,525 129 288 -512
2021-09-09 21:07:44 GMT 52.210968 -0.853653 8,550 130 288 -512
2021-09-09 21:07:43 GMT 52.212936 -0.857468 8,575 130 288 -576
2021-09-09 21:07:41 GMT 52.213409 -0.858346 8,575 130 288 -576
2021-09-09 21:07:40 GMT 52.214527 -0.860543 8,600 130 288 -576
2021-09-09 21:07:39 GMT 52.216278 -0.863953 8,600 130 288 -576
2021-09-09 21:07:37 GMT 52.217194 -0.865784 8,625 130 288 -512
2021-09-09 21:07:35 GMT 52.219833 -0.870823 8,650 130 288 -512
2021-09-09 21:07:33 GMT 52.220673 -0.872421 8,650 130 288 -512
2021-09-09 21:07:32 GMT 52.221588 -0.874252 8,675 130 288 -512
2021-09-09 21:07:31 GMT 52.224117 -0.879142 8,675 130 288 -576
2021-09-09 21:07:29 GMT 52.225113 -0.881042 8,700 130 289 -576
2021-09-09 21:07:28 GMT 52.225113 -0.881042 8,700 130 289 -576
2021-09-09 21:07:27 GMT 52.225983 -0.882721 8,725 130 289 -576
2021-09-09 21:07:26 GMT 52.226910 -0.884478 8,725 130 289 -576
2021-09-09 21:07:24 GMT 52.228683 -0.887909 8,750 130 290 -512
2021-09-09 21:07:23 GMT 52.229462 -0.889359 8,775 130 290 -512
2021-09-09 21:07:21 GMT 52.231110 -0.892563 8,775 130 290 -576
2021-09-09 21:07:20 GMT 52.232391 -0.895081 8,775 130 290 -576
2021-09-09 21:07:18 GMT 52.233658 -0.897505 8,775 130 290 -576
2021-09-09 21:07:17 GMT 52.234589 -0.899277 8,800 130 292 -576
2021-09-09 21:07:16 GMT 52.235474 -0.901036 8,825 130 292 -576
2021-09-09 21:07:15 GMT 52.236511 -0.902939 8,825 130 292 -576
2021-09-09 21:07:13 GMT 52.238220 -0.906215 8,825 130 293 -576
2021-09-09 21:07:12 GMT 52.239059 -0.907942 8,850 130 293 -512
2021-09-09 21:07:11 GMT 52.239899 -0.909500 8,850 130 294 -512
2021-09-09 21:07:09 GMT 52.241501 -0.912552 8,875 130 295 -512
2021-09-09 21:07:08 GMT 52.242462 -0.914383 8,875 130 295 -512
2021-09-09 21:07:07 GMT 52.244553 -0.918379 8,900 130 296 -512
2021-09-09 21:07:05 GMT 52.245110 -0.919399 8,925 130 297 -512
2021-09-09 21:07:04 GMT 52.246090 -0.921282 8,925 130 297 -512
2021-09-09 21:07:02 GMT 52.247856 -0.924656 8,925 130 297 -448
2021-09-09 21:07:01 GMT 52.248741 -0.926383 8,950 130 299 -448
2021-09-09 21:07:00 GMT 52.249626 -0.928109 8,950 130 299 -448
2021-09-09 21:06:58 GMT 52.251720 -0.932033 8,950 130 299 -448
2021-09-09 21:06:56 GMT 52.253304 -0.935172 8,975 130 300 -384
2021-09-09 21:06:54 GMT 52.255215 -0.938782 8,975 130 300 -320
2021-09-09 21:06:52 GMT 52.257065 -0.942307 9,000 130 302 -128
2021-09-09 21:06:51 GMT 52.258007 -0.944118 9,000 130 302 0
2021-09-09 21:06:50 GMT 52.258804 -0.945587 9,000 130 303 128
2021-09-09 21:06:49 GMT 52.260754 -0.949376 9,000 130 305 128
2021-09-09 21:06:47 GMT 52.261688 -0.951157 8,975 130 305 64
2021-09-09 21:06:46 GMT 52.262146 -0.952072 8,975 130 306 64
2021-09-09 21:06:44 GMT 52.265034 -0.957615 8,975 130 307 64
2021-09-09 21:06:42 GMT 52.266129 -0.959625 8,975 130 311 -64
2021-09-09 21:06:40 GMT 52.268108 -0.963423 8,975 130 311 -128
2021-09-09 21:06:39 GMT 52.269039 -0.965227 8,975 130 312 -192
2021-09-09 21:06:37 GMT 52.270981 -0.968857 9,000 130 314 -256
2021-09-09 21:06:36 GMT 52.271851 -0.970535 9,000 130 315 -320
2021-09-09 21:06:34 GMT 52.273911 -0.974503 9,025 130 315 -320
2021-09-09 21:06:33 GMT 52.274902 -0.976371 9,050 130 317 -384
2021-09-09 21:06:31 GMT 52.276535 -0.979431 9,050 130 317 -448
2021-09-09 21:06:30 GMT 52.278442 -0.983119 9,050 130 317 -640
2021-09-09 21:06:27 GMT 52.280724 -0.987435 9,100 130 317 -768
2021-09-09 21:06:26 GMT 52.282585 -0.991124 9,125 130 317 -896
2021-09-09 21:06:24 GMT 52.283470 -0.992772 9,125 130 317 -1024
2021-09-09 21:06:23 GMT 52.284439 -0.994644 9,150 130 317 -1088
2021-09-09 21:06:22 GMT 52.286869 -0.999285 9,200 130 317 -1216
2021-09-09 21:06:20 GMT 52.286869 -0.999285 9,200 130 317 -1280
2021-09-09 21:06:19 GMT 52.288834 -1.003036 9,250 130 318 -1408
2021-09-09 21:06:17 GMT 52.290161 -1.005630 9,275 130 318 -1472
2021-09-09 21:06:16 GMT 52.291058 -1.007368 9,300 130 318 -1536
2021-09-09 21:06:14 GMT 52.293060 -1.011213 9,350 130 318 -1536
2021-09-09 21:06:13 GMT 52.294037 -1.013018 9,375 130 318 -1536
2021-09-09 21:06:11 GMT 52.295517 -1.015854 9,425 130 319 -1536
2021-09-09 21:06:10 GMT 52.296413 -1.017569 9,450 130 319 -1536
2021-09-09 21:06:09 GMT 52.297344 -1.019453 9,475 130 319 -1536
2021-09-09 21:06:08 GMT 52.299763 -1.024083 9,525 130 319 -1536
2021-09-09 21:06:06 GMT 52.300278 -1.025009 9,550 130 319 -1536
2021-09-09 21:06:05 GMT 52.302509 -1.029419 9,600 130 319 -1536
2021-09-09 21:06:03 GMT 52.303528 -1.031342 9,625 130 320 -1536
2021-09-09 21:06:02 GMT 52.304489 -1.033173 9,650 130 320 -1472
2021-09-09 21:06:01 GMT 52.305397 -1.034912 9,675 130 320 -1472
2021-09-09 21:06:00 GMT 52.307281 -1.038513 9,725 130 320 -1472
2021-09-09 21:05:58 GMT 52.308243 -1.040344 9,750 130 320 -1472
2021-09-09 21:05:57 GMT 52.310211 -1.044235 9,825 130 321 -1472
2021-09-09 21:05:55 GMT 52.311260 -1.046212 9,825 130 322 -1472
2021-09-09 21:05:53 GMT 52.313171 -1.049901 9,875 130 322 -1472
2021-09-09 21:05:52 GMT 52.313690 -1.050873 9,900 130 322 -1408
2021-09-09 21:05:51 GMT 52.314835 -1.053085 9,950 130 322 -1472
2021-09-09 21:05:50 GMT 52.316895 -1.057120 9,975 130 322 -1408
2021-09-09 21:05:48 GMT 52.317719 -1.058655 10,000 130 322 -1408
2021-09-09 21:05:47 GMT 52.318943 -1.061044 10,025 130 322 -1472
2021-09-09 21:05:46 GMT 52.320969 -1.064987 10,075 130 322 -1472
2021-09-09 21:05:44 GMT 52.321472 -1.065903 10,100 130 322 -1472
2021-09-09 21:05:43 GMT 52.322388 -1.067714 10,100 130 322 -1472
2021-09-09 21:05:41 GMT 52.324390 -1.071638 10,150 130 322 -1472
2021-09-09 21:05:40 GMT 52.325317 -1.073380 10,175 130 322 -1472
2021-09-09 21:05:39 GMT 52.327274 -1.077209 10,225 130 322 -1472
2021-09-09 21:05:37 GMT 52.328346 -1.079250 10,250 130 322 -1472
2021-09-09 21:05:36 GMT 52.329185 -1.080898 10,275 130 322 -1536
2021-09-09 21:05:33 GMT 52.332413 -1.087189 10,375 130 322 -1536
2021-09-09 21:05:32 GMT 52.333282 -1.088791 10,400 130 322 -1536
2021-09-09 21:05:30 GMT 52.335377 -1.092826 10,450 130 322 -1472
2021-09-09 21:05:28 GMT 52.337284 -1.096514 10,500 130 322 -1472
2021-09-09 21:05:27 GMT 52.337814 -1.097565 10,500 130 322 -1472
2021-09-09 21:05:26 GMT 52.339191 -1.100281 10,550 130 322 -1472
2021-09-09 21:05:24 GMT 52.340775 -1.103263 10,650 129 323 -1536
2021-09-09 21:05:22 GMT 52.342171 -1.106088 10,650 129 323 -1472
2021-09-09 21:05:21 GMT 52.343056 -1.107736 10,650 129 323 -1472
2021-09-09 21:05:20 GMT 52.345200 -1.111895 10,675 129 323 -1472
2021-09-09 21:05:18 GMT 52.346191 -1.113815 10,725 129 323 -1536
2021-09-09 21:05:16 GMT 52.348179 -1.117702 10,775 129 324 -1472
2021-09-09 21:05:15 GMT 52.349110 -1.119507 10,800 129 324 -1472
2021-09-09 21:05:13 GMT 52.351341 -1.123823 10,850 129 324 -1472
2021-09-09 21:05:11 GMT 52.352787 -1.126648 10,925 129 324 -1472
2021-09-09 21:05:09 GMT 52.355160 -1.131356 10,950 129 324 -1472
2021-09-09 21:05:07 GMT 52.356171 -1.133347 11,000 129 324 -1472
2021-09-09 21:05:06 GMT 52.357727 -1.136322 11,025 129 324 -1472
2021-09-09 21:05:04 GMT 52.359650 -1.140137 11,075 129 324 -1472
2021-09-09 21:05:03 GMT 52.362747 -1.146188 11,150 130 325 -1408
2021-09-09 21:05:01 GMT 52.362747 -1.146188 11,150 130 325 -1408
2021-09-09 21:05:00 GMT 52.363819 -1.148307 11,175 130 325 -1408
2021-09-09 21:04:59 GMT 52.366653 -1.153870 11,250 130 325 -1408
2021-09-09 21:04:57 GMT 52.366653 -1.153870 11,250 130 325 -1408
2021-09-09 21:04:56 GMT 52.367752 -1.155930 11,275 130 325 -1408
2021-09-09 21:04:55 GMT 52.368805 -1.157990 11,300 130 325 -1408
2021-09-09 21:04:53 GMT 52.370636 -1.161575 11,350 130 325 -1408
2021-09-09 21:04:51 GMT 52.372467 -1.165161 11,375 130 325 -1408
2021-09-09 21:04:50 GMT 52.373363 -1.166905 11,400 130 325 -1408
2021-09-09 21:04:49 GMT 52.374340 -1.168788 11,425 129 325 -1408
2021-09-09 21:04:46 GMT 52.377041 -1.174046 11,500 130 326 -1408
2021-09-09 21:04:45 GMT 52.378624 -1.177107 11,525 130 326 -1408
2021-09-09 21:04:43 GMT 52.380615 -1.180954 11,575 130 327 -1408
2021-09-09 21:04:42 GMT 52.381485 -1.182632 11,600 130 326 -1408
2021-09-09 21:04:41 GMT 52.384094 -1.187744 11,675 130 326 -1408
2021-09-09 21:04:39 GMT 52.384094 -1.187744 11,675 130 326 -1408
2021-09-09 21:04:38 GMT 52.385056 -1.189651 11,700 130 326 -1408
2021-09-09 21:04:37 GMT 52.386120 -1.191624 11,725 130 326 -1472
2021-09-09 21:04:35 GMT 52.388165 -1.195548 11,775 130 326 -1472
2021-09-09 21:04:34 GMT 52.389267 -1.197739 11,800 130 327 -1472
2021-09-09 21:04:32 GMT 52.391327 -1.201706 11,850 130 327 -1472
2021-09-09 21:04:30 GMT 52.392288 -1.203537 11,875 130 327 -1472
2021-09-09 21:04:29 GMT 52.393799 -1.206456 11,925 130 327 -1472
2021-09-09 21:04:28 GMT 52.394684 -1.208182 11,950 130 327 -1472
2021-09-09 21:04:26 GMT 52.398407 -1.215323 12,025 130 327 -1472
2021-09-09 21:04:23 GMT 52.399525 -1.217364 12,075 130 327 -1472
2021-09-09 21:04:22 GMT 52.401482 -1.221209 12,100 130 327 -1472
2021-09-09 21:04:20 GMT 52.403458 -1.225052 12,150 130 328 -1408
2021-09-09 21:04:17 GMT 52.404922 -1.227875 12,175 130 328 -1408
2021-09-09 21:04:16 GMT 52.406368 -1.230626 12,225 130 328 -1408
2021-09-09 21:04:15 GMT 52.407669 -1.233215 12,250 130 328 -1344
2021-09-09 21:04:13 GMT 52.409225 -1.236267 12,300 130 328 -1344
2021-09-09 21:04:12 GMT 52.410324 -1.238327 12,300 130 328 -1408
2021-09-09 21:04:10 GMT 52.412235 -1.242004 12,350 130 327 -1408
2021-09-09 21:04:09 GMT 52.414467 -1.246399 12,400 130 327 -1408
2021-09-09 21:04:06 GMT 52.416515 -1.250401 12,450 130 327 -1408
2021-09-09 21:04:05 GMT 52.418518 -1.254272 12,500 130 327 -1472
2021-09-09 21:04:02 GMT 52.420074 -1.257324 12,550 130 327 -1472
2021-09-09 21:04:00 GMT 52.422043 -1.261139 12,600 130 327 -1472
2021-09-09 21:03:59 GMT 52.423313 -1.263663 12,625 130 327 -1472
2021-09-09 21:03:57 GMT 52.426758 -1.270333 12,700 130 327 -1472
2021-09-09 21:03:54 GMT 52.427734 -1.272217 12,725 129 328 -1472
2021-09-09 21:03:53 GMT 52.428772 -1.274261 12,750 129 328 -1472
2021-09-09 21:03:51 GMT 52.430668 -1.277945 12,800 130 329 -1472
2021-09-09 21:03:50 GMT 52.431976 -1.280518 12,850 130 329 -1472
2021-09-09 21:03:47 GMT 52.435089 -1.286621 12,925 130 329 -1472
2021-09-09 21:03:46 GMT 52.436096 -1.288528 12,950 129 330 -1408
2021-09-09 21:03:45 GMT 52.438675 -1.293562 13,000 129 330 -1408
2021-09-09 21:03:43 GMT 52.438675 -1.293562 13,025 129 330 -1344
2021-09-09 21:03:42 GMT 52.439651 -1.295524 13,050 129 330 -1344
2021-09-09 21:03:41 GMT 52.441864 -1.299820 13,050 129 329 -1344
2021-09-09 21:03:39 GMT 52.442642 -1.301346 13,100 129 330 -1344
2021-09-09 21:03:38 GMT 52.444977 -1.305923 13,125 129 330 -1344
2021-09-09 21:03:36 GMT 52.445518 -1.306981 13,175 129 329 -1280
2021-09-09 21:03:35 GMT 52.446899 -1.309814 13,200 129 330 -1216
2021-09-09 21:03:33 GMT 52.448406 -1.312788 13,225 129 329 -1152
2021-09-09 21:03:31 GMT 52.449921 -1.315765 13,250 129 329 -1088
2021-09-09 21:03:30 GMT 52.451340 -1.318665 13,275 128 329 -960
2021-09-09 21:03:28 GMT 52.453354 -1.322784 13,325 128 330 -960
2021-09-09 21:03:27 GMT 52.455574 -1.327384 13,350 128 330 -960
2021-09-09 21:03:25 GMT 52.456100 -1.328430 13,350 127 330 -960
2021-09-09 21:03:23 GMT 52.458179 -1.332877 13,425 127 331 -960
2021-09-09 21:03:21 GMT 52.460182 -1.337350 13,425 125 331 -1024
2021-09-09 21:03:20 GMT 52.461021 -1.339155 13,450 125 332 -1024
2021-09-09 21:03:18 GMT 52.462921 -1.343613 13,475 124 333 -1024
2021-09-09 21:03:17 GMT 52.463699 -1.345444 13,500 124 333 -1024
2021-09-09 21:03:16 GMT 52.464615 -1.347809 13,525 122 334 -960
2021-09-09 21:03:13 GMT 52.467133 -1.354141 13,575 121 334 -1024
2021-09-09 21:03:12 GMT 52.468460 -1.357574 13,600 120 335 -1024
2021-09-09 21:03:10 GMT 52.470932 -1.364365 13,625 120 335 -1024
2021-09-09 21:03:08 GMT 52.470932 -1.364365 13,650 119 336 -1024
2021-09-09 21:03:07 GMT 52.471710 -1.366501 13,675 119 336 -1024
2021-09-09 21:03:05 GMT 52.473125 -1.370623 13,700 119 336 -1024
2021-09-09 21:03:04 GMT 52.473953 -1.372910 13,700 119 337 -1024
2021-09-09 21:03:03 GMT 52.476151 -1.379395 13,750 119 337 -1024
2021-09-09 21:03:01 GMT 52.476151 -1.379395 13,750 119 337 -1024
2021-09-09 21:03:00 GMT 52.476929 -1.381607 13,775 119 337 -1024
2021-09-09 21:02:58 GMT 52.478619 -1.386318 13,825 119 337 -1088
2021-09-09 21:02:57 GMT 52.479454 -1.388829 13,825 119 338 -1088
2021-09-09 21:02:56 GMT 52.480179 -1.390915 13,875 119 338 -1088
2021-09-09 21:02:54 GMT 52.481644 -1.395028 13,875 119 338 -1024
2021-09-09 21:02:53 GMT 52.482388 -1.397226 13,900 119 339 -1024
2021-09-09 21:02:51 GMT 52.483875 -1.401463 13,925 119 339 -1024
2021-09-09 21:02:50 GMT 52.484669 -1.403660 13,950 119 339 -1024
2021-09-09 21:02:49 GMT 52.485397 -1.405792 13,975 119 339 -960
2021-09-09 21:02:46 GMT 52.487869 -1.412964 14,050 119 340 -960
2021-09-09 21:02:44 GMT 52.489426 -1.417389 14,050 119 340 -960
2021-09-09 21:02:42 GMT 52.491211 -1.422577 14,100 119 339 -960
2021-09-09 21:02:40 GMT 52.494164 -1.431205 14,125 119 339 -960
2021-09-09 21:02:38 GMT 52.494164 -1.431205 14,175 119 339 -960
2021-09-09 21:02:36 GMT 52.495743 -1.435776 14,175 119 339 -960
2021-09-09 21:02:34 GMT 52.497284 -1.440151 14,225 119 339 -896
2021-09-09 21:02:32 GMT 52.499313 -1.446152 14,250 119 340 -896
2021-09-09 21:02:30 GMT 52.500092 -1.448364 14,275 119 340 -896
2021-09-09 21:02:29 GMT 52.500961 -1.450806 14,275 119 340 -896
2021-09-09 21:02:28 GMT 52.501740 -1.453094 14,300 119 340 -896
2021-09-09 21:02:27 GMT 52.503433 -1.457977 14,325 119 340 -896
2021-09-09 21:02:25 GMT 52.504211 -1.460190 14,350 119 340 -896
2021-09-09 21:02:24 GMT 52.506687 -1.467303 14,400 120 340 -896
2021-09-09 21:02:22 GMT 52.506687 -1.467303 14,400 120 341 -896
2021-09-09 21:02:20 GMT 52.508270 -1.471697 14,425 120 341 -896
2021-09-09 21:02:19 GMT 52.509155 -1.474075 14,450 120 341 -960
2021-09-09 21:02:18 GMT 52.510025 -1.476517 14,450 121 342 -960
2021-09-09 21:02:17 GMT 52.511353 -1.480026 14,525 121 342 -960
2021-09-09 21:02:14 GMT 52.513950 -1.487000 14,525 123 342 -896
2021-09-09 21:02:12 GMT 52.514790 -1.489197 14,550 124 343 -896
2021-09-09 21:02:10 GMT 52.517395 -1.495396 14,600 126 342 -960
2021-09-09 21:02:08 GMT 52.518356 -1.497574 14,600 127 342 -1024
2021-09-09 21:02:07 GMT 52.521214 -1.503636 14,625 130 341 -1088
2021-09-09 21:02:05 GMT 52.521214 -1.503636 14,650 130 341 -1088
2021-09-09 21:02:04 GMT 52.522385 -1.505890 14,675 133 340 -1088
2021-09-09 21:02:03 GMT 52.525543 -1.511230 14,725 134 340 -1088
2021-09-09 21:02:01 GMT 52.525543 -1.511230 14,775 136 340 -1088
2021-09-09 21:01:59 GMT 52.527740 -1.514587 14,775 138 338 -1088
2021-09-09 21:01:57 GMT 52.530258 -1.518021 14,800 144 337 -1088
2021-09-09 21:01:55 GMT 52.532730 -1.521149 14,825 144 337 -1088
2021-09-09 21:01:53 GMT 52.535294 -1.523972 14,875 149 335 -1024
2021-09-09 21:01:50 GMT 52.539276 -1.528015 14,950 150 335 -960
2021-09-09 21:01:49 GMT 52.541977 -1.530533 14,975 150 335 -960
2021-09-09 21:01:47 GMT 52.543213 -1.531677 14,975 150 335 -960
2021-09-09 21:01:46 GMT 52.544628 -1.532985 15,000 150 335 -960
2021-09-09 21:01:44 GMT 52.547241 -1.535416 15,025 150 335 -960
2021-09-09 21:01:43 GMT 52.548679 -1.536752 15,050 150 335 -960
2021-09-09 21:01:42 GMT 52.550400 -1.538400 15,075 150 335 -960
2021-09-09 21:01:41 GMT 52.553329 -1.541061 15,100 150 335 -960
2021-09-09 21:01:39 GMT 52.554077 -1.541774 15,100 150 335 -960
2021-09-09 21:01:38 GMT 52.555481 -1.543121 15,125 150 335 -960
2021-09-09 21:01:36 GMT 52.558182 -1.545639 15,150 150 336 -960
2021-09-09 21:01:35 GMT 52.559711 -1.547110 15,175 150 336 -960
2021-09-09 21:01:34 GMT 52.561062 -1.548366 15,200 150 336 -960
2021-09-09 21:01:32 GMT 52.564041 -1.551113 15,225 150 336 -960
2021-09-09 21:01:31 GMT 52.565186 -1.552200 15,225 150 336 -960
2021-09-09 21:01:30 GMT 52.566284 -1.553192 15,250 150 336 -960
2021-09-09 21:01:28 GMT 52.569160 -1.555978 15,275 150 337 -960
2021-09-09 21:01:27 GMT 52.571823 -1.558456 15,325 150 337 -960
2021-09-09 21:01:24 GMT 52.573910 -1.560372 15,350 150 337 -960
2021-09-09 21:01:23 GMT 52.574699 -1.561157 15,350 150 337 -960
2021-09-09 21:01:21 GMT 52.578049 -1.564255 15,400 150 337 -960
2021-09-09 21:01:20 GMT 52.580750 -1.566772 15,425 150 337 -960
2021-09-09 21:01:17 GMT 52.583313 -1.569214 15,450 150 337 -960
2021-09-09 21:01:16 GMT 52.587112 -1.572800 15,500 150 337 -960
2021-09-09 21:01:13 GMT 52.588577 -1.574173 15,525 150 337 -960
2021-09-09 21:01:12 GMT 52.590088 -1.575546 15,525 150 337 -960
2021-09-09 21:01:10 GMT 52.592857 -1.578186 15,575 150 337 -960
2021-09-09 21:01:09 GMT 52.596176 -1.581268 15,600 150 337 -960
2021-09-09 21:01:08 GMT 52.596176 -1.581268 15,600 150 337 -960
2021-09-09 21:01:07 GMT 52.597824 -1.582794 15,625 150 337 -960
2021-09-09 21:01:05 GMT 52.600250 -1.585083 15,650 150 337 -960
2021-09-09 21:01:03 GMT 52.602539 -1.587296 15,675 150 337 -960
2021-09-09 21:01:02 GMT 52.603912 -1.588516 15,725 150 337 -960
2021-09-09 21:01:01 GMT 52.605331 -1.589879 15,725 150 338 -960
2021-09-09 21:00:59 GMT 52.608124 -1.592484 15,750 150 339 -960
2021-09-09 21:00:57 GMT 52.611290 -1.595529 15,775 150 339 -1024
2021-09-09 21:00:55 GMT 52.613937 -1.598053 15,825 150 339 -960
2021-09-09 21:00:54 GMT 52.615250 -1.599217 15,825 150 339 -960
2021-09-09 21:00:52 GMT 52.617325 -1.601257 15,850 150 339 -960
2021-09-09 21:00:51 GMT 52.620300 -1.604080 15,900 150 339 -960
2021-09-09 21:00:50 GMT 52.620300 -1.604080 15,900 149 339 -960
2021-09-09 21:00:49 GMT 52.621624 -1.605259 15,900 149 339 -960
2021-09-09 21:00:46 GMT 52.625610 -1.609116 15,950 150 340 -960
2021-09-09 21:00:44 GMT 52.628143 -1.611459 16,025 150 340 -896
2021-09-09 21:00:42 GMT 52.631542 -1.614676 16,025 150 340 -896
2021-09-09 21:00:40 GMT 52.634354 -1.617355 16,050 150 340 -960
2021-09-09 21:00:39 GMT 52.635078 -1.618051 16,050 150 340 -960
2021-09-09 21:00:38 GMT 52.636570 -1.619463 16,075 150 340 -896
2021-09-09 21:00:35 GMT 52.640526 -1.623230 16,125 150 340 -896
2021-09-09 21:00:34 GMT 52.641815 -1.624451 16,125 149 340 -896
2021-09-09 21:00:33 GMT 52.643051 -1.625595 16,175 149 341 -896
2021-09-09 21:00:31 GMT 52.645111 -1.627579 16,175 149 341 -896
2021-09-09 21:00:30 GMT 52.647034 -1.629410 16,200 149 341 -960
2021-09-09 21:00:29 GMT 52.648998 -1.631234 16,225 149 341 -960
2021-09-09 21:00:27 GMT 52.651108 -1.633301 16,250 149 342 -960
2021-09-09 21:00:26 GMT 52.652481 -1.634598 16,250 149 342 -960
2021-09-09 21:00:25 GMT 52.654446 -1.636492 16,275 149 343 -960
2021-09-09 21:00:23 GMT 52.656677 -1.638532 16,300 149 343 -896
2021-09-09 21:00:22 GMT 52.658169 -1.640023 16,325 149 343 -896
2021-09-09 21:00:21 GMT 52.659519 -1.641279 16,325 149 343 -896
2021-09-09 21:00:20 GMT 52.662403 -1.644026 16,350 150 344 -896
2021-09-09 21:00:18 GMT 52.663879 -1.645432 16,375 150 344 -896
2021-09-09 21:00:16 GMT 52.669716 -1.651010 16,450 150 344 -896
2021-09-09 21:00:14 GMT 52.669716 -1.651010 16,450 150 344 -896
2021-09-09 21:00:13 GMT 52.671158 -1.652374 16,475 150 344 -896
2021-09-09 21:00:12 GMT 52.674557 -1.655561 16,500 150 344 -896
2021-09-09 21:00:10 GMT 52.674557 -1.655561 16,500 150 344 -896
2021-09-09 21:00:09 GMT 52.676102 -1.657028 16,525 150 344 -896
2021-09-09 21:00:06 GMT 52.679855 -1.660538 16,550 150 344 -896
2021-09-09 21:00:05 GMT 52.681866 -1.662467 16,575 150 344 -896
2021-09-09 21:00:02 GMT 52.686081 -1.666412 16,625 150 345 -960
2021-09-09 21:00:01 GMT 52.687542 -1.667725 16,650 150 345 -960
2021-09-09 20:59:58 GMT 52.691406 -1.671413 16,700 150 345 -960
2021-09-09 20:59:56 GMT 52.694366 -1.674194 16,700 150 345 -960
2021-09-09 20:59:55 GMT 52.695786 -1.675491 16,750 150 345 -960
2021-09-09 20:59:54 GMT 52.697021 -1.676636 16,775 150 345 -960
2021-09-09 20:59:52 GMT 52.699768 -1.679230 16,775 150 345 -960
2021-09-09 20:59:50 GMT 52.702625 -1.681928 16,825 150 345 -960
2021-09-09 20:59:48 GMT 52.705421 -1.684518 16,850 150 346 -1024
2021-09-09 20:59:47 GMT 52.706818 -1.685774 16,875 150 346 -1024
2021-09-09 20:59:46 GMT 52.708237 -1.687164 16,900 150 346 -1024
2021-09-09 20:59:44 GMT 52.711796 -1.690482 16,925 150 346 -1024
2021-09-09 20:59:42 GMT 52.716640 -1.695033 16,975 150 346 -1024
2021-09-09 20:59:40 GMT 52.716640 -1.695033 17,000 150 346 -1088
2021-09-09 20:59:38 GMT 52.718536 -1.696854 17,025 150 346 -1024
2021-09-09 20:59:37 GMT 52.720551 -1.698722 17,050 150 346 -1024
2021-09-09 20:59:36 GMT 52.722015 -1.700058 17,050 150 346 -1024
2021-09-09 20:59:34 GMT 52.724739 -1.702645 17,100 150 346 -1024
2021-09-09 20:59:33 GMT 52.725994 -1.703823 17,125 150 347 -1024
2021-09-09 20:59:32 GMT 52.727463 -1.705170 17,125 150 347 -1024
2021-09-09 20:59:31 GMT 52.731815 -1.709316 17,175 150 348 -1024
2021-09-09 20:59:29 GMT 52.731815 -1.709316 17,175 150 348 -1024
2021-09-09 20:59:27 GMT 52.734749 -1.712062 17,225 150 348 -1024
2021-09-09 20:59:26 GMT 52.736343 -1.713638 17,250 150 348 -1024
2021-09-09 20:59:24 GMT 52.738724 -1.715851 17,275 150 348 -960
2021-09-09 20:59:23 GMT 52.740055 -1.717085 17,275 150 348 -960
2021-09-09 20:59:22 GMT 52.741791 -1.718750 17,300 150 348 -960
2021-09-09 20:59:21 GMT 52.744522 -1.721322 17,350 150 347 -960
2021-09-09 20:59:19 GMT 52.745956 -1.722641 17,350 150 347 -960
2021-09-09 20:59:18 GMT 52.748669 -1.725246 17,375 150 347 -960
2021-09-09 20:59:16 GMT 52.750202 -1.726737 17,400 150 347 -896
2021-09-09 20:59:15 GMT 52.751598 -1.727992 17,400 150 347 -960
2021-09-09 20:59:13 GMT 52.754391 -1.730661 17,450 149 346 -896
2021-09-09 20:59:12 GMT 52.755882 -1.732073 17,450 149 346 -896
2021-09-09 20:59:11 GMT 52.757217 -1.733398 17,475 149 346 -896
2021-09-09 20:59:10 GMT 52.758537 -1.734663 17,500 149 346 -896
2021-09-09 20:59:08 GMT 52.761143 -1.737095 17,525 149 345 -896
2021-09-09 20:59:07 GMT 52.762398 -1.738351 17,525 149 345 -896
2021-09-09 20:59:05 GMT 52.765144 -1.740941 17,575 149 345 -960
2021-09-09 20:59:04 GMT 52.766739 -1.742477 17,575 149 345 -960
2021-09-09 20:59:03 GMT 52.767975 -1.743698 17,600 149 345 -960
2021-09-09 20:59:01 GMT 52.770966 -1.746512 17,625 149 345 -960
2021-09-09 20:59:00 GMT 52.772175 -1.747768 17,650 149 345 -960
2021-09-09 20:58:59 GMT 52.775063 -1.750514 17,675 149 345 -1024
2021-09-09 20:58:57 GMT 52.776318 -1.751692 17,700 149 345 -1024
2021-09-09 20:58:56 GMT 52.777809 -1.753183 17,700 149 345 -1024
2021-09-09 20:58:54 GMT 52.780693 -1.755929 17,750 149 345 -1152
2021-09-09 20:58:53 GMT 52.782166 -1.757355 17,775 149 345 -1152
2021-09-09 20:58:52 GMT 52.783539 -1.758652 17,775 149 345 -1216
2021-09-09 20:58:50 GMT 52.786285 -1.761322 17,825 149 345 -1216
2021-09-09 20:58:49 GMT 52.787491 -1.762442 17,825 149 346 -1152
2021-09-09 20:58:46 GMT 52.791550 -1.766357 17,900 149 347 -1024
2021-09-09 20:58:44 GMT 52.795918 -1.770604 17,950 149 348 -960
2021-09-09 20:58:42 GMT 52.797501 -1.772156 17,975 149 348 -960
2021-09-09 20:58:41 GMT 52.799606 -1.774139 18,000 149 348 -960
2021-09-09 20:58:39 GMT 52.801598 -1.776097 18,025 149 348 -960
2021-09-09 20:58:38 GMT 52.802902 -1.777420 18,025 149 347 -896
2021-09-09 20:58:36 GMT 52.805420 -1.779861 18,050 149 347 -960
2021-09-09 20:58:33 GMT 52.809464 -1.783787 18,100 149 347 -960
2021-09-09 20:58:31 GMT 52.812534 -1.786848 18,125 149 347 -960
2021-09-09 20:58:29 GMT 52.815285 -1.789516 18,175 149 347 -960
2021-09-09 20:58:27 GMT 52.817963 -1.792221 18,200 149 347 -960
2021-09-09 20:58:26 GMT 52.819241 -1.793518 18,225 149 347 -960
2021-09-09 20:58:25 GMT 52.821846 -1.796108 18,225 148 346 -960
2021-09-09 20:58:23 GMT 52.823105 -1.797285 18,275 148 346 -960
2021-09-09 20:58:22 GMT 52.824501 -1.798697 18,300 148 346 -1024
2021-09-09 20:58:21 GMT 52.825790 -1.799927 18,300 148 346 -1024
2021-09-09 20:58:20 GMT 52.828598 -1.802778 18,350 148 346 -1024
2021-09-09 20:58:17 GMT 52.831970 -1.806107 18,375 148 346 -1088
2021-09-09 20:58:15 GMT 52.834229 -1.808350 18,400 149 346 -1088
2021-09-09 20:58:14 GMT 52.835720 -1.809841 18,425 149 347 -1024
2021-09-09 20:58:13 GMT 52.837051 -1.811142 18,450 149 347 -1024
2021-09-09 20:58:11 GMT 52.839935 -1.813965 18,475 149 347 -1024
2021-09-09 20:58:10 GMT 52.841351 -1.815412 18,500 149 347 -1024
2021-09-09 20:58:09 GMT 52.844379 -1.818394 18,525 149 347 -1024
2021-09-09 20:58:07 GMT 52.845913 -1.819885 18,550 149 347 -960
2021-09-09 20:58:05 GMT 52.847900 -1.821899 18,550 149 347 -960
2021-09-09 20:58:03 GMT 52.850647 -1.824646 18,600 148 349 -960
2021-09-09 20:58:01 GMT 52.852844 -1.826859 18,625 148 349 -960
2021-09-09 20:58:00 GMT 52.855087 -1.828995 18,650 148 349 -960
2021-09-09 20:57:59 GMT 52.856598 -1.830521 18,675 148 349 -960
2021-09-09 20:57:57 GMT 52.859413 -1.833383 18,700 148 349 -960
2021-09-09 20:57:56 GMT 52.860950 -1.834874 18,725 148 349 -960
2021-09-09 20:57:55 GMT 52.862091 -1.836014 18,725 148 349 -960
2021-09-09 20:57:54 GMT 52.863647 -1.837540 18,750 148 349 -960
2021-09-09 20:57:52 GMT 52.866302 -1.840210 18,800 148 349 -960
2021-09-09 20:57:50 GMT 52.868866 -1.842728 18,825 148 349 -960
2021-09-09 20:57:48 GMT 52.871933 -1.845779 18,850 148 349 -960
2021-09-09 20:57:46 GMT 52.873940 -1.847743 18,875 148 349 -960
2021-09-09 20:57:45 GMT 52.875290 -1.849156 18,875 148 349 -960
2021-09-09 20:57:43 GMT 52.877975 -1.851807 18,900 148 349 -960
2021-09-09 20:57:42 GMT 52.879292 -1.853080 18,925 148 349 -960
2021-09-09 20:57:41 GMT 52.882225 -1.855983 18,975 148 349 -960
2021-09-09 20:57:39 GMT 52.883575 -1.857396 19,000 149 349 -960
2021-09-09 20:57:38 GMT 52.884972 -1.858730 19,025 149 349 -960
2021-09-09 20:57:36 GMT 52.887764 -1.861476 19,025 149 349 -960
2021-09-09 20:57:35 GMT 52.889191 -1.862946 19,050 149 349 -960
2021-09-09 20:57:33 GMT 52.891907 -1.865635 19,075 149 349 -960
2021-09-09 20:57:32 GMT 52.893356 -1.867065 19,100 149 350 -960
2021-09-09 20:57:31 GMT 52.894699 -1.868382 19,125 149 350 -960
2021-09-09 20:57:29 GMT 52.897385 -1.871033 19,125 149 350 -896
2021-09-09 20:57:28 GMT 52.898804 -1.872406 19,175 149 350 -896
2021-09-09 20:57:27 GMT 52.900101 -1.873718 19,175 149 350 -896
2021-09-09 20:57:25 GMT 52.902832 -1.876373 19,200 149 351 -896
2021-09-09 20:57:24 GMT 52.904205 -1.877747 19,200 149 351 -896
2021-09-09 20:57:22 GMT 52.907135 -1.880646 19,250 149 351 -896
2021-09-09 20:57:21 GMT 52.908619 -1.882036 19,250 149 351 -960
2021-09-09 20:57:20 GMT 52.910015 -1.883449 19,275 149 351 -960
2021-09-09 20:57:19 GMT 52.914413 -1.887741 19,325 149 351 -960
2021-09-09 20:57:17 GMT 52.914413 -1.887741 19,325 149 351 -960
2021-09-09 20:57:16 GMT 52.915604 -1.888942 19,350 149 351 -960
2021-09-09 20:57:14 GMT 52.918030 -1.891327 19,375 149 351 -960
2021-09-09 20:57:12 GMT 52.922791 -1.895981 19,425 149 351 -960
2021-09-09 20:57:09 GMT 52.925518 -1.898594 19,450 149 351 -960
2021-09-09 20:57:06 GMT 52.929108 -1.902084 19,475 149 352 -960
2021-09-09 20:57:05 GMT 52.931213 -1.904144 19,525 149 352 -960
2021-09-09 20:57:03 GMT 52.934223 -1.907148 19,550 149 352 -960
2021-09-09 20:57:02 GMT 52.935482 -1.908325 19,550 149 352 -960
2021-09-09 20:57:01 GMT 52.936707 -1.909485 19,575 149 352 -960
2021-09-09 20:56:58 GMT 52.940048 -1.912842 19,600 149 353 -960
2021-09-09 20:56:57 GMT 52.945129 -1.917725 19,650 149 354 -960
2021-09-09 20:56:55 GMT 52.946606 -1.919155 19,675 149 354 -1024
2021-09-09 20:56:54 GMT 52.946606 -1.919155 19,675 149 354 -1024
2021-09-09 20:56:53 GMT 52.949402 -1.921901 19,700 149 354 -1024
2021-09-09 20:56:50 GMT 52.952518 -1.924962 19,750 149 355 -1024
2021-09-09 20:56:49 GMT 52.955032 -1.927473 19,750 149 355 -1024
2021-09-09 20:56:47 GMT 52.956665 -1.929016 19,825 149 355 -896
2021-09-09 20:56:45 GMT 52.959641 -1.931915 19,825 149 355 -896
2021-09-09 20:56:43 GMT 52.962528 -1.934771 19,850 149 355 -832
2021-09-09 20:56:41 GMT 52.965179 -1.937332 19,875 149 355 -832
2021-09-09 20:56:40 GMT 52.966553 -1.938705 19,900 149 355 -768
2021-09-09 20:56:39 GMT 52.967972 -1.940079 19,900 149 355 -768
2021-09-09 20:56:38 GMT 52.969322 -1.941363 19,925 149 355 -768
2021-09-09 20:56:36 GMT 52.972164 -1.944188 19,950 149 356 -640
2021-09-09 20:56:35 GMT 52.973560 -1.945522 19,950 149 356 -576
2021-09-09 20:56:34 GMT 52.975204 -1.947174 19,975 149 356 -448
2021-09-09 20:56:32 GMT 52.977379 -1.949289 19,975 149 356 -256
2021-09-09 20:56:29 GMT 52.983582 -1.955338 20,000 149 356 0
2021-09-09 20:56:28 GMT 52.983582 -1.955338 20,000 149 356 0
2021-09-09 20:56:27 GMT 52.984921 -1.956587 19,975 149 356 0
2021-09-09 20:56:25 GMT 52.987656 -1.959305 20,000 149 356 0
2021-09-09 20:56:23 GMT 52.990601 -1.962158 20,000 149 355 64
2021-09-09 20:56:22 GMT 52.992233 -1.963730 20,000 149 355 64
2021-09-09 20:56:20 GMT 52.994888 -1.966324 20,000 149 355 64
2021-09-09 20:56:19 GMT 52.996372 -1.967808 20,000 149 355 64
2021-09-09 20:56:18 GMT 52.997726 -1.969147 19,975 149 355 64
2021-09-09 20:56:17 GMT 53.001770 -1.973066 19,975 149 355 64
2021-09-09 20:56:15 GMT 53.001770 -1.973066 19,975 149 355 64
2021-09-09 20:56:13 GMT 53.005096 -1.976318 19,975 149 355 64
2021-09-09 20:56:12 GMT 53.006516 -1.977692 19,975 149 355 64
2021-09-09 20:56:10 GMT 53.008759 -1.979904 19,975 149 355 64
2021-09-09 20:56:09 GMT 53.010178 -1.981277 20,000 149 355 0
2021-09-09 20:56:07 GMT 53.015923 -1.986799 20,000 149 355 -64
2021-09-09 20:56:05 GMT 53.015923 -1.986799 20,000 149 355 -128
2021-09-09 20:56:04 GMT 53.017460 -1.988368 20,000 149 355 -192
2021-09-09 20:56:02 GMT 53.020298 -1.991115 20,025 149 355 -256
2021-09-09 20:56:00 GMT 53.022766 -1.993484 20,025 149 353 -320
2021-09-09 20:55:59 GMT 53.024956 -1.995667 20,025 149 353 -320
2021-09-09 20:55:57 GMT 53.027161 -1.997757 20,050 149 353 -384
2021-09-09 20:55:55 GMT 53.030029 -2.000610 20,050 149 353 -576
2021-09-09 20:55:53 GMT 53.032928 -2.003403 20,075 149 353 -640
2021-09-09 20:55:52 GMT 53.034439 -2.004852 20,075 149 353 -704
2021-09-09 20:55:51 GMT 53.037476 -2.007830 20,125 149 353 -896
2021-09-09 20:55:49 GMT 53.038971 -2.009277 20,125 149 353 -896
2021-09-09 20:55:48 GMT 53.040318 -2.010577 20,150 149 353 -960
2021-09-09 20:55:46 GMT 53.043182 -2.013397 20,175 149 354 -1088
2021-09-09 20:55:45 GMT 53.044464 -2.014618 20,200 149 354 -1216
2021-09-09 20:55:44 GMT 53.047344 -2.017404 20,225 149 354 -1344
2021-09-09 20:55:42 GMT 53.048649 -2.018659 20,250 149 354 -1408
2021-09-09 20:55:41 GMT 53.050045 -2.019993 20,275 149 354 -1536
2021-09-09 20:55:40 GMT 53.051559 -2.021484 20,300 149 354 -1600
2021-09-09 20:55:39 GMT 53.053116 -2.022934 20,325 149 354 -1664
2021-09-09 20:55:37 GMT 53.055866 -2.025643 20,375 149 356 -1792
2021-09-09 20:55:36 GMT 53.057236 -2.026901 20,425 149 356 -1920
2021-09-09 20:55:34 GMT 53.060009 -2.029567 20,475 149 356 -2112
2021-09-09 20:55:33 GMT 53.061405 -2.030980 20,525 149 356 -2048
2021-09-09 20:55:31 GMT 53.064384 -2.033805 20,550 149 357 -2048
2021-09-09 20:55:30 GMT 53.065826 -2.035217 20,625 149 357 -2048
2021-09-09 20:55:29 GMT 53.067307 -2.036667 20,650 149 357 -1984
2021-09-09 20:55:27 GMT 53.070190 -2.039413 20,725 149 358 -1856
2021-09-09 20:55:25 GMT 53.074493 -2.043533 20,800 149 359 -1920
2021-09-09 20:55:23 GMT 53.075836 -2.044870 20,850 149 359 -1920
2021-09-09 20:55:22 GMT 53.078659 -2.047577 20,900 150 360 -1984
2021-09-09 20:55:19 GMT 53.081467 -2.050206 20,975 150 360 -2048
2021-09-09 20:55:18 GMT 53.084167 -2.052795 21,025 150 361 -1920
2021-09-09 20:55:16 GMT 53.085709 -2.054291 21,075 150 361 -1856
2021-09-09 20:55:15 GMT 53.088730 -2.057190 21,125 150 361 -1856
2021-09-09 20:55:13 GMT 53.090195 -2.058563 21,175 150 361 -1984
2021-09-09 20:55:12 GMT 53.091709 -2.060015 21,200 150 362 -2048
2021-09-09 20:55:10 GMT 53.094818 -2.062988 21,275 150 362 -2048
2021-09-09 20:55:09 GMT 53.095619 -2.063733 21,300 150 362 -2048
2021-09-09 20:55:07 GMT 53.098755 -2.066764 21,375 150 363 -2112
2021-09-09 20:55:06 GMT 53.100037 -2.068019 21,400 150 363 -2176
2021-09-09 20:55:04 GMT 53.103241 -2.071080 21,475 149 363 -2176
2021-09-09 20:55:02 GMT 53.106308 -2.073983 21,525 149 363 -2176
2021-09-09 20:55:01 GMT 53.107819 -2.075447 21,600 149 363 -2112
2021-09-09 20:55:00 GMT 53.109375 -2.076887 21,625 150 364 -1984
2021-09-09 20:54:58 GMT 53.112194 -2.079647 21,675 150 364 -1920
2021-09-09 20:54:56 GMT 53.117500 -2.084656 21,750 150 366 -1536
2021-09-09 20:54:54 GMT 53.117500 -2.084656 21,825 150 367 -1408
2021-09-09 20:54:52 GMT 53.120247 -2.087322 21,825 150 367 -1408
2021-09-09 20:54:51 GMT 53.122421 -2.089364 21,875 150 369 -1472
2021-09-09 20:54:50 GMT 53.123646 -2.090553 21,875 150 369 -1536
2021-09-09 20:54:48 GMT 53.127647 -2.094430 21,925 150 369 -1728
2021-09-09 20:54:47 GMT 53.127647 -2.094430 22,000 150 370 -1856
2021-09-09 20:54:45 GMT 53.132172 -2.098703 22,050 150 370 -2048
2021-09-09 20:54:42 GMT 53.135235 -2.101620 22,125 150 371 -2304
2021-09-09 20:54:39 GMT 53.139633 -2.105765 22,250 150 371 -2432
2021-09-09 20:54:38 GMT 53.141335 -2.107436 22,300 150 371 -2432
2021-09-09 20:54:36 GMT 53.144394 -2.110317 22,375 150 372 -2496
2021-09-09 20:54:35 GMT 53.145905 -2.111729 22,425 150 372 -2368
2021-09-09 20:54:34 GMT 53.147480 -2.113253 22,450 150 372 -2368
2021-09-09 20:54:32 GMT 53.150070 -2.115653 22,525 150 372 -2368
2021-09-09 20:54:30 GMT 53.153183 -2.118635 22,625 150 372 -2240
2021-09-09 20:54:28 GMT 53.156021 -2.121381 22,700 150 372 -2240
2021-09-09 20:54:27 GMT 53.157581 -2.122866 22,725 150 373 -2176
2021-09-09 20:54:24 GMT 53.162292 -2.127345 22,850 150 373 -2048
2021-09-09 20:54:23 GMT 53.163803 -2.128758 22,875 150 373 -1984
2021-09-09 20:54:22 GMT 53.165314 -2.130171 22,900 150 373 -1984
2021-09-09 20:54:20 GMT 53.168056 -2.132883 22,975 150 374 -1920
2021-09-09 20:54:18 GMT 53.171082 -2.135710 23,025 150 374 -1920
2021-09-09 20:54:15 GMT 53.175522 -2.139901 23,125 150 375 -1984
2021-09-09 20:54:14 GMT 53.177170 -2.141471 23,175 150 375 -2112
2021-09-09 20:54:13 GMT 53.180191 -2.144374 23,250 150 376 -2240
2021-09-09 20:54:11 GMT 53.181702 -2.145787 23,275 150 376 -2240
2021-09-09 20:54:10 GMT 53.186646 -2.150574 23,350 150 376 -2304
2021-09-09 20:54:08 GMT 53.186646 -2.150574 23,425 150 376 -2368
2021-09-09 20:54:07 GMT 53.188156 -2.151986 23,450 150 376 -2368
2021-09-09 20:54:05 GMT 53.190960 -2.154694 23,525 150 376 -2432
2021-09-09 20:54:03 GMT 53.194126 -2.157683 23,600 150 377 -2496
2021-09-09 20:54:01 GMT 53.197266 -2.160618 23,700 150 377 -2624
2021-09-09 20:54:00 GMT 53.198593 -2.161952 23,725 150 377 -2624
2021-09-09 20:53:59 GMT 53.202667 -2.165798 23,825 150 377 -2624
2021-09-09 20:53:57 GMT 53.202667 -2.165798 23,875 150 377 -2560
2021-09-09 20:53:56 GMT 53.204136 -2.167215 23,925 150 377 -2560
2021-09-09 20:53:55 GMT 53.207298 -2.170284 23,950 150 377 -2560
2021-09-09 20:53:53 GMT 53.208927 -2.171819 24,100 149 377 -2368
2021-09-09 20:53:51 GMT 53.215347 -2.178040 24,150 150 378 -2112
2021-09-09 20:53:49 GMT 53.215347 -2.178040 24,175 150 378 -2048
2021-09-09 20:53:48 GMT 53.216984 -2.179574 24,225 149 379 -2048
2021-09-09 20:53:47 GMT 53.219822 -2.182321 24,275 149 379 -2048
2021-09-09 20:53:44 GMT 53.221573 -2.184004 24,325 149 380 -1984
2021-09-09 20:53:43 GMT 53.225639 -2.187895 24,400 149 381 -1920
2021-09-09 20:53:40 GMT 53.228760 -2.190909 24,475 149 381 -1920
2021-09-09 20:53:39 GMT 53.230408 -2.192557 24,500 149 382 -1984
2021-09-09 20:53:37 GMT 53.232624 -2.194681 24,550 149 382 -1984
2021-09-09 20:53:36 GMT 53.234905 -2.196942 24,600 149 383 -2112
2021-09-09 20:53:34 GMT 53.237137 -2.199071 24,650 149 383 -2112
2021-09-09 20:53:32 GMT 53.240982 -2.202759 24,750 149 384 -2240
2021-09-09 20:53:30 GMT 53.244122 -2.205828 24,825 149 384 -2304
2021-09-09 20:53:28 GMT 53.247147 -2.208817 24,925 149 384 -2304
2021-09-09 20:53:27 GMT 53.248489 -2.210057 24,950 149 384 -2304
2021-09-09 20:53:26 GMT 53.251617 -2.213099 25,025 149 384 -2368
2021-09-09 20:53:24 GMT 53.253155 -2.214553 25,050 149 385 -2432
2021-09-09 20:53:23 GMT 53.254807 -2.216178 25,100 149 385 -2432
2021-09-09 20:53:21 GMT 53.257950 -2.219238 25,175 149 385 -2496
2021-09-09 20:53:20 GMT 53.259430 -2.220572 25,250 149 385 -2560
2021-09-09 20:53:19 GMT 53.261021 -2.222146 25,300 149 385 -2560
2021-09-09 20:53:17 GMT 53.263954 -2.224974 25,450 150 386 -2624
2021-09-09 20:53:15 GMT 53.267212 -2.228124 25,450 150 386 -2624
2021-09-09 20:53:13 GMT 53.270233 -2.231009 25,550 149 385 -2624
2021-09-09 20:53:12 GMT 53.274612 -2.235233 25,650 150 386 -2624
2021-09-09 20:53:10 GMT 53.274612 -2.235233 25,650 149 387 -2624
2021-09-09 20:53:09 GMT 53.276150 -2.236768 25,775 149 387 -2560
2021-09-09 20:53:07 GMT 53.282482 -2.242827 25,850 149 387 -2560
2021-09-09 20:53:05 GMT 53.282482 -2.242827 25,875 149 387 -2496
2021-09-09 20:53:03 GMT 53.285740 -2.245977 26,000 149 387 -2496
2021-09-09 20:53:01 GMT 53.288208 -2.248401 26,000 149 387 -2496
2021-09-09 20:53:00 GMT 53.289791 -2.249935 26,075 149 387 -2560
2021-09-09 20:52:59 GMT 53.291107 -2.251177 26,125 149 388 -2560
2021-09-09 20:52:57 GMT 53.294495 -2.254473 26,175 149 388 -2624
2021-09-09 20:52:56 GMT 53.295731 -2.255729 26,225 149 388 -2688
2021-09-09 20:52:55 GMT 53.297287 -2.257220 26,300 149 388 -2624
2021-09-09 20:52:53 GMT 53.300537 -2.260359 26,350 149 388 -2688
2021-09-09 20:52:52 GMT 53.302094 -2.261850 26,425 149 388 -2624
2021-09-09 20:52:51 GMT 53.303707 -2.263426 26,450 149 388 -2624
2021-09-09 20:52:48 GMT 53.309235 -2.268834 26,600 149 388 -2688
2021-09-09 20:52:46 GMT 53.311707 -2.271266 26,675 149 388 -2688
2021-09-09 20:52:44 GMT 53.315277 -2.274719 26,775 149 389 -2624
2021-09-09 20:52:42 GMT 53.318138 -2.277482 26,825 149 389 -2624
2021-09-09 20:52:40 GMT 53.321320 -2.280605 26,950 149 389 -2688
2021-09-09 20:52:38 GMT 53.323727 -2.282975 27,000 149 389 -2752
2021-09-09 20:52:37 GMT 53.325394 -2.284528 27,050 149 389 -2752
2021-09-09 20:52:36 GMT 53.328506 -2.287589 27,125 149 389 -2752
2021-09-09 20:52:34 GMT 53.330063 -2.289080 27,200 149 389 -2688
2021-09-09 20:52:33 GMT 53.331894 -2.290885 27,250 149 389 -2688
2021-09-09 20:52:31 GMT 53.334805 -2.293638 27,325 149 389 -2560
2021-09-09 20:52:29 GMT 53.338120 -2.296927 27,400 149 389 -2496
2021-09-09 20:52:27 GMT 53.341324 -2.300020 27,500 150 390 -2240
2021-09-09 20:52:26 GMT 53.344528 -2.303048 27,575 150 390 -2048
2021-09-09 20:52:24 GMT 53.345840 -2.304382 27,600 150 390 -1920
2021-09-09 20:52:23 GMT 53.347420 -2.305836 27,625 150 390 -1856
2021-09-09 20:52:21 GMT 53.350433 -2.308777 27,700 150 390 -1728
2021-09-09 20:52:20 GMT 53.351936 -2.310199 27,750 150 390 -1728
2021-09-09 20:52:19 GMT 53.355148 -2.313250 27,750 150 390 -1600
2021-09-09 20:52:17 GMT 53.356964 -2.314965 27,825 150 390 -1536
2021-09-09 20:52:16 GMT 53.358501 -2.316500 27,825 150 391 -1408
2021-09-09 20:52:14 GMT 53.361740 -2.319528 27,850 150 391 -1280
2021-09-09 20:52:13 GMT 53.363201 -2.320943 27,875 150 391 -1088
2021-09-09 20:52:12 GMT 53.364647 -2.322316 27,900 150 391 -960
2021-09-09 20:52:11 GMT 53.367626 -2.325143 27,950 150 392 -768
2021-09-09 20:52:09 GMT 53.369209 -2.326678 27,975 150 393 -320
2021-09-09 20:52:07 GMT 53.374840 -2.332010 27,975 150 393 -320
2021-09-09 20:52:05 GMT 53.375816 -2.332898 27,975 150 393 -320
2021-09-09 20:52:04 GMT 53.378082 -2.335144 27,975 150 393 -256
2021-09-09 20:52:03 GMT 53.381172 -2.338068 28,000 150 393 -192
2021-09-09 20:52:01 GMT 53.382568 -2.339361 28,000 150 393 -128
2021-09-09 20:52:00 GMT 53.384079 -2.340794 28,000 150 393 -64
2021-09-09 20:51:58 GMT 53.387100 -2.343698 28,000 150 393 0
2021-09-09 20:51:57 GMT 53.388573 -2.345096 28,000 150 393 0
2021-09-09 20:51:55 GMT 53.391739 -2.348085 28,000 150 393 0
2021-09-09 20:51:54 GMT 53.393417 -2.349662 28,000 150 393 0
2021-09-09 20:51:52 GMT 53.396488 -2.352609 28,000 150 393 0
2021-09-09 20:51:51 GMT 53.398132 -2.354213 28,000 150 393 0
2021-09-09 20:51:50 GMT 53.399792 -2.355760 28,000 150 393 0
2021-09-09 20:51:47 GMT 53.403992 -2.359706 28,000 150 393 0
2021-09-09 20:51:46 GMT 53.405548 -2.361276 28,000 150 392 0
2021-09-09 20:51:44 GMT 53.408916 -2.364484 28,000 150 392 0
2021-09-09 20:51:43 GMT 53.410500 -2.366019 28,000 150 393 0
2021-09-09 20:51:42 GMT 53.413990 -2.369331 28,000 150 393 0
2021-09-09 20:51:40 GMT 53.415482 -2.370771 28,000 150 392 0
2021-09-09 20:51:39 GMT 53.417175 -2.372419 28,000 150 392 0
2021-09-09 20:51:38 GMT 53.418594 -2.373753 28,000 150 392 0
2021-09-09 20:51:37 GMT 53.420277 -2.375390 28,000 150 392 0
2021-09-09 20:51:35 GMT 53.423721 -2.378702 28,000 150 392 0
2021-09-09 20:51:34 GMT 53.424591 -2.379560 28,000 150 392 0
2021-09-09 20:51:33 GMT 53.427956 -2.382821 28,000 150 392 -64
2021-09-09 20:51:30 GMT 53.431076 -2.385810 28,000 150 392 -64
2021-09-09 20:51:29 GMT 53.432659 -2.387345 28,000 150 392 -64
2021-09-09 20:51:28 GMT 53.435638 -2.390253 28,025 150 392 -64
2021-09-09 20:51:25 GMT 53.438690 -2.393215 28,025 149 392 -64
2021-09-09 20:51:24 GMT 53.440247 -2.394706 28,025 149 392 -64
2021-09-09 20:51:23 GMT 53.441921 -2.396312 28,025 149 392 0
2021-09-09 20:51:21 GMT 53.445099 -2.399414 28,025 149 392 0
2021-09-09 20:51:19 GMT 53.447556 -2.401805 28,025 149 391 0
2021-09-09 20:51:18 GMT 53.449677 -2.403809 28,025 149 391 0
2021-09-09 20:51:17 GMT 53.451233 -2.405378 28,025 149 392 0
2021-09-09 20:51:16 GMT 53.452789 -2.406869 28,025 149 392 0
2021-09-09 20:51:13 GMT 53.457642 -2.411577 28,025 149 392 0
2021-09-09 20:51:12 GMT 53.459286 -2.413195 28,025 149 392 0
2021-09-09 20:51:10 GMT 53.462406 -2.416265 28,000 149 392 0
2021-09-09 20:51:09 GMT 53.463848 -2.417638 28,000 149 392 0
2021-09-09 20:51:08 GMT 53.465469 -2.419189 28,000 149 392 128
2021-09-09 20:51:06 GMT 53.468552 -2.422162 28,000 149 392 64
2021-09-09 20:51:05 GMT 53.471603 -2.425153 28,000 149 392 0
2021-09-09 20:51:03 GMT 53.473251 -2.426767 28,000 149 393 64
2021-09-09 20:51:01 GMT 53.478420 -2.431775 28,000 149 394 0
2021-09-09 20:50:58 GMT 53.481812 -2.435041 28,000 149 395 64
2021-09-09 20:50:56 GMT 53.485031 -2.438238 28,000 150 394 0
2021-09-09 20:50:55 GMT 53.486710 -2.439828 28,000 150 394 0
2021-09-09 20:50:53 GMT 53.489227 -2.442261 28,000 149 395 0
2021-09-09 20:50:52 GMT 53.490829 -2.443752 28,000 149 395 0
2021-09-09 20:50:51 GMT 53.492153 -2.445104 28,000 149 395 0
2021-09-09 20:50:49 GMT 53.495644 -2.448416 28,000 149 395 0
2021-09-09 20:50:48 GMT 53.496964 -2.449716 28,000 149 395 0
2021-09-09 20:50:45 GMT 53.501789 -2.454394 28,000 149 395 0
2021-09-09 20:50:44 GMT 53.505020 -2.457563 28,000 150 394 0
2021-09-09 20:50:41 GMT 53.508179 -2.460624 28,000 150 394 0
2021-09-09 20:50:39 GMT 53.511520 -2.463841 28,000 150 394 0
2021-09-09 20:50:38 GMT 53.513145 -2.465381 28,000 150 394 0
2021-09-09 20:50:37 GMT 53.514591 -2.466754 28,000 150 395 0
2021-09-09 20:50:35 GMT 53.517757 -2.469824 28,000 150 395 0
2021-09-09 20:50:34 GMT 53.520538 -2.472473 28,000 150 395 0
2021-09-09 20:50:32 GMT 53.522095 -2.474043 28,000 150 395 0
2021-09-09 20:50:31 GMT 53.523903 -2.475721 28,000 150 394 0
2021-09-09 20:50:29 GMT 53.527176 -2.478830 28,000 150 394 -64
2021-09-09 20:50:28 GMT 53.528732 -2.480399 28,000 150 394 -64
2021-09-09 20:50:27 GMT 53.530334 -2.481890 28,000 150 394 0
2021-09-09 20:50:25 GMT 53.533722 -2.485172 28,000 150 394 0
2021-09-09 20:50:24 GMT 53.536606 -2.487932 28,025 150 393 -64
2021-09-09 20:50:22 GMT 53.538345 -2.489659 28,025 150 393 -64
2021-09-09 20:50:21 GMT 53.540009 -2.491231 28,000 150 393 -64
2021-09-09 20:50:20 GMT 53.541729 -2.492927 28,025 150 393 -64
2021-09-09 20:50:18 GMT 53.544895 -2.495916 28,025 150 393 -64
2021-09-09 20:50:17 GMT 53.545689 -2.496724 28,025 150 393 -64
2021-09-09 20:50:16 GMT 53.551041 -2.501894 28,025 150 392 0
2021-09-09 20:50:14 GMT 53.551041 -2.501894 28,025 150 392 0
2021-09-09 20:50:13 GMT 53.552490 -2.503313 28,025 150 392 0
2021-09-09 20:50:11 GMT 53.555557 -2.506256 28,025 150 391 0
2021-09-09 20:50:10 GMT 53.557140 -2.507791 28,025 150 391 0
2021-09-09 20:50:08 GMT 53.560501 -2.511004 28,025 150 391 0
2021-09-09 20:50:07 GMT 53.562241 -2.512730 28,025 150 391 0
2021-09-09 20:50:06 GMT 53.563702 -2.514092 28,025 150 391 0
2021-09-09 20:50:05 GMT 53.565216 -2.515555 28,025 150 391 64
2021-09-09 20:50:03 GMT 53.568192 -2.518459 28,000 150 391 64
2021-09-09 20:50:02 GMT 53.569660 -2.519908 28,000 150 391 0
2021-09-09 20:50:00 GMT 53.572723 -2.522853 28,000 150 391 0
2021-09-09 20:49:59 GMT 53.574223 -2.524270 28,025 150 391 0
2021-09-09 20:49:58 GMT 53.575947 -2.525967 28,000 150 391 0
2021-09-09 20:49:56 GMT 53.579250 -2.529117 28,000 150 391 64
2021-09-09 20:49:55 GMT 53.580734 -2.530544 28,000 150 391 64
2021-09-09 20:49:54 GMT 53.582371 -2.532187 28,000 150 391 0
2021-09-09 20:49:51 GMT 53.586685 -2.536351 28,000 150 391 0
2021-09-09 20:49:48 GMT 53.591263 -2.540745 28,000 150 392 0
2021-09-09 20:49:45 GMT 53.596115 -2.545375 28,000 150 392 0
2021-09-09 20:49:43 GMT 53.599136 -2.548279 28,000 150 392 0
2021-09-09 20:49:41 GMT 53.602482 -2.551575 28,000 150 392 -64
2021-09-09 20:49:40 GMT 53.604065 -2.553029 28,000 150 393 0
2021-09-09 20:49:38 GMT 53.607368 -2.556260 28,000 150 393 0
2021-09-09 20:49:37 GMT 53.608952 -2.557795 28,000 150 393 -64
2021-09-09 20:49:35 GMT 53.612442 -2.561107 28,000 150 394 0
2021-09-09 20:49:34 GMT 53.613373 -2.561996 28,000 150 394 0
2021-09-09 20:49:33 GMT 53.616726 -2.565146 28,000 150 394 0
2021-09-09 20:49:31 GMT 53.618309 -2.566681 28,000 150 395 0
2021-09-09 20:49:30 GMT 53.619892 -2.568216 28,000 150 395 64
2021-09-09 20:49:29 GMT 53.624863 -2.572920 28,000 150 396 0
2021-09-09 20:49:27 GMT 53.624863 -2.572920 28,000 150 395 -64
2021-09-09 20:49:26 GMT 53.626549 -2.574517 28,000 150 395 -64
2021-09-09 20:49:25 GMT 53.629250 -2.577102 28,000 150 396 64
2021-09-09 20:49:22 GMT 53.634796 -2.582336 28,000 150 396 64
2021-09-09 20:49:19 GMT 53.637177 -2.584534 28,000 150 396 0
2021-09-09 20:49:17 GMT 53.640934 -2.588088 28,000 150 397 0
2021-09-09 20:49:16 GMT 53.642624 -2.589713 28,000 150 398 0
2021-09-09 20:49:15 GMT 53.644226 -2.591204 28,000 150 398 0
2021-09-09 20:49:13 GMT 53.647495 -2.594308 28,000 150 398 0
2021-09-09 20:49:12 GMT 53.649078 -2.595843 28,000 150 398 0
2021-09-09 20:49:10 GMT 53.652191 -2.598816 28,000 150 398 0
2021-09-09 20:49:09 GMT 53.653736 -2.600205 28,000 150 398 0
2021-09-09 20:49:07 GMT 53.657085 -2.603437 28,000 150 398 0
2021-09-09 20:49:06 GMT 53.658714 -2.604891 28,000 150 398 0
2021-09-09 20:49:05 GMT 53.660297 -2.606426 28,000 150 398 0
2021-09-09 20:49:02 GMT 53.665192 -2.611058 28,000 150 399 0
2021-09-09 20:48:59 GMT 53.669998 -2.615609 28,000 150 399 0
2021-09-09 20:48:57 GMT 53.672962 -2.618462 28,000 150 399 0
2021-09-09 20:48:55 GMT 53.676270 -2.621573 28,000 150 399 0
2021-09-09 20:48:53 GMT 53.679474 -2.624634 28,000 150 399 0
2021-09-09 20:48:51 GMT 53.682541 -2.627537 28,000 150 399 0
2021-09-09 20:48:49 GMT 53.685883 -2.630755 28,000 150 399 0
2021-09-09 20:48:48 GMT 53.687580 -2.632357 28,000 150 399 0
2021-09-09 20:48:46 GMT 53.690792 -2.635426 28,000 150 399 64
2021-09-09 20:48:45 GMT 53.691650 -2.636326 28,000 150 399 0
2021-09-09 20:48:43 GMT 53.694855 -2.639387 28,000 150 399 0
2021-09-09 20:48:40 GMT 53.699776 -2.644070 28,000 150 399 64
2021-09-09 20:48:38 GMT 53.702866 -2.646999 28,000 150 399 0
2021-09-09 20:48:37 GMT 53.704651 -2.648725 28,000 150 399 0
2021-09-09 20:48:36 GMT 53.706154 -2.650209 28,000 150 399 0
2021-09-09 20:48:34 GMT 53.709553 -2.653360 28,000 150 398 0
2021-09-09 20:48:33 GMT 53.711060 -2.654846 28,000 150 398 0
2021-09-09 20:48:31 GMT 53.714348 -2.657964 28,000 150 398 0
2021-09-09 20:48:29 GMT 53.716862 -2.660469 28,000 150 398 0
2021-09-09 20:48:28 GMT 53.719025 -2.662537 28,000 150 398 0
2021-09-09 20:48:27 GMT 53.720539 -2.663942 28,000 150 398 0
2021-09-09 20:48:26 GMT 53.725006 -2.668304 28,000 150 398 0
2021-09-09 20:48:24 GMT 53.725006 -2.668304 28,000 150 398 0
2021-09-09 20:48:23 GMT 53.728592 -2.671718 28,000 150 397 0
2021-09-09 20:48:21 GMT 53.730057 -2.673131 28,000 150 397 0
2021-09-09 20:48:20 GMT 53.731796 -2.674779 28,000 150 397 0
2021-09-09 20:48:19 GMT 53.734921 -2.677756 28,000 150 397 0
2021-09-09 20:48:17 GMT 53.736645 -2.679452 28,000 150 397 0
2021-09-09 20:48:16 GMT 53.738228 -2.680987 28,000 150 397 0
2021-09-09 20:48:14 GMT 53.741440 -2.684057 28,000 150 396 0
2021-09-09 20:48:13 GMT 53.743160 -2.685753 28,000 150 396 0
2021-09-09 20:48:11 GMT 53.746445 -2.688904 28,000 150 396 0
2021-09-09 20:48:10 GMT 53.748001 -2.690395 28,000 150 395 0
2021-09-09 20:48:08 GMT 53.751205 -2.693455 28,000 150 395 0
2021-09-09 20:48:07 GMT 53.752567 -2.694720 28,000 150 395 0
2021-09-09 20:48:06 GMT 53.754227 -2.696359 28,000 150 395 0
2021-09-09 20:48:04 GMT 53.758896 -2.700860 28,000 150 395 0
2021-09-09 20:48:03 GMT 53.758896 -2.700860 28,000 150 395 0
2021-09-09 20:48:02 GMT 53.762249 -2.704091 28,000 150 396 0
2021-09-09 20:47:59 GMT 53.765553 -2.707241 28,000 150 396 0
2021-09-09 20:47:58 GMT 53.767090 -2.708679 28,000 150 396 0
2021-09-09 20:47:56 GMT 53.770210 -2.711684 28,000 150 396 0
2021-09-09 20:47:55 GMT 53.771606 -2.713058 28,000 150 396 0
2021-09-09 20:47:54 GMT 53.773132 -2.714486 28,000 150 396 0
2021-09-09 20:47:52 GMT 53.776337 -2.717547 28,000 150 396 0
2021-09-09 20:47:50 GMT 53.779495 -2.720529 28,000 150 396 0
2021-09-09 20:47:49 GMT 53.781281 -2.722177 28,000 150 396 0
2021-09-09 20:47:47 GMT 53.786129 -2.726871 28,000 150 395 0
2021-09-09 20:47:45 GMT 53.787643 -2.728298 28,000 150 395 0
2021-09-09 20:47:44 GMT 53.789158 -2.729699 28,000 150 396 0
2021-09-09 20:47:42 GMT 53.792179 -2.732607 28,000 150 396 0
2021-09-09 20:47:41 GMT 53.794277 -2.734546 28,000 150 397 0
2021-09-09 20:47:40 GMT 53.795860 -2.736080 28,000 150 397 0
2021-09-09 20:47:37 GMT 53.800003 -2.740039 28,000 150 397 0
2021-09-09 20:47:35 GMT 53.803894 -2.743757 28,000 150 397 0
2021-09-09 20:47:34 GMT 53.804798 -2.744562 28,000 150 397 0
2021-09-09 20:47:33 GMT 53.806458 -2.746190 28,000 150 397 0
2021-09-09 20:47:32 GMT 53.811501 -2.750944 28,000 150 397 0
2021-09-09 20:47:30 GMT 53.811501 -2.750944 28,000 150 397 0
2021-09-09 20:47:29 GMT 53.813187 -2.752546 28,000 150 398 0
2021-09-09 20:47:26 GMT 53.818268 -2.757411 28,000 150 398 0
2021-09-09 20:47:25 GMT 53.821655 -2.760629 28,000 150 398 0
2021-09-09 20:47:22 GMT 53.823326 -2.762173 28,000 150 398 0
2021-09-09 20:47:21 GMT 53.825558 -2.764354 28,000 150 397 0
2021-09-09 20:47:20 GMT 53.827240 -2.765887 28,000 150 397 0
2021-09-09 20:47:18 GMT 53.830811 -2.769261 28,000 150 398 0
2021-09-09 20:47:17 GMT 53.835114 -2.773342 28,000 150 398 0
2021-09-09 20:47:15 GMT 53.835114 -2.773342 28,000 150 398 0
2021-09-09 20:47:14 GMT 53.839920 -2.777893 28,000 150 398 0
2021-09-09 20:47:12 GMT 53.839920 -2.777893 28,000 150 398 0
2021-09-09 20:47:11 GMT 53.841385 -2.779227 28,000 150 398 0
2021-09-09 20:47:08 GMT 53.846134 -2.783742 28,000 150 398 0
2021-09-09 20:47:07 GMT 53.848698 -2.786165 28,000 150 398 0
2021-09-09 20:47:05 GMT 53.851181 -2.788487 28,000 150 398 0
2021-09-09 20:47:04 GMT 53.853352 -2.790527 28,000 150 398 0
2021-09-09 20:47:02 GMT 53.856564 -2.793597 28,000 150 398 0
2021-09-09 20:47:01 GMT 53.858006 -2.794890 28,000 150 398 -64
2021-09-09 20:46:59 GMT 53.864685 -2.801200 28,000 150 398 0
2021-09-09 20:46:57 GMT 53.864685 -2.801200 28,000 150 398 0
2021-09-09 20:46:56 GMT 53.866341 -2.802806 28,000 150 398 0
2021-09-09 20:46:54 GMT 53.868759 -2.805068 28,000 150 398 0
2021-09-09 20:46:53 GMT 53.871918 -2.808027 28,000 150 398 0
2021-09-09 20:46:51 GMT 53.873600 -2.809673 28,000 150 398 0
2021-09-09 20:46:50 GMT 53.875259 -2.811244 28,000 150 398 0
2021-09-09 20:46:49 GMT 53.876724 -2.812578 28,000 150 398 0
2021-09-09 20:46:47 GMT 53.879841 -2.815570 28,000 150 398 64
2021-09-09 20:46:46 GMT 53.881531 -2.817130 28,000 150 398 0
2021-09-09 20:46:44 GMT 53.884682 -2.820093 28,000 150 398 0
2021-09-09 20:46:43 GMT 53.886124 -2.821467 28,000 150 398 0
2021-09-09 20:46:42 GMT 53.889404 -2.824585 28,000 150 398 0
2021-09-09 20:46:40 GMT 53.891106 -2.826152 28,000 150 398 0
2021-09-09 20:46:39 GMT 53.892792 -2.827802 28,000 150 398 0
2021-09-09 20:46:38 GMT 53.897854 -2.832534 28,000 150 398 0
2021-09-09 20:46:36 GMT 53.897854 -2.832534 28,000 150 398 0
2021-09-09 20:46:35 GMT 53.900803 -2.835414 28,000 150 398 0
2021-09-09 20:46:32 GMT 53.903732 -2.838161 28,000 150 398 -64
2021-09-09 20:46:31 GMT 53.908218 -2.842399 28,000 150 398 -64
2021-09-09 20:46:29 GMT 53.909912 -2.844005 28,000 150 398 0
2021-09-09 20:46:27 GMT 53.912285 -2.846267 28,000 150 398 0
2021-09-09 20:46:26 GMT 53.913918 -2.847802 28,000 150 398 0
2021-09-09 20:46:24 GMT 53.917130 -2.850871 28,000 150 399 0
2021-09-09 20:46:23 GMT 53.918793 -2.852443 28,000 150 399 0
2021-09-09 20:46:22 GMT 53.920479 -2.854103 28,000 150 399 0
2021-09-09 20:46:21 GMT 53.921356 -2.854954 28,000 150 399 0
2021-09-09 20:46:20 GMT 53.925064 -2.858486 28,000 150 398 64
2021-09-09 20:46:18 GMT 53.926804 -2.860134 28,000 150 398 64
2021-09-09 20:46:17 GMT 53.928207 -2.861454 28,000 150 398 64
2021-09-09 20:46:15 GMT 53.932114 -2.865234 28,000 150 398 64
2021-09-09 20:46:13 GMT 53.934586 -2.867593 28,000 150 398 64
2021-09-09 20:46:11 GMT 53.937939 -2.870824 28,000 150 397 0
2021-09-09 20:46:10 GMT 53.939568 -2.872359 28,000 150 397 0
2021-09-09 20:46:08 GMT 53.943008 -2.875671 28,000 150 397 0
2021-09-09 20:46:06 GMT 53.947712 -2.880195 28,000 150 397 0
2021-09-09 20:46:04 GMT 53.949371 -2.881792 28,000 150 397 0
2021-09-09 20:46:03 GMT 53.954315 -2.886501 28,000 150 397 0
2021-09-09 20:46:01 GMT 53.954315 -2.886501 28,000 150 397 0
2021-09-09 20:45:59 GMT 53.960541 -2.892543 28,000 150 397 0
2021-09-09 20:45:55 GMT 53.963562 -2.895447 28,000 150 397 0
2021-09-09 20:45:53 GMT 53.967728 -2.899370 28,000 150 397 0
2021-09-09 20:45:51 GMT 53.969547 -2.901198 28,000 150 397 0
2021-09-09 20:45:50 GMT 53.971966 -2.903460 28,000 150 397 0
2021-09-09 20:45:49 GMT 53.974274 -2.905648 28,000 150 397 0
2021-09-09 20:45:47 GMT 53.977158 -2.908395 28,000 150 397 0
2021-09-09 20:45:45 GMT 53.978668 -2.909842 28,000 150 397 0
2021-09-09 20:45:43 GMT 53.981964 -2.913025 28,000 150 398 0
2021-09-09 20:45:42 GMT 53.985168 -2.916085 28,000 150 398 0
2021-09-09 20:45:39 GMT 53.991714 -2.922285 28,000 150 398 0
2021-09-09 20:45:36 GMT 53.994034 -2.924544 28,000 150 398 0
2021-09-09 20:45:34 GMT 53.997025 -2.927386 28,000 150 398 0
2021-09-09 20:45:33 GMT 53.998627 -2.928877 28,000 150 398 0
2021-09-09 20:45:32 GMT 54.000870 -2.930995 28,000 150 398 0
2021-09-09 20:45:30 GMT 54.004074 -2.934056 28,000 150 398 0
2021-09-09 20:45:29 GMT 54.005676 -2.935625 28,000 150 398 0
2021-09-09 20:45:28 GMT 54.008881 -2.938686 28,000 150 398 0
2021-09-09 20:45:26 GMT 54.010483 -2.940177 28,000 150 398 0
2021-09-09 20:45:24 GMT 54.014008 -2.943551 28,000 150 398 0
2021-09-09 20:45:22 GMT 54.016388 -2.945827 28,000 150 397 0
2021-09-09 20:45:20 GMT 54.019684 -2.948941 28,000 150 397 0
2021-09-09 20:45:19 GMT 54.021515 -2.950692 28,000 150 397 0
2021-09-09 20:45:18 GMT 54.023117 -2.952183 28,000 150 397 0
2021-09-09 20:45:16 GMT 54.026642 -2.955558 28,000 150 397 0
2021-09-09 20:45:15 GMT 54.028202 -2.957019 28,000 150 397 0
2021-09-09 20:45:14 GMT 54.029922 -2.958715 28,000 150 397 0
2021-09-09 20:45:13 GMT 54.033051 -2.961679 28,000 150 397 0
2021-09-09 20:45:10 GMT 54.034836 -2.963327 28,000 150 397 0
2021-09-09 20:45:09 GMT 54.037399 -2.965759 28,000 150 396 64
2021-09-09 20:45:08 GMT 54.039234 -2.967520 28,000 150 396 0
2021-09-09 20:45:07 GMT 54.040817 -2.969055 28,000 150 396 0
2021-09-09 20:45:06 GMT 54.042400 -2.970590 28,000 150 396 0
2021-09-09 20:45:04 GMT 54.045612 -2.973660 28,000 150 397 0
2021-09-09 20:45:03 GMT 54.047104 -2.975098 28,000 150 397 0
2021-09-09 20:45:01 GMT 54.050308 -2.978158 28,000 150 396 0
2021-09-09 20:45:00 GMT 54.051727 -2.979492 28,000 150 396 0
2021-09-09 20:44:59 GMT 54.053432 -2.981092 28,000 150 396 0
2021-09-09 20:44:58 GMT 54.056854 -2.984436 28,000 150 396 0
2021-09-09 20:44:56 GMT 54.058273 -2.985770 28,000 150 396 0
2021-09-09 20:44:55 GMT 54.059875 -2.987261 28,000 150 396 0
2021-09-09 20:44:54 GMT 54.064499 -2.991734 28,000 150 396 0
2021-09-09 20:44:52 GMT 54.064499 -2.991734 28,000 150 396 0
2021-09-09 20:44:51 GMT 54.066101 -2.993304 28,000 150 396 0
2021-09-09 20:44:49 GMT 54.069443 -2.996521 28,000 150 396 0
2021-09-09 20:44:48 GMT 54.070999 -2.998012 28,000 150 396 0
2021-09-09 20:44:46 GMT 54.074203 -3.001072 28,000 150 395 0
2021-09-09 20:44:45 GMT 54.075871 -3.002660 28,000 150 395 0
2021-09-09 20:44:44 GMT 54.077312 -3.004034 28,000 150 395 0
2021-09-09 20:44:42 GMT 54.080620 -3.007265 28,000 150 395 0
2021-09-09 20:44:40 GMT 54.086857 -3.013162 28,000 150 395 0
2021-09-09 20:44:38 GMT 54.086857 -3.013162 28,000 150 395 0
2021-09-09 20:44:36 GMT 54.090023 -3.016151 28,000 150 395 0
2021-09-09 20:44:35 GMT 54.091465 -3.017524 28,000 150 395 0
2021-09-09 20:44:34 GMT 54.093048 -3.019059 28,000 150 394 0
2021-09-09 20:44:32 GMT 54.096401 -3.022210 28,000 150 394 0
2021-09-09 20:44:31 GMT 54.098099 -3.023830 28,000 150 394 0
2021-09-09 20:44:30 GMT 54.102127 -3.027703 28,000 150 394 0
2021-09-09 20:44:27 GMT 54.104034 -3.029480 28,000 150 394 0
2021-09-09 20:44:26 GMT 54.106018 -3.031363 28,000 150 394 0
2021-09-09 20:44:25 GMT 54.107483 -3.032697 28,000 150 394 0
2021-09-09 20:44:23 GMT 54.110825 -3.035836 28,000 150 394 0
2021-09-09 20:44:22 GMT 54.112320 -3.037316 28,000 150 394 0
2021-09-09 20:44:21 GMT 54.114231 -3.039093 28,000 150 393 0
2021-09-09 20:44:18 GMT 54.118977 -3.043617 28,000 150 393 0
2021-09-09 20:44:17 GMT 54.122086 -3.046587 28,000 150 393 0
2021-09-09 20:44:15 GMT 54.123772 -3.048141 28,000 150 393 0
2021-09-09 20:44:14 GMT 54.125427 -3.049726 28,000 150 393 0
2021-09-09 20:44:13 GMT 54.128632 -3.052787 28,000 150 393 0
2021-09-09 20:44:11 GMT 54.129967 -3.054038 28,000 150 394 0
2021-09-09 20:44:10 GMT 54.133129 -3.057027 28,000 150 395 0
2021-09-09 20:44:07 GMT 54.137970 -3.061654 28,000 150 395 0
2021-09-09 20:44:05 GMT 54.139435 -3.063067 28,000 150 395 0
2021-09-09 20:44:04 GMT 54.141174 -3.064715 28,000 150 395 64
2021-09-09 20:44:03 GMT 54.144333 -3.067775 28,000 150 395 64
2021-09-09 20:44:01 GMT 54.145935 -3.069345 28,000 150 396 0
2021-09-09 20:43:59 GMT 54.149277 -3.072484 28,000 150 396 0
2021-09-09 20:43:58 GMT 54.150696 -3.073896 28,000 150 396 0
2021-09-09 20:43:56 GMT 54.154221 -3.077271 28,000 150 396 0
2021-09-09 20:43:54 GMT 54.156685 -3.079645 28,000 150 395 0
2021-09-09 20:43:52 GMT 54.159943 -3.082764 28,000 150 395 0
2021-09-09 20:43:51 GMT 54.161362 -3.084176 28,000 150 395 0
2021-09-09 20:43:50 GMT 54.166042 -3.088693 28,000 150 395 0
2021-09-09 20:43:48 GMT 54.166042 -3.088693 28,000 150 395 0
2021-09-09 20:43:47 GMT 54.168278 -3.090874 28,000 150 395 0
2021-09-09 20:43:45 GMT 54.172421 -3.094913 28,000 150 396 -64
2021-09-09 20:43:43 GMT 54.174225 -3.096654 28,000 150 396 0
2021-09-09 20:43:41 GMT 54.177357 -3.099679 28,000 150 396 -64
2021-09-09 20:43:40 GMT 54.178936 -3.101214 28,000 150 396 0
2021-09-09 20:43:39 GMT 54.182693 -3.104893 28,000 150 396 0
2021-09-09 20:43:37 GMT 54.184196 -3.106303 28,000 150 396 0
2021-09-09 20:43:36 GMT 54.185715 -3.107797 28,000 150 396 0
2021-09-09 20:43:35 GMT 54.190575 -3.112524 28,000 150 396 0
2021-09-09 20:43:33 GMT 54.190575 -3.112524 28,000 150 396 0
2021-09-09 20:43:31 GMT 54.193176 -3.115016 28,000 150 396 0
2021-09-09 20:43:30 GMT 54.195419 -3.117214 28,000 150 396 0
2021-09-09 20:43:29 GMT 54.197094 -3.118825 28,000 150 397 0
2021-09-09 20:43:28 GMT 54.198624 -3.120274 28,000 150 397 0
2021-09-09 20:43:25 GMT 54.203144 -3.124722 28,000 150 397 0
2021-09-09 20:43:24 GMT 54.204529 -3.126003 28,025 150 397 0
2021-09-09 20:43:23 GMT 54.207802 -3.129165 28,025 150 397 0
2021-09-09 20:43:21 GMT 54.209473 -3.130790 28,025 150 397 0
2021-09-09 20:43:20 GMT 54.211151 -3.132396 28,025 150 397 0
2021-09-09 20:43:19 GMT 54.212734 -3.133931 28,025 150 397 0
2021-09-09 20:43:17 GMT 54.215836 -3.136911 28,025 150 397 0
2021-09-09 20:43:15 GMT 54.220963 -3.141854 28,000 150 397 64
2021-09-09 20:43:13 GMT 54.222466 -3.143302 28,000 150 397 64
2021-09-09 20:43:12 GMT 54.224167 -3.144993 28,000 150 397 64
2021-09-09 20:43:10 GMT 54.226868 -3.147583 28,000 150 397 0
2021-09-09 20:43:09 GMT 54.228561 -3.149199 28,000 150 397 0
2021-09-09 20:43:08 GMT 54.231915 -3.152430 28,000 150 398 0
2021-09-09 20:43:06 GMT 54.233597 -3.154018 28,000 150 398 0
2021-09-09 20:43:04 GMT 54.236710 -3.157034 28,000 150 397 0
2021-09-09 20:43:02 GMT 54.240143 -3.160296 28,000 150 397 0
2021-09-09 20:43:01 GMT 54.244629 -3.164533 28,000 150 398 0
2021-09-09 20:42:59 GMT 54.244629 -3.164533 28,000 150 398 0
2021-09-09 20:42:57 GMT 54.249229 -3.168909 28,000 150 398 0
2021-09-09 20:42:55 GMT 54.250900 -3.170497 28,000 150 399 0
2021-09-09 20:42:54 GMT 54.252583 -3.172141 28,000 150 399 0
2021-09-09 20:42:51 GMT 54.256393 -3.175677 28,000 150 399 0
2021-09-09 20:42:50 GMT 54.257996 -3.177246 28,000 150 399 0
2021-09-09 20:42:49 GMT 54.259659 -3.178846 28,000 150 399 0
2021-09-09 20:42:47 GMT 54.262985 -3.181955 28,000 150 399 0
2021-09-09 20:42:44 GMT 54.269257 -3.187997 28,000 150 399 0
2021-09-09 20:42:42 GMT 54.270859 -3.189488 28,000 150 399 0
2021-09-09 20:42:41 GMT 54.273346 -3.191851 28,000 150 398 0
2021-09-09 20:42:39 GMT 54.276627 -3.195060 28,000 150 399 64
2021-09-09 20:42:37 GMT 54.281479 -3.199687 28,000 150 399 64
2021-09-09 20:42:35 GMT 54.282898 -3.201061 28,000 150 399 64
2021-09-09 20:42:34 GMT 54.284752 -3.202848 28,000 150 399 64
2021-09-09 20:42:32 GMT 54.287704 -3.205665 28,000 150 399 64
2021-09-09 20:42:31 GMT 54.290848 -3.208674 28,000 150 399 64
2021-09-09 20:42:29 GMT 54.292511 -3.210350 28,000 150 398 0
2021-09-09 20:42:28 GMT 54.294060 -3.211836 28,000 150 398 0
2021-09-09 20:42:27 GMT 54.298065 -3.215665 28,000 150 398 0
2021-09-09 20:42:24 GMT 54.302254 -3.219660 28,000 150 398 -64
2021-09-09 20:42:22 GMT 54.303837 -3.221158 28,000 150 398 -64
2021-09-09 20:42:21 GMT 54.305511 -3.222791 28,000 150 398 -64
2021-09-09 20:42:19 GMT 54.309082 -3.226184 28,000 150 398 -64
2021-09-09 20:42:17 GMT 54.313938 -3.230896 28,000 150 398 -64
2021-09-09 20:42:15 GMT 54.315308 -3.232242 28,000 150 398 0
2021-09-09 20:42:14 GMT 54.316685 -3.233559 28,000 150 398 0
2021-09-09 20:42:12 GMT 54.320160 -3.236847 28,000 150 398 -64
2021-09-09 20:42:11 GMT 54.321667 -3.238303 28,000 150 398 0
2021-09-09 20:42:09 GMT 54.325020 -3.241549 28,000 150 398 0
2021-09-09 20:42:07 GMT 54.328232 -3.244629 28,000 150 398 0
2021-09-09 20:42:04 GMT 54.332420 -3.248541 28,000 150 397 0
2021-09-09 20:42:03 GMT 54.333862 -3.249956 28,000 150 397 0
2021-09-09 20:42:02 GMT 54.336182 -3.252115 28,000 150 397 0
2021-09-09 20:42:01 GMT 54.337074 -3.252952 28,000 150 397 0
2021-09-09 20:41:58 GMT 54.342381 -3.258029 28,000 150 397 0
2021-09-09 20:41:56 GMT 54.345657 -3.261162 28,000 150 397 64
2021-09-09 20:41:55 GMT 54.350574 -3.265769 28,000 150 397 0
2021-09-09 20:41:53 GMT 54.350574 -3.265769 28,000 150 397 -64
2021-09-09 20:41:51 GMT 54.353275 -3.268349 28,000 150 397 0
2021-09-09 20:41:49 GMT 54.357140 -3.272095 28,000 150 397 0
2021-09-09 20:41:47 GMT 54.360493 -3.275257 28,000 150 397 0
2021-09-09 20:41:46 GMT 54.361469 -3.276173 28,000 150 397 0
2021-09-09 20:41:43 GMT 54.366264 -3.280834 28,000 150 398 0
2021-09-09 20:41:41 GMT 54.370010 -3.284427 28,000 150 398 0
2021-09-09 20:41:40 GMT 54.371613 -3.285962 28,000 150 398 0
2021-09-09 20:41:39 GMT 54.373077 -3.287336 28,000 150 398 0
2021-09-09 20:41:38 GMT 54.374737 -3.288990 28,000 150 398 0
2021-09-09 20:41:37 GMT 54.378983 -3.293071 28,000 150 397 0
2021-09-09 20:41:35 GMT 54.378983 -3.293071 28,000 150 397 0
2021-09-09 20:41:34 GMT 54.382324 -3.296302 28,000 150 397 0
2021-09-09 20:41:32 GMT 54.383862 -3.297813 28,000 150 397 0
2021-09-09 20:41:30 GMT 54.387539 -3.301308 28,000 150 397 0
2021-09-09 20:41:29 GMT 54.389053 -3.302765 28,000 150 397 0
2021-09-09 20:41:28 GMT 54.390793 -3.304542 28,000 150 397 0
2021-09-09 20:41:27 GMT 54.392258 -3.305915 28,000 150 397 0
2021-09-09 20:41:25 GMT 54.395416 -3.308985 28,000 150 397 0
2021-09-09 20:41:22 GMT 54.400478 -3.313876 28,000 150 397 0
2021-09-09 20:41:20 GMT 54.403564 -3.316902 28,000 150 397 0
2021-09-09 20:41:19 GMT 54.408115 -3.321200 28,000 150 396 0
2021-09-09 20:41:17 GMT 54.408115 -3.321200 28,000 150 396 0
2021-09-09 20:41:16 GMT 54.409557 -3.322615 28,000 150 396 0
2021-09-09 20:41:15 GMT 54.412674 -3.325626 28,000 150 396 0
2021-09-09 20:41:13 GMT 54.414276 -3.327161 28,000 150 396 0
2021-09-09 20:41:12 GMT 54.415981 -3.328774 28,000 150 396 0
2021-09-09 20:41:11 GMT 54.419083 -3.331766 28,000 150 396 0
2021-09-09 20:41:09 GMT 54.420776 -3.333352 28,000 150 396 0
2021-09-09 20:41:07 GMT 54.424919 -3.337347 28,000 150 396 0
2021-09-09 20:41:05 GMT 54.426689 -3.339011 28,000 150 396 0
2021-09-09 20:41:03 GMT 54.429855 -3.342091 28,000 150 396 0
2021-09-09 20:41:01 GMT 54.435162 -3.347168 28,000 150 396 0
2021-09-09 20:40:59 GMT 54.436798 -3.348730 28,000 150 396 0
2021-09-09 20:40:58 GMT 54.438328 -3.350247 28,000 150 396 0
2021-09-09 20:40:56 GMT 54.441540 -3.353244 28,000 150 396 0
2021-09-09 20:40:54 GMT 54.444168 -3.355839 28,000 150 396 0
2021-09-09 20:40:53 GMT 54.445908 -3.357454 28,000 150 395 0
2021-09-09 20:40:52 GMT 54.447590 -3.359070 28,000 150 395 0
2021-09-09 20:40:50 GMT 54.451035 -3.362382 28,000 151 396 0
2021-09-09 20:40:48 GMT 54.454239 -3.365371 28,000 151 395 0
2021-09-09 20:40:46 GMT 54.457260 -3.368198 28,000 151 396 0
2021-09-09 20:40:45 GMT 54.458862 -3.369733 28,000 151 395 64
2021-09-09 20:40:43 GMT 54.462021 -3.372636 28,000 152 395 64
2021-09-09 20:40:42 GMT 54.463650 -3.374051 28,000 152 395 0
2021-09-09 20:40:41 GMT 54.468632 -3.378546 28,000 152 395 0
2021-09-09 20:40:39 GMT 54.468632 -3.378546 28,000 153 394 0
2021-09-09 20:40:38 GMT 54.470261 -3.379960 28,000 153 394 0
2021-09-09 20:40:37 GMT 54.475056 -3.383872 28,000 154 394 0
2021-09-09 20:40:35 GMT 54.475056 -3.383872 28,000 155 394 0
2021-09-09 20:40:34 GMT 54.476685 -3.385204 28,000 156 393 0
2021-09-09 20:40:32 GMT 54.480179 -3.387867 28,000 156 394 0
2021-09-09 20:40:31 GMT 54.481853 -3.389116 28,000 156 393 0
2021-09-09 20:40:30 GMT 54.483582 -3.390413 28,000 157 394 0
2021-09-09 20:40:28 GMT 54.486969 -3.392837 28,000 158 394 -64
2021-09-09 20:40:27 GMT 54.488480 -3.393887 28,000 158 393 -64
2021-09-09 20:40:26 GMT 54.492050 -3.396229 28,000 159 393 -64
2021-09-09 20:40:24 GMT 54.493675 -3.397272 28,000 160 393 -64
2021-09-09 20:40:23 GMT 54.495213 -3.398188 28,000 160 394 -64
2021-09-09 20:40:22 GMT 54.498688 -3.400349 28,000 161 394 -64
2021-09-09 20:40:20 GMT 54.501114 -3.401723 28,000 161 393 0
2021-09-09 20:40:17 GMT 54.506199 -3.404680 28,000 161 394 -64
2021-09-09 20:40:16 GMT 54.508106 -3.405678 28,025 161 394 0
2021-09-09 20:40:14 GMT 54.510773 -3.407216 28,025 161 394 0
2021-09-09 20:40:13 GMT 54.514206 -3.409235 28,000 161 394 0
2021-09-09 20:40:10 GMT 54.517933 -3.411338 28,000 161 394 64
2021-09-09 20:40:09 GMT 54.519379 -3.412143 28,025 161 394 0
2021-09-09 20:40:08 GMT 54.524635 -3.415167 28,000 161 394 0
2021-09-09 20:40:06 GMT 54.524635 -3.415167 28,000 161 394 0
2021-09-09 20:40:05 GMT 54.528351 -3.417314 28,000 161 394 64
2021-09-09 20:40:03 GMT 54.529907 -3.418121 28,000 161 394 64
2021-09-09 20:40:02 GMT 54.531712 -3.419162 28,000 161 394 64
2021-09-09 20:40:00 GMT 54.535339 -3.421242 28,000 161 394 64
2021-09-09 20:39:59 GMT 54.536877 -3.422158 28,000 161 394 64
2021-09-09 20:39:58 GMT 54.540508 -3.424239 28,000 161 393 64
2021-09-09 20:39:56 GMT 54.542313 -3.425230 28,000 161 393 64
2021-09-09 20:39:55 GMT 54.543869 -3.426119 28,000 161 393 64
2021-09-09 20:39:53 GMT 54.547348 -3.428058 28,000 161 393 0
2021-09-09 20:39:52 GMT 54.548904 -3.428946 28,000 161 393 0
2021-09-09 20:39:51 GMT 54.553123 -3.431313 28,000 161 393 -64
2021-09-09 20:39:49 GMT 54.554077 -3.431854 28,000 161 393 -64
2021-09-09 20:39:47 GMT 54.557594 -3.433893 28,000 161 393 -64
2021-09-09 20:39:46 GMT 54.559361 -3.434892 28,000 161 393 -64
2021-09-09 20:39:45 GMT 54.561085 -3.435808 28,000 161 393 -64
2021-09-09 20:39:44 GMT 54.564789 -3.437913 28,000 161 393 -64
2021-09-09 20:39:42 GMT 54.566345 -3.438801 28,000 161 393 -64
2021-09-09 20:39:41 GMT 54.569881 -3.440801 28,000 161 393 -64
2021-09-09 20:39:38 GMT 54.573578 -3.442921 28,000 161 393 0
2021-09-09 20:39:36 GMT 54.577011 -3.444860 28,000 161 392 0
2021-09-09 20:39:35 GMT 54.578751 -3.445830 28,000 161 392 -64
2021-09-09 20:39:34 GMT 54.582779 -3.448126 28,000 161 392 0
2021-09-09 20:39:31 GMT 54.585384 -3.449624 28,000 161 392 -64
2021-09-09 20:39:28 GMT 54.590553 -3.452537 28,000 161 393 64
2021-09-09 20:39:26 GMT 54.596146 -3.455766 28,000 161 393 64
2021-09-09 20:39:23 GMT 54.599396 -3.457624 28,000 161 394 64
2021-09-09 20:39:21 GMT 54.602608 -3.459445 28,000 161 394 0
2021-09-09 20:39:19 GMT 54.605869 -3.461276 28,000 161 394 64
2021-09-09 20:39:18 GMT 54.607681 -3.462309 28,000 161 394 64
2021-09-09 20:39:17 GMT 54.609360 -3.463273 28,000 161 394 64
2021-09-09 20:39:16 GMT 54.614777 -3.466348 28,000 161 394 0
2021-09-09 20:39:14 GMT 54.614777 -3.466348 28,000 161 394 0
2021-09-09 20:39:12 GMT 54.618298 -3.468350 28,000 161 394 0
2021-09-09 20:39:11 GMT 54.619881 -3.469266 28,000 161 394 0
2021-09-09 20:39:10 GMT 54.623062 -3.471114 28,000 161 394 0
2021-09-09 20:39:08 GMT 54.624802 -3.472084 28,000 161 394 0
2021-09-09 20:39:07 GMT 54.627182 -3.473457 28,000 161 394 0
2021-09-09 20:39:06 GMT 54.628819 -3.474426 28,000 161 394 0
2021-09-09 20:39:04 GMT 54.632450 -3.476507 28,000 161 394 0
2021-09-09 20:39:02 GMT 54.635834 -3.478385 28,000 161 394 0
2021-09-09 20:39:01 GMT 54.637615 -3.479420 28,000 161 394 0
2021-09-09 20:39:00 GMT 54.639450 -3.480485 28,000 161 394 0
2021-09-09 20:38:58 GMT 54.642132 -3.482000 28,000 161 394 0
2021-09-09 20:38:57 GMT 54.644039 -3.483082 28,000 161 394 0
2021-09-09 20:38:56 GMT 54.647488 -3.485080 28,000 161 394 -64
2021-09-09 20:38:53 GMT 54.651169 -3.487190 28,000 161 394 -64
2021-09-09 20:38:51 GMT 54.654144 -3.488805 28,000 161 394 0
2021-09-09 20:38:50 GMT 54.655884 -3.489775 28,000 161 394 0
2021-09-09 20:38:47 GMT 54.660988 -3.492654 28,000 161 394 0
2021-09-09 20:38:45 GMT 54.664803 -3.494818 28,000 161 394 0
2021-09-09 20:38:43 GMT 54.667549 -3.496399 28,000 161 394 0
2021-09-09 20:38:42 GMT 54.669643 -3.497564 28,000 161 394 0
2021-09-09 20:38:40 GMT 54.673004 -3.499469 28,000 161 394 0
2021-09-09 20:38:39 GMT 54.674561 -3.500276 28,025 161 394 0
2021-09-09 20:38:38 GMT 54.676395 -3.501309 28,000 161 394 0
2021-09-09 20:38:37 GMT 54.679779 -3.503185 28,000 161 394 0
2021-09-09 20:38:35 GMT 54.682205 -3.504558 28,025 161 394 0
2021-09-09 20:38:34 GMT 54.685822 -3.506658 28,025 161 394 0
2021-09-09 20:38:32 GMT 54.687744 -3.507708 28,000 161 394 0
2021-09-09 20:38:31 GMT 54.689384 -3.508634 28,000 161 394 0
2021-09-09 20:38:29 GMT 54.692734 -3.510536 28,000 161 394 0
2021-09-09 20:38:27 GMT 54.697857 -3.513378 28,000 161 394 0
2021-09-09 20:38:25 GMT 54.699692 -3.514413 28,000 161 394 0
2021-09-09 20:38:24 GMT 54.703125 -3.516352 28,000 161 394 0
2021-09-09 20:38:21 GMT 54.706699 -3.518372 28,000 161 394 0
2021-09-09 20:38:18 GMT 54.711777 -3.521280 28,000 161 394 0
2021-09-09 20:38:16 GMT 54.715256 -3.523299 28,000 161 395 0
2021-09-09 20:38:15 GMT 54.716812 -3.524188 28,000 161 395 0
2021-09-09 20:38:14 GMT 54.718616 -3.525196 28,000 161 395 0
2021-09-09 20:38:12 GMT 54.721226 -3.526695 28,000 161 395 0
2021-09-09 20:38:10 GMT 54.725368 -3.529108 28,000 161 396 0
2021-09-09 20:38:07 GMT 54.729813 -3.531701 28,000 161 396 0
2021-09-09 20:38:04 GMT 54.736038 -3.535255 28,000 161 396 0
2021-09-09 20:38:02 GMT 54.739056 -3.537015 28,000 161 396 0
2021-09-09 20:38:00 GMT 54.742813 -3.539213 28,000 161 396 0
2021-09-09 20:37:57 GMT 54.748169 -3.542364 28,000 161 395 0
2021-09-09 20:37:54 GMT 54.756317 -3.547130 28,000 161 395 0
2021-09-09 20:37:52 GMT 54.756317 -3.547130 28,000 161 395 0
2021-09-09 20:37:50 GMT 54.759750 -3.549149 28,000 161 395 0
2021-09-09 20:37:47 GMT 54.764969 -3.552138 28,000 161 395 0
2021-09-09 20:37:45 GMT 54.768265 -3.554077 28,000 161 395 0
2021-09-09 20:37:42 GMT 54.774059 -3.557490 28,000 161 395 0
2021-09-09 20:37:40 GMT 54.777691 -3.559570 28,000 161 395 0
2021-09-09 20:37:37 GMT 54.782272 -3.562236 28,000 161 394 0
2021-09-09 20:37:35 GMT 54.785706 -3.564256 28,000 161 395 0
2021-09-09 20:37:33 GMT 54.788315 -3.565791 28,000 161 395 0
2021-09-09 20:37:31 GMT 54.796360 -3.570473 28,000 161 394 0
2021-09-09 20:37:29 GMT 54.800766 -3.573061 28,000 161 394 0
2021-09-09 20:37:26 GMT 54.800766 -3.573061 28,000 161 394 0
2021-09-09 20:37:24 GMT 54.804703 -3.575404 28,000 161 394 0
2021-09-09 20:37:22 GMT 54.807999 -3.577342 28,000 161 394 0
2021-09-09 20:37:20 GMT 54.812485 -3.579927 28,025 161 394 0
2021-09-09 20:37:17 GMT 54.817028 -3.582625 28,000 161 394 0
2021-09-09 20:37:14 GMT 54.821358 -3.585205 28,000 161 394 0
2021-09-09 20:37:12 GMT 54.825211 -3.587440 28,000 161 394 0
2021-09-09 20:37:10 GMT 54.828712 -3.589533 28,000 161 394 0
2021-09-09 20:37:07 GMT 54.835007 -3.593256 28,000 161 394 0
2021-09-09 20:37:04 GMT 54.842491 -3.597606 28,000 161 394 0
2021-09-09 20:37:02 GMT 54.842491 -3.597606 28,000 161 394 0
2021-09-09 20:37:00 GMT 54.845856 -3.599638 28,000 161 394 0
2021-09-09 20:36:57 GMT 54.851616 -3.603016 28,000 161 394 0
2021-09-09 20:36:55 GMT 54.854279 -3.604566 28,000 161 394 0
2021-09-09 20:36:53 GMT 54.857624 -3.606512 28,000 161 394 0
2021-09-09 20:36:50 GMT 54.863117 -3.609841 28,000 161 394 64
2021-09-09 20:36:47 GMT 54.868378 -3.612886 28,000 161 394 64
2021-09-09 20:36:45 GMT 54.872177 -3.615148 28,000 161 394 64
2021-09-09 20:36:43 GMT 54.874847 -3.616749 28,000 161 394 64
2021-09-09 20:36:40 GMT 54.879456 -3.619430 28,000 161 396 0
2021-09-09 20:36:37 GMT 54.884716 -3.622492 28,000 161 396 0
2021-09-09 20:36:35 GMT 54.888428 -3.624761 28,000 161 397 0
2021-09-09 20:36:33 GMT 54.892090 -3.626862 28,000 161 397 0
2021-09-09 20:36:31 GMT 54.895523 -3.628962 28,000 161 397 0
2021-09-09 20:36:29 GMT 54.898132 -3.630497 28,000 160 397 -64
2021-09-09 20:36:26 GMT 54.905777 -3.635021 28,000 161 397 -64
2021-09-09 20:36:23 GMT 54.908524 -3.636717 28,000 160 396 -64
2021-09-09 20:36:21 GMT 54.913811 -3.639887 28,000 160 396 0
2021-09-09 20:36:18 GMT 54.923264 -3.645522 28,000 160 396 0
2021-09-09 20:36:15 GMT 54.923264 -3.645522 28,000 160 396 0
2021-09-09 20:36:13 GMT 54.926800 -3.647711 28,000 160 396 0
2021-09-09 20:36:10 GMT 54.931782 -3.650707 28,000 160 395 0
2021-09-09 20:36:07 GMT 54.941090 -3.656450 28,025 160 395 0
2021-09-09 20:36:05 GMT 54.941090 -3.656450 28,025 160 394 0
2021-09-09 20:36:03 GMT 54.947796 -3.660528 28,000 160 394 0
2021-09-09 20:36:01 GMT 54.947796 -3.660528 28,000 160 394 0
2021-09-09 20:35:59 GMT 54.952332 -3.663294 28,000 160 394 0
2021-09-09 20:35:56 GMT 54.961258 -3.668787 28,000 160 394 0
2021-09-09 20:35:53 GMT 54.961258 -3.668787 28,000 160 394 0
2021-09-09 20:35:50 GMT 54.965809 -3.671514 28,000 160 394 0
2021-09-09 20:35:48 GMT 54.970604 -3.674427 28,000 160 394 0
2021-09-09 20:35:45 GMT 54.974991 -3.677108 28,000 160 395 0
2021-09-09 20:35:43 GMT 54.978607 -3.679289 28,000 160 395 0
2021-09-09 20:35:40 GMT 54.982803 -3.681918 28,000 160 395 0
2021-09-09 20:35:38 GMT 54.992809 -3.687911 28,000 160 395 0
2021-09-09 20:35:35 GMT 54.992809 -3.687911 28,000 160 395 0
2021-09-09 20:35:32 GMT 54.996254 -3.689991 28,000 160 395 0
2021-09-09 20:35:30 GMT 55.000809 -3.692780 28,000 160 395 0
2021-09-09 20:35:28 GMT 55.005981 -3.695930 28,000 160 395 0
2021-09-09 20:35:25 GMT 55.010220 -3.698481 28,000 160 395 0
2021-09-09 20:35:23 GMT 55.013992 -3.700728 28,000 160 395 0
2021-09-09 20:35:20 GMT 55.017517 -3.702877 28,000 160 395 64
2021-09-09 20:35:18 GMT 55.021954 -3.705555 28,000 160 395 64
2021-09-09 20:35:15 GMT 55.026855 -3.708532 28,000 160 395 64
2021-09-09 20:35:13 GMT 55.031075 -3.711048 28,000 160 395 64
2021-09-09 20:35:10 GMT 55.035645 -3.713783 28,000 160 395 0
2021-09-09 20:35:07 GMT 55.040943 -3.716875 28,000 161 395 0
2021-09-09 20:35:05 GMT 55.044903 -3.719288 28,000 161 395 0
2021-09-09 20:35:03 GMT 55.047462 -3.720870 28,000 161 395 0
2021-09-09 20:35:00 GMT 55.052490 -3.723783 28,000 161 395 0
2021-09-09 20:34:58 GMT 55.057251 -3.726627 28,000 161 395 0
2021-09-09 20:34:55 GMT 55.062241 -3.729616 28,000 161 394 0
2021-09-09 20:34:53 GMT 55.064732 -3.731107 28,000 161 394 0
2021-09-09 20:34:50 GMT 55.070457 -3.734353 28,000 161 394 0
2021-09-09 20:34:48 GMT 55.073822 -3.736321 28,000 162 394 64
2021-09-09 20:34:46 GMT 55.078308 -3.738825 28,000 163 394 0
2021-09-09 20:34:43 GMT 55.086365 -3.742945 28,000 163 394 0
2021-09-09 20:34:40 GMT 55.088196 -3.743758 28,000 165 394 0
2021-09-09 20:34:37 GMT 55.092911 -3.745692 28,000 167 394 0
2021-09-09 20:34:35 GMT 55.095749 -3.746742 28,000 169 394 0
2021-09-09 20:34:33 GMT 55.101372 -3.748585 28,000 171 393 0
2021-09-09 20:34:30 GMT 55.103886 -3.749251 28,000 171 393 0
2021-09-09 20:34:28 GMT 55.109756 -3.750619 28,025 176 394 -64
2021-09-09 20:34:25 GMT 55.114609 -3.751346 28,025 176 392 0
2021-09-09 20:34:23 GMT 55.118225 -3.751831 28,000 176 392 0
2021-09-09 20:34:20 GMT 55.122757 -3.752316 28,000 176 393 0
2021-09-09 20:34:18 GMT 55.127838 -3.752800 28,000 176 393 -64
2021-09-09 20:34:16 GMT 55.129906 -3.753080 28,025 176 393 -64
2021-09-09 20:34:14 GMT 55.138844 -3.753995 28,025 176 394 -64
2021-09-09 20:34:12 GMT 55.138844 -3.753995 28,025 176 397 0
2021-09-09 20:34:09 GMT 55.148026 -3.754901 28,025 176 395 -64
2021-09-09 20:34:06 GMT 55.148026 -3.754901 28,025 176 395 -64
2021-09-09 20:34:03 GMT 55.155418 -3.755660 28,025 176 396 -64
2021-09-09 20:34:00 GMT 55.164459 -3.756678 28,025 176 396 0
2021-09-09 20:33:58 GMT 55.164459 -3.756678 28,025 176 396 0
2021-09-09 20:33:56 GMT 55.167206 -3.756920 28,025 176 397 0
2021-09-09 20:33:54 GMT 55.170734 -3.757324 28,025 176 397 0
2021-09-09 20:33:52 GMT 55.173203 -3.757567 28,025 176 397 0
2021-09-09 20:33:50 GMT 55.180939 -3.758374 28,025 176 399 64
2021-09-09 20:33:48 GMT 55.184830 -3.758859 28,000 176 400 128
2021-09-09 20:33:46 GMT 55.189270 -3.759263 28,000 176 402 128
2021-09-09 20:33:44 GMT 55.189270 -3.759263 28,000 176 402 128
2021-09-09 20:33:42 GMT 55.192612 -3.759667 28,000 176 402 128
2021-09-09 20:33:39 GMT 55.198849 -3.760320 27,975 176 405 64
2021-09-09 20:33:36 GMT 55.203415 -3.760798 27,975 176 406 128
2021-09-09 20:33:34 GMT 55.208206 -3.761319 27,975 176 407 256
2021-09-09 20:33:32 GMT 55.212116 -3.761735 27,975 176 406 320
2021-09-09 20:33:29 GMT 55.217468 -3.762333 27,950 176 406 384
2021-09-09 20:33:26 GMT 55.225708 -3.763221 27,950 176 406 576
2021-09-09 20:33:24 GMT 55.225708 -3.763221 27,925 176 406 640
2021-09-09 20:33:22 GMT 55.229576 -3.763650 27,900 176 405 832
2021-09-09 20:33:20 GMT 55.235275 -3.764271 27,825 176 405 1216
2021-09-09 20:33:17 GMT 55.240860 -3.764918 27,750 176 404 1536
2021-09-09 20:33:14 GMT 55.244980 -3.765402 27,700 176 404 1536
2021-09-09 20:33:12 GMT 55.248802 -3.765814 27,700 176 403 1728
2021-09-09 20:33:10 GMT 55.252579 -3.766210 27,625 176 403 1856
2021-09-09 20:33:07 GMT 55.257877 -3.766812 27,500 176 403 2048
2021-09-09 20:33:05 GMT 55.264297 -3.767503 27,400 176 403 1984
2021-09-09 20:33:02 GMT 55.272961 -3.768477 27,300 176 403 1920
2021-09-09 20:32:59 GMT 55.272961 -3.768477 27,300 176 403 1920
2021-09-09 20:32:56 GMT 55.278259 -3.769118 27,125 176 403 1856
2021-09-09 20:32:54 GMT 55.282085 -3.769559 27,125 176 403 1856
2021-09-09 20:32:52 GMT 55.287487 -3.770142 27,075 176 403 1856
2021-09-09 20:32:49 GMT 55.292404 -3.770734 26,875 176 403 1856
2021-09-09 20:32:46 GMT 55.296982 -3.771224 26,875 176 403 1792
2021-09-09 20:32:43 GMT 55.303207 -3.771946 26,775 176 403 1600
2021-09-09 20:32:41 GMT 55.305817 -3.772188 26,750 176 403 1600
2021-09-09 20:32:39 GMT 55.310440 -3.772673 26,600 176 402 1472
2021-09-09 20:32:36 GMT 55.317856 -3.773400 26,575 176 401 1536
2021-09-09 20:32:33 GMT 55.321747 -3.773804 26,525 177 401 1600
2021-09-09 20:32:31 GMT 55.325638 -3.774127 26,500 177 401 1664
2021-09-09 20:32:28 GMT 55.331543 -3.774612 26,350 177 400 1856
2021-09-09 20:32:25 GMT 55.336460 -3.774969 26,250 178 400 1920
2021-09-09 20:32:22 GMT 55.345047 -3.775177 26,150 180 400 1984
2021-09-09 20:32:20 GMT 55.345047 -3.775177 26,075 181 400 1984
2021-09-09 20:32:17 GMT 55.351959 -3.774969 25,975 183 400 1984
2021-09-09 20:32:14 GMT 55.360992 -3.774137 25,900 184 400 1920
2021-09-09 20:32:12 GMT 55.360992 -3.774137 25,825 185 399 1792
2021-09-09 20:32:09 GMT 55.364594 -3.773642 25,800 186 399 1728
2021-09-09 20:32:07 GMT 55.368347 -3.773055 25,750 186 400 1536
2021-09-09 20:32:05 GMT 55.372833 -3.772188 25,675 187 398 1472
2021-09-09 20:32:03 GMT 55.375656 -3.771557 25,625 188 398 1408
2021-09-09 20:32:01 GMT 55.380219 -3.770558 25,575 188 398 1344
2021-09-09 20:31:58 GMT 55.386703 -3.769199 25,500 188 397 1344
2021-09-09 20:31:56 GMT 55.393021 -3.767826 25,450 187 395 1408
2021-09-09 20:31:54 GMT 55.393021 -3.767826 25,425 187 394 1408
2021-09-09 20:31:52 GMT 55.395767 -3.767180 25,375 187 393 1536
2021-09-09 20:31:50 GMT 55.400070 -3.766291 25,300 187 393 1600
2021-09-09 20:31:47 GMT 55.404705 -3.765314 25,225 187 392 1728
2021-09-09 20:31:45 GMT 55.409821 -3.764191 25,175 187 392 1984
2021-09-09 20:31:42 GMT 55.413502 -3.763400 25,125 187 392 2048
2021-09-09 20:31:39 GMT 55.420074 -3.762090 24,950 187 392 2304
2021-09-09 20:31:36 GMT 55.429516 -3.760071 24,850 187 392 2240
2021-09-09 20:31:34 GMT 55.432590 -3.759488 24,750 187 392 2176
2021-09-09 20:31:32 GMT 55.432590 -3.759488 24,650 187 392 2176
2021-09-09 20:31:29 GMT 55.437290 -3.758489 24,575 187 392 2112
2021-09-09 20:31:27 GMT 55.440948 -3.757728 24,550 188 392 2048
2021-09-09 20:31:25 GMT 55.448364 -3.756076 24,425 188 392 1920
2021-09-09 20:31:23 GMT 55.448364 -3.756076 24,400 188 392 1984
2021-09-09 20:31:21 GMT 55.452747 -3.755093 24,325 188 392 1920
2021-09-09 20:31:19 GMT 55.456146 -3.754320 24,250 188 390 1792
2021-09-09 20:31:16 GMT 55.461357 -3.753119 24,175 188 391 1792
2021-09-09 20:31:14 GMT 55.467865 -3.751581 24,100 188 391 1792
2021-09-09 20:31:12 GMT 55.471481 -3.750832 23,850 188 388 1728
2021-09-09 20:31:10 GMT 55.474255 -3.750200 23,850 188 388 1728
2021-09-09 20:31:08 GMT 55.474255 -3.750200 23,975 188 390 1792
2021-09-09 20:31:06 GMT 55.479748 -3.748913 23,875 188 389 1792
2021-09-09 20:31:04 GMT 55.483429 -3.748086 23,800 188 389 1792
2021-09-09 20:31:02 GMT 55.486172 -3.747454 23,700 188 388 1728
2021-09-09 20:30:59 GMT 55.491211 -3.746255 23,650 188 387 1728
2021-09-09 20:30:57 GMT 55.496460 -3.745050 23,575 188 386 1728
2021-09-09 20:30:54 GMT 55.501068 -3.743935 23,525 188 385 1728
2021-09-09 20:30:51 GMT 55.506409 -3.742676 23,425 188 384 1792
2021-09-09 20:30:49 GMT 55.509064 -3.742093 23,375 188 383 1856
2021-09-09 20:30:47 GMT 55.516617 -3.740262 23,300 188 383 1856
2021-09-09 20:30:45 GMT 55.516617 -3.740262 23,275 188 383 1856
2021-09-09 20:30:42 GMT 55.523987 -3.738514 23,100 188 382 1984
2021-09-09 20:30:39 GMT 55.527416 -3.737669 23,025 188 382 1984
2021-09-09 20:30:36 GMT 55.535610 -3.735695 22,875 188 381 1984
2021-09-09 20:30:34 GMT 55.539001 -3.734852 22,875 188 381 1984
2021-09-09 20:30:32 GMT 55.539001 -3.734852 22,825 188 380 1984
2021-09-09 20:30:29 GMT 55.544315 -3.733549 22,725 188 380 2048
2021-09-09 20:30:27 GMT 55.547806 -3.732691 22,675 188 380 2048
2021-09-09 20:30:25 GMT 55.551544 -3.731773 22,600 188 379 2112
2021-09-09 20:30:22 GMT 55.557674 -3.730288 22,475 188 379 2112
2021-09-09 20:30:19 GMT 55.561493 -3.729343 22,400 188 379 2112
2021-09-09 20:30:16 GMT 55.570335 -3.727198 22,250 188 378 2112
2021-09-09 20:30:14 GMT 55.570335 -3.727198 22,175 188 378 2176
2021-09-09 20:30:12 GMT 55.574154 -3.726254 21,925 188 377 2112
2021-09-09 20:30:09 GMT 55.578812 -3.725138 22,000 188 377 2240
2021-09-09 20:30:06 GMT 55.584778 -3.723783 21,900 188 377 2112
2021-09-09 20:30:04 GMT 55.587341 -3.723117 21,850 188 376 2048
2021-09-09 20:30:02 GMT 55.592449 -3.721876 21,750 188 376 2112
2021-09-09 20:29:59 GMT 55.595196 -3.721189 21,700 188 375 2112
2021-09-09 20:29:57 GMT 55.599480 -3.720160 21,600 188 375 2112
2021-09-09 20:29:55 GMT 55.602814 -3.719371 21,550 188 374 2112
2021-09-09 20:29:52 GMT 55.609680 -3.717624 21,400 189 374 2048
2021-09-09 20:29:49 GMT 55.613167 -3.716726 21,325 189 373 2048
2021-09-09 20:29:47 GMT 55.616611 -3.715868 21,250 189 373 2112
2021-09-09 20:29:45 GMT 55.619934 -3.715044 21,200 189 373 2176
2021-09-09 20:29:42 GMT 55.630947 -3.712263 20,925 189 372 2240
2021-09-09 20:29:39 GMT 55.630947 -3.712263 20,900 189 372 2240
2021-09-09 20:29:37 GMT 55.633461 -3.711662 20,900 189 372 2240
2021-09-09 20:29:35 GMT 55.638519 -3.710383 20,750 189 371 2304
2021-09-09 20:29:32 GMT 55.642914 -3.709301 20,575 189 371 2432
2021-09-09 20:29:29 GMT 55.647427 -3.708143 20,500 189 371 2496
2021-09-09 20:29:27 GMT 55.650558 -3.707303 20,500 189 370 2496
2021-09-09 20:29:25 GMT 55.654266 -3.706388 20,375 189 370 2496
2021-09-09 20:29:22 GMT 55.663422 -3.704057 20,250 189 370 2432
2021-09-09 20:29:20 GMT 55.663422 -3.704057 20,175 189 370 2432
2021-09-09 20:29:17 GMT 55.667770 -3.702908 20,075 189 370 2432
2021-09-09 20:29:15 GMT 55.671310 -3.701963 20,000 189 369 2432
2021-09-09 20:29:12 GMT 55.676147 -3.700811 19,825 189 369 2432
2021-09-09 20:29:10 GMT 55.684570 -3.698647 19,750 189 369 2432
2021-09-09 20:29:08 GMT 55.684570 -3.698647 19,650 189 368 2432
2021-09-09 20:29:05 GMT 55.686996 -3.698015 19,575 189 368 2496
2021-09-09 20:29:03 GMT 55.691422 -3.696899 19,500 189 368 2496
2021-09-09 20:29:01 GMT 55.695007 -3.695984 19,375 189 368 2368
2021-09-09 20:28:58 GMT 55.700912 -3.694403 19,275 189 365 1920
2021-09-09 20:28:55 GMT 55.706955 -3.692904 19,150 189 366 2112
2021-09-09 20:28:52 GMT 55.709389 -3.692265 19,125 189 366 1984
2021-09-09 20:28:49 GMT 55.715012 -3.690824 19,000 189 365 1920
2021-09-09 20:28:46 GMT 55.721008 -3.689326 18,875 189 363 1792
2021-09-09 20:28:43 GMT 55.725403 -3.688231 18,800 189 362 1792
2021-09-09 20:28:41 GMT 55.728523 -3.687372 17,950 189 357 2944
2021-09-09 20:28:38 GMT 55.737213 -3.685164 18,625 189 359 2048
2021-09-09 20:28:35 GMT 55.737213 -3.685164 18,550 189 359 2048
2021-09-09 20:28:33 GMT 55.741695 -3.684025 18,475 189 358 2304
2021-09-09 20:28:31 GMT 55.744816 -3.683252 18,375 189 357 2496
2021-09-09 20:28:28 GMT 55.749664 -3.682085 18,300 189 357 2688
2021-09-09 20:28:25 GMT 55.754059 -3.680919 18,150 189 357 2880
2021-09-09 20:28:23 GMT 55.757385 -3.680077 18,000 189 357 2944
2021-09-09 20:28:21 GMT 55.759918 -3.679421 18,000 189 357 2944
2021-09-09 20:28:18 GMT 55.767471 -3.677590 17,750 189 357 2880
2021-09-09 20:28:15 GMT 55.770000 -3.676901 17,575 189 357 2624
2021-09-09 20:28:13 GMT 55.774155 -3.675842 17,575 189 357 2560
2021-09-09 20:28:11 GMT 55.777771 -3.674927 17,475 189 357 2432
2021-09-09 20:28:08 GMT 55.782104 -3.673897 17,400 189 357 2304
2021-09-09 20:28:05 GMT 55.786991 -3.672609 17,225 188 355 2240
2021-09-09 20:28:02 GMT 55.792236 -3.671348 17,125 188 354 2304
2021-09-09 20:28:00 GMT 55.797272 -3.670099 16,975 188 353 2432
2021-09-09 20:27:56 GMT 55.802074 -3.668919 16,900 188 353 2560
2021-09-09 20:27:53 GMT 55.806793 -3.667769 16,750 188 352 2496
2021-09-09 20:27:51 GMT 55.811005 -3.666687 16,625 188 352 2560
2021-09-09 20:27:48 GMT 55.815899 -3.665485 16,525 188 351 2624
2021-09-09 20:27:45 GMT 55.819702 -3.664606 16,400 188 351 2816
2021-09-09 20:27:42 GMT 55.826294 -3.662942 16,225 188 351 3072
2021-09-09 20:27:38 GMT 55.831879 -3.661610 16,050 188 351 3072
2021-09-09 20:27:35 GMT 55.840668 -3.659477 15,900 188 351 2880
2021-09-09 20:27:32 GMT 55.840668 -3.659477 15,775 188 351 2752
2021-09-09 20:27:29 GMT 55.845383 -3.658281 15,650 188 351 2560
2021-09-09 20:27:25 GMT 55.851887 -3.656731 15,225 188 347 2944
2021-09-09 20:27:22 GMT 55.856682 -3.655615 15,375 188 349 2624
2021-09-09 20:27:19 GMT 55.861427 -3.654413 15,200 188 348 2816
2021-09-09 20:27:15 GMT 55.867081 -3.653121 14,775 188 346 2880
2021-09-09 20:27:13 GMT 55.871159 -3.652096 14,900 188 347 2944
2021-09-09 20:27:11 GMT 55.872803 -3.651706 14,850 188 346 2880
2021-09-09 20:27:08 GMT 55.878422 -3.650379 14,700 188 346 2816
2021-09-09 20:27:05 GMT 55.883240 -3.649209 14,525 188 346 2624
2021-09-09 20:27:03 GMT 55.887123 -3.648233 14,450 188 345 2624
2021-09-09 20:27:01 GMT 55.888569 -3.647890 14,400 188 345 2624
2021-09-09 20:26:58 GMT 55.894775 -3.646379 14,150 189 343 2816
2021-09-09 20:26:55 GMT 55.900406 -3.644964 14,050 189 342 2880
2021-09-09 20:26:52 GMT 55.905121 -3.643716 13,925 189 342 2944
2021-09-09 20:26:49 GMT 55.908554 -3.642717 13,800 190 342 3008
2021-09-09 20:26:45 GMT 55.914917 -3.640719 13,375 200 340 2432
2021-09-09 20:26:43 GMT 55.918488 -3.639388 13,500 196 341 2624
2021-09-09 20:26:38 GMT 55.924416 -3.636303 13,250 202 340 2368
2021-09-09 20:26:34 GMT 55.934982 -3.627205 13,100 213 337 2240
2021-09-09 20:26:31 GMT 55.934982 -3.627205 13,100 213 337 2240
2021-09-09 20:26:28 GMT 55.938171 -3.623491 12,975 217 336 2240
2021-09-09 20:26:24 GMT 55.943893 -3.615417 12,775 222 334 2688
2021-09-09 20:26:21 GMT 55.947224 -3.609867 12,700 226 333 2816
2021-09-09 20:26:17 GMT 55.951553 -3.601713 12,200 229 332 2944
2021-09-09 20:26:14 GMT 55.954788 -3.595359 12,350 229 332 2944
2021-09-09 20:26:11 GMT 55.957790 -3.589354 12,075 229 331 3136
2021-09-09 20:26:08 GMT 55.961014 -3.582875 11,925 229 330 3008
2021-09-09 20:26:05 GMT 55.964127 -3.576549 11,775 229 329 2816
2021-09-09 20:26:02 GMT 55.966915 -3.570900 11,700 229 329 2688
2021-09-09 20:25:58 GMT 55.970535 -3.563482 11,475 229 327 2624
2021-09-09 20:25:55 GMT 55.974106 -3.556158 11,125 229 322 2048
2021-09-09 20:25:52 GMT 55.976898 -3.550498 11,275 229 325 2432
2021-09-09 20:25:48 GMT 55.980743 -3.542675 11,025 229 320 1792
2021-09-09 20:25:44 GMT 55.984497 -3.535184 10,875 229 313 1344
2021-09-09 20:25:41 GMT 55.987610 -3.528859 10,900 229 314 1472
2021-09-09 20:25:38 GMT 55.989960 -3.524122 10,850 229 312 1280
2021-09-09 20:25:35 GMT 55.994244 -3.515539 10,750 229 307 1152
2021-09-09 20:25:32 GMT 55.996674 -3.510714 10,725 229 303 1280
2021-09-09 20:25:28 GMT 55.999832 -3.504472 10,625 229 298 1472
2021-09-09 20:25:25 GMT 56.005280 -3.493569 10,500 229 293 2048
2021-09-09 20:25:22 GMT 56.005280 -3.493569 10,450 229 291 2304
2021-09-09 20:25:20 GMT 56.006653 -3.490823 10,300 229 289 2624
2021-09-09 20:25:17 GMT 56.009277 -3.485584 10,275 229 288 2816
2021-09-09 20:25:14 GMT 56.015564 -3.473053 9,950 229 287 3136
2021-09-09 20:25:11 GMT 56.015564 -3.473053 9,900 229 286 3072
2021-09-09 20:25:08 GMT 56.017471 -3.469105 9,750 229 285 3072
2021-09-09 20:25:05 GMT 56.020477 -3.463024 9,625 229 284 2944
2021-09-09 20:25:02 GMT 56.023151 -3.457689 9,475 229 284 2880
2021-09-09 20:25:00 GMT 56.024361 -3.455200 9,300 230 282 2752
2021-09-09 20:24:57 GMT 56.027435 -3.448849 9,250 230 281 2752
2021-09-09 20:24:54 GMT 56.029900 -3.443785 9,100 230 279 2880
2021-09-09 20:24:51 GMT 56.032322 -3.438721 8,925 230 277 3136
2021-09-09 20:24:48 GMT 56.034943 -3.433311 8,700 230 276 3456
2021-09-09 20:24:45 GMT 56.037491 -3.427992 8,625 230 276 3584
2021-09-09 20:24:42 GMT 56.039932 -3.422907 8,425 230 276 3648
2021-09-09 20:24:40 GMT 56.041306 -3.420010 8,275 231 276 3520
2021-09-09 20:24:37 GMT 56.043819 -3.414602 8,125 231 275 3392
2021-09-09 20:24:34 GMT 56.046474 -3.408766 8,025 233 275 3264
2021-09-09 20:24:31 GMT 56.048721 -3.403431 7,800 235 275 3328
2021-09-09 20:24:28 GMT 56.050278 -3.399519 7,700 236 275 3456
2021-09-09 20:24:25 GMT 56.053162 -3.391779 6,850 239 275 3584
2021-09-09 20:24:22 GMT 56.054993 -3.386286 7,275 244 275 3584
2021-09-09 20:24:19 GMT 56.056763 -3.380356 7,100 247 276 3456
2021-09-09 20:24:15 GMT 56.058716 -3.371515 6,850 254 277 3328
2021-09-09 20:24:13 GMT 56.059570 -3.366061 6,725 258 277 3200
2021-09-09 20:24:10 GMT 56.060162 -3.360786 6,525 265 278 3264
2021-09-09 20:24:07 GMT 56.060623 -3.354435 6,450 267 277 3328
2021-09-09 20:24:04 GMT 56.060764 -3.347311 6,200 273 278 3584
2021-09-09 20:24:00 GMT 56.060577 -3.340343 6,100 277 278 3584
2021-09-09 20:23:58 GMT 56.060112 -3.334265 5,850 284 279 3520
2021-09-09 20:23:55 GMT 56.058975 -3.325861 5,700 289 280 3520
2021-09-09 20:23:53 GMT 56.058380 -3.322615 5,625 291 279 3520
2021-09-09 20:23:50 GMT 56.056854 -3.315811 5,350 299 280 3584
2021-09-09 20:23:47 GMT 56.055084 -3.309548 4,675 306 280 3520
2021-09-09 20:23:44 GMT 56.053596 -3.305340 5,100 306 280 3520
2021-09-09 20:23:42 GMT 56.051193 -3.299477 4,825 315 280 3520
2021-09-09 20:23:39 GMT 56.049545 -3.296070 4,825 315 280 3520
2021-09-09 20:23:36 GMT 56.045975 -3.289906 4,525 322 279 3584
2021-09-09 20:23:33 GMT 56.039070 -3.281221 4,275 328 278 3648
2021-09-09 20:23:30 GMT 56.039070 -3.281221 4,175 334 277 3520
2021-09-09 20:23:27 GMT 56.036839 -3.279076 4,000 337 276 3328
2021-09-09 20:23:24 GMT 56.031391 -3.275127 3,850 343 276 3136
2021-09-09 20:23:22 GMT 56.027161 -3.273177 3,750 347 274 2944
2021-09-09 20:23:19 GMT 56.027161 -3.273177 3,625 352 271 2624
2021-09-09 20:23:16 GMT 56.023544 -3.272261 3,550 356 269 2496
2021-09-09 20:23:13 GMT 56.021011 -3.271952 3,450 0 268 2368
2021-09-09 20:23:11 GMT 56.016861 -3.272095 3,300 8 261 1920
2021-09-09 20:23:08 GMT 56.013653 -3.272724 3,200 12 257 1728
2021-09-09 20:23:04 GMT 56.009399 -3.274425 3,125 27 243 1664
2021-09-09 20:23:02 GMT 56.006744 -3.276007 3,050 25 245 1664
2021-09-09 20:22:59 GMT 56.003551 -3.278475 3,000 27 243 1664
2021-09-09 20:22:56 GMT 56.000992 -3.280964 2,925 31 238 1728
2021-09-09 20:22:53 GMT 55.998711 -3.283539 2,850 34 235 1728
2021-09-09 20:22:51 GMT 55.995987 -3.286993 2,725 36 226 1728
2021-09-09 20:22:48 GMT 55.993469 -3.290239 2,650 35 222 1664
2021-09-09 20:22:44 GMT 55.990334 -3.294268 2,575 35 218 1472
2021-09-09 20:22:42 GMT 55.988571 -3.296481 2,525 35 213 896
2021-09-09 20:22:39 GMT 55.985687 -3.300143 2,500 35 206 512
2021-09-09 20:22:36 GMT 55.983673 -3.302640 2,450 35 197 896
2021-09-09 20:22:33 GMT 55.981487 -3.305426 2,400 35 192 1280
2021-09-09 20:22:30 GMT 55.979576 -3.307829 2,375 35 190 1280
2021-09-09 20:22:27 GMT 55.975479 -3.313236 2,200 38 178 1280
2021-09-09 20:22:24 GMT 55.975479 -3.313236 2,250 37 181 1280
2021-09-09 20:22:21 GMT 55.973190 -3.316373 2,175 38 176 1280
2021-09-09 20:22:17 GMT 55.970921 -3.319674 2,050 42 167 1280
2021-09-09 20:22:14 GMT 55.967335 -3.325510 1,950 43 163 1344
2021-09-09 20:22:11 GMT 55.967335 -3.325510 1,950 44 160 1408
2021-09-09 20:22:08 GMT 55.965473 -3.328943 1,850 48 155 1600
2021-09-09 20:22:05 GMT 55.964542 -3.330832 1,775 50 153 1600
2021-09-09 20:22:03 GMT 55.963100 -3.334093 1,725 53 151 1536
2021-09-09 20:22:02 GMT 55.963100 -3.334093 1,725 54 149 1536
2021-09-09 20:22:00 GMT 55.962387 -3.335932 1,675 56 147 1536
2021-09-09 20:21:58 GMT 55.961609 -3.337955 1,625 58 144 1792
2021-09-09 20:21:56 GMT 55.960911 -3.340101 1,550 59 141 2368
2021-09-09 20:21:52 GMT 55.959373 -3.344736 1,325 59 143 2752
2021-09-09 20:21:48 GMT 55.957993 -3.348916 1,150 58 143 2816
2021-09-09 20:21:40 GMT 55.954533 -3.359070 750 58 144 2560
2021-09-09 20:21:37 GMT 55.954533 -3.359070 700 58 144 2624
2021-09-09 20:21:28 GMT 55.951355 -3.368475 325 58 149 1408
2021-09-09 20:21:17 GMT 55.947601 -3.379544 300 58 109 64
2021-09-09 20:21:11 GMT 55.946247 -3.383553 0 59 88
2021-09-09 20:21:08 GMT 55.945641 -3.385334 0 59 74
2021-09-09 20:20:55 GMT 55.944294 -3.389282 0 59 5
2021-09-09 20:20:48 GMT 55.944279 -3.389304 0 59 0
2021-09-09 20:20:40 GMT 55.944267 -3.389347 0 56 5
2021-09-09 20:20:37 GMT 55.944260 -3.389449 0 47 6
2021-09-09 20:20:26 GMT 55.943989 -3.389797 0 337 9
2021-09-09 20:19:54 GMT 55.942841 -3.388533 0 281 9
2021-09-09 20:19:09 GMT 55.943222 -3.386729 0 239 10
2021-09-09 20:19:03 GMT 55.943359 -3.386321 0 239 9
2021-09-09 20:18:55 GMT 55.943516 -3.385891 0 239 8
2021-09-09 20:18:42 GMT 55.943813 -3.385012 0 239 12
2021-09-09 20:18:37 GMT 55.943966 -3.384562 0 239 12
2021-09-09 20:18:26 GMT 55.944244 -3.383725 0 239 11
2021-09-09 20:18:15 GMT 55.944546 -3.382866 0 239 12
2021-09-09 20:18:07 GMT 55.944794 -3.382137 0 239 15
2021-09-09 20:17:56 GMT 55.945141 -3.381064 0 239 15
2021-09-09 20:17:45 GMT 55.945507 -3.380002 0 239 14
2021-09-09 20:17:36 GMT 55.945827 -3.379066 0 239 14
2021-09-09 20:17:26 GMT 55.946182 -3.378005 0 239 17
2021-09-09 20:17:16 GMT 55.946583 -3.376839 0 239 16
2021-09-09 20:16:59 GMT 55.947166 -3.375092 0 239 14
2021-09-09 20:16:55 GMT 55.947269 -3.374798 0 239 14
2021-09-09 20:16:31 GMT 55.947968 -3.372761 0 239 12
2021-09-09 20:16:21 GMT 55.948288 -3.371783 0 239 15
2021-09-09 20:16:14 GMT 55.948528 -3.371108 0 239 17
2021-09-09 20:16:05 GMT 55.948875 -3.370056 0 239 17
2021-09-09 20:16:00 GMT 55.949078 -3.369474 0 239 16
2021-09-09 20:15:53 GMT 55.949329 -3.368724 0 239 16
2021-09-09 20:15:48 GMT 55.949512 -3.368183 0 239 15
2021-09-09 20:15:45 GMT 55.949635 -3.367825 0 239 15
2021-09-09 20:15:41 GMT 55.949810 -3.367289 0 239 14
2021-09-09 20:15:35 GMT 55.949970 -3.366831 0 239 14
2021-09-09 20:15:30 GMT 55.950123 -3.366365 0 239 14
2021-09-09 20:15:25 GMT 55.950298 -3.365872 0 239 14
2021-09-09 20:15:14 GMT 55.950623 -3.364917 0 239 13
2021-09-09 20:15:09 GMT 55.950752 -3.364520 0 239 12
2021-09-09 20:15:04 GMT 55.950886 -3.364105 0 239 11
2021-09-09 20:15:00 GMT 55.951012 -3.363751 0 239 11
2021-09-09 20:14:54 GMT 55.951134 -3.363383 0 239 9
2021-09-09 20:14:45 GMT 55.951309 -3.362889 0 255 6
2021-09-09 20:14:34 GMT 55.951355 -3.362399 0 284 7
2021-09-09 20:14:24 GMT 55.951241 -3.361709 0 286 10
2021-09-09 20:14:14 GMT 55.951103 -3.360984 0 289 10
2021-09-09 20:14:04 GMT 55.950981 -3.360293 0 289 8
2021-09-09 20:13:54 GMT 55.950855 -3.359671 0 298 7
2021-09-09 20:13:44 GMT 55.950748 -3.359340 0 298 2
2021-09-09 20:13:33 GMT 55.950748 -3.359320 0 298 0
2021-09-09 20:13:23 GMT 55.950748 -3.359299 0 298 2
2021-09-09 20:13:11 GMT 55.950623 -3.358862 0 303 7
2021-09-09 20:13:04 GMT 55.950504 -3.358533 0 329 8
2021-09-09 20:12:53 GMT 55.950134 -3.358340 0 25 8
2021-09-09 20:12:42 GMT 55.949810 -3.358612 0 2 9
2021-09-09 20:12:33 GMT 55.949444 -3.358550 0 323 9
2021-09-09 20:12:23 GMT 55.949169 -3.358040 0 298 8
2021-09-09 20:12:12 GMT 55.949020 -3.357530 0 298 7
2021-09-09 20:12:03 GMT 55.948898 -3.357139 0 298 3
2021-09-09 20:11:52 GMT 55.948837 -3.356947 0 298 0
2021-09-09 20:11:42 GMT 55.948830 -3.356924 0 298 0
2021-09-09 20:11:32 GMT 55.948826 -3.356947 0 298 0
2021-09-09 20:11:23 GMT 55.948830 -3.356946 0 298 0
2021-09-09 20:11:12 GMT 55.948818 -3.356946 0 298 0
2021-09-09 20:11:02 GMT 55.948814 -3.356927 0 298 0
2021-09-09 20:10:52 GMT 55.948795 -3.356924 0 298 0
2021-09-09 20:10:41 GMT 55.948784 -3.356924 0 298 0
2021-09-09 20:10:32 GMT 55.948780 -3.356927 0 298 0
2021-09-09 20:10:21 GMT 55.948784 -3.356924 0 298 0
2021-09-09 20:10:11 GMT 55.948792 -3.356927 0 298 0
2021-09-09 20:10:01 GMT 55.948803 -3.356927 0 298 0
2021-09-09 20:09:41 GMT 55.948814 -3.356927 0 298 0
2021-09-09 20:09:22 GMT 55.948807 -3.356924 0 298 0
2021-09-09 20:09:17 GMT 55.948818 -3.356946 0 298 0
2021-09-09 20:08:40 GMT 55.948814 -3.356927 0 298 0
2021-09-09 20:08:30 GMT 55.948807 -3.356946 0 298 0
2021-09-09 20:08:21 GMT 55.948830 -3.357031 0 295 3
2021-09-09 20:08:10 GMT 55.948883 -3.357197 0 298 3
2021-09-09 20:08:00 GMT 55.948948 -3.357375 0 300 3
2021-09-09 20:07:50 GMT 55.948997 -3.357551 0 298 3
2021-09-09 20:07:40 GMT 55.949055 -3.357759 0 295 3
2021-09-09 20:07:30 GMT 55.949100 -3.357925 0 292 2
2021-09-09 20:07:20 GMT 55.949097 -3.358083 0 278 3
2021-09-09 20:07:09 GMT 55.949032 -3.358217 0 253 2
2021-09-09 20:07:00 GMT 55.948959 -3.358340 0 230 3
2021-09-09 20:06:49 GMT 55.948826 -3.358425 0 210 4

Making use of Plane Finder data

You are free to use the raw flight data, aircraft information and images provided in this report for your own purposes provided the data is correctly attributed to Plane Finder. We ask that you please credit Plane Finder and link to planefinder.net in close proximity to the content.

Optionally one of the following logos (no smaller then 150x24px) can be used and must link to planefinder.net

Embedding the Plane Finder map

You are welcome to embed the Plane Finder playback map on your website to offer visitors a more interactive experience. We suggest using the following HTML code:

<iframe src="//planefinder.net/data/report/U220-G-EZUA-7700-squawk-2021-09-09/map" width="800" height="600" seamless="seamless"></iframe>

Where our data comes from

Plane Finder has a global network of data feeds and antenna radars that receive data broadcast directly from aircraft. The primary technologies used are ADS-B and MLAT. We also show feeds from the FAA and a FLARM glider feed.

Click here to find out more about the Plane Finder network.

How we collect our data